<?xml version="1.0" encoding="UTF-8" standalone="no" ?>
<gpx xmlns="http://www.topografix.com/GPX/1/1" xmlns:xsi="http://www.w3.org/2001/XMLSchema-instance" xsi:schemaLocation="http://www.topografix.com/GPX/1/1 http://www.topografix.com/GPX/1/1/gpx.xsd" version="1.1" creator="VisuGPX - https://www.visugpx.com">
  <metadata>
    <name>Noeux 42 Kms</name>
  </metadata>
  <trk>
    <name><![CDATA[Noeux 42 Kms_1]]></name>
    <trkseg>
      <trkpt lat="50.42498" lon="2.61631">
        <ele>172.30008216</ele>
        <time>2017-09-03T10:31:19Z</time>
      </trkpt>
      <trkpt lat="50.4248" lon="2.6161">
        <ele>172.30082008</ele>
        <time>2017-09-03T10:31:23Z</time>
      </trkpt>
      <trkpt lat="50.42455" lon="2.61586">
        <ele>170.30180944</ele>
        <time>2017-09-03T10:31:28Z</time>
      </trkpt>
      <trkpt lat="50.42433" lon="2.61564">
        <ele>172.30267432</ele>
        <time>2017-09-03T10:31:33Z</time>
      </trkpt>
      <trkpt lat="50.42411" lon="2.6154">
        <ele>173.30357808</ele>
        <time>2017-09-03T10:31:37Z</time>
      </trkpt>
      <trkpt lat="50.42393" lon="2.6152">
        <ele>174.30427348</ele>
        <time>2017-09-03T10:31:42Z</time>
      </trkpt>
      <trkpt lat="50.42376" lon="2.615">
        <ele>173.3049686</ele>
        <time>2017-09-03T10:31:46Z</time>
      </trkpt>
      <trkpt lat="50.42357" lon="2.61481">
        <ele>172.3057076</ele>
        <time>2017-09-03T10:31:50Z</time>
      </trkpt>
      <trkpt lat="50.42334" lon="2.61455">
        <ele>173.30662932</ele>
        <time>2017-09-03T10:31:55Z</time>
      </trkpt>
      <trkpt lat="50.42311" lon="2.61432">
        <ele>174.30755312</ele>
        <time>2017-09-03T10:32:00Z</time>
      </trkpt>
      <trkpt lat="50.42293" lon="2.61413">
        <ele>175.30828344</ele>
        <time>2017-09-03T10:32:04Z</time>
      </trkpt>
      <trkpt lat="50.42269" lon="2.61389">
        <ele>174.30923332</ele>
        <time>2017-09-03T10:32:09Z</time>
      </trkpt>
      <trkpt lat="50.42253" lon="2.6137">
        <ele>173.30990124</ele>
        <time>2017-09-03T10:32:13Z</time>
      </trkpt>
      <trkpt lat="50.42237" lon="2.61351">
        <ele>173.31053992</ele>
        <time>2017-09-03T10:32:18Z</time>
      </trkpt>
      <trkpt lat="50.42235" lon="2.61338">
        <ele>179.31061228</ele>
        <time>2017-09-03T10:33:33Z</time>
      </trkpt>
      <trkpt lat="50.42227" lon="2.61336">
        <ele>175.3109388</ele>
        <time>2017-09-03T10:37:17Z</time>
      </trkpt>
      <trkpt lat="50.4221" lon="2.61321">
        <ele>174.31161296</ele>
        <time>2017-09-03T10:37:21Z</time>
      </trkpt>
      <trkpt lat="50.42186" lon="2.61295">
        <ele>175.31257092</ele>
        <time>2017-09-03T10:37:26Z</time>
      </trkpt>
      <trkpt lat="50.42167" lon="2.61274">
        <ele>175.31333524</ele>
        <time>2017-09-03T10:37:30Z</time>
      </trkpt>
      <trkpt lat="50.42144" lon="2.6125">
        <ele>175.31424408</ele>
        <time>2017-09-03T10:37:35Z</time>
      </trkpt>
      <trkpt lat="50.42123" lon="2.61228">
        <ele>174.31509236</ele>
        <time>2017-09-03T10:37:40Z</time>
      </trkpt>
      <trkpt lat="50.42104" lon="2.61209">
        <ele>174.31583616</ele>
        <time>2017-09-03T10:37:44Z</time>
      </trkpt>
      <trkpt lat="50.42086" lon="2.61188">
        <ele>174.31657796</ele>
        <time>2017-09-03T10:37:48Z</time>
      </trkpt>
      <trkpt lat="50.42063" lon="2.61161">
        <ele>174.31748732</ele>
        <time>2017-09-03T10:37:53Z</time>
      </trkpt>
      <trkpt lat="50.42043" lon="2.61133">
        <ele>174.31827716</ele>
        <time>2017-09-03T10:37:58Z</time>
      </trkpt>
      <trkpt lat="50.42033" lon="2.61106">
        <ele>174.31867772</ele>
        <time>2017-09-03T10:38:02Z</time>
      </trkpt>
      <trkpt lat="50.42029" lon="2.61079">
        <ele>172.31882924</ele>
        <time>2017-09-03T10:38:06Z</time>
      </trkpt>
      <trkpt lat="50.42029" lon="2.61051">
        <ele>173.31882284</ele>
        <time>2017-09-03T10:38:11Z</time>
      </trkpt>
      <trkpt lat="50.42028" lon="2.61024">
        <ele>175.31886392</ele>
        <time>2017-09-03T10:38:15Z</time>
      </trkpt>
      <trkpt lat="50.42027" lon="2.60996">
        <ele>175.31893084</ele>
        <time>2017-09-03T10:38:19Z</time>
      </trkpt>
      <trkpt lat="50.42026" lon="2.60966">
        <ele>175.31897768</ele>
        <time>2017-09-03T10:38:24Z</time>
      </trkpt>
      <trkpt lat="50.4202" lon="2.60947">
        <ele>176.31921908</ele>
        <time>2017-09-03T10:38:28Z</time>
      </trkpt>
      <trkpt lat="50.42014" lon="2.60917">
        <ele>175.31944848</ele>
        <time>2017-09-03T10:38:32Z</time>
      </trkpt>
      <trkpt lat="50.42009" lon="2.60883">
        <ele>177.3196448</ele>
        <time>2017-09-03T10:38:36Z</time>
      </trkpt>
      <trkpt lat="50.42004" lon="2.60854">
        <ele>180.31983688</ele>
        <time>2017-09-03T10:38:40Z</time>
      </trkpt>
      <trkpt lat="50.41998" lon="2.60817">
        <ele>183.32008888</ele>
        <time>2017-09-03T10:38:45Z</time>
      </trkpt>
      <trkpt lat="50.41999" lon="2.60774">
        <ele>182.3200566</ele>
        <time>2017-09-03T10:38:50Z</time>
      </trkpt>
      <trkpt lat="50.41996" lon="2.60758">
        <ele>179.32016688</ele>
        <time>2017-09-03T10:38:54Z</time>
      </trkpt>
      <trkpt lat="50.41999" lon="2.60745">
        <ele>179.32004492</ele>
        <time>2017-09-03T10:39:02Z</time>
      </trkpt>
      <trkpt lat="50.41998" lon="2.60728">
        <ele>180.32007312</ele>
        <time>2017-09-03T10:39:07Z</time>
      </trkpt>
      <trkpt lat="50.42005" lon="2.60704">
        <ele>180.31979652</ele>
        <time>2017-09-03T10:39:12Z</time>
      </trkpt>
      <trkpt lat="50.42019" lon="2.60682">
        <ele>179.31924644</ele>
        <time>2017-09-03T10:39:17Z</time>
      </trkpt>
      <trkpt lat="50.42025" lon="2.60662">
        <ele>184.3189876</ele>
        <time>2017-09-03T10:39:21Z</time>
      </trkpt>
      <trkpt lat="50.42036" lon="2.60634">
        <ele>181.31855404</ele>
        <time>2017-09-03T10:39:26Z</time>
      </trkpt>
      <trkpt lat="50.42046" lon="2.60618">
        <ele>181.3181602</ele>
        <time>2017-09-03T10:39:31Z</time>
      </trkpt>
      <trkpt lat="50.42052" lon="2.60597">
        <ele>177.31790372</ele>
        <time>2017-09-03T10:39:35Z</time>
      </trkpt>
      <trkpt lat="50.42061" lon="2.60567">
        <ele>177.317573</ele>
        <time>2017-09-03T10:39:40Z</time>
      </trkpt>
      <trkpt lat="50.42071" lon="2.60542">
        <ele>177.31714708</ele>
        <time>2017-09-03T10:39:44Z</time>
      </trkpt>
      <trkpt lat="50.42082" lon="2.60521">
        <ele>177.3167254</ele>
        <time>2017-09-03T10:39:49Z</time>
      </trkpt>
      <trkpt lat="50.42093" lon="2.605">
        <ele>178.31628172</ele>
        <time>2017-09-03T10:39:53Z</time>
      </trkpt>
      <trkpt lat="50.421" lon="2.60482">
        <ele>178.31601608</ele>
        <time>2017-09-03T10:39:57Z</time>
      </trkpt>
      <trkpt lat="50.42109" lon="2.60458">
        <ele>180.315637</ele>
        <time>2017-09-03T10:40:00Z</time>
      </trkpt>
      <trkpt lat="50.4212" lon="2.60444">
        <ele>180.31521876</ele>
        <time>2017-09-03T10:40:05Z</time>
      </trkpt>
      <trkpt lat="50.42124" lon="2.60425">
        <ele>175.31505056</ele>
        <time>2017-09-03T10:40:09Z</time>
      </trkpt>
      <trkpt lat="50.42126" lon="2.60396">
        <ele>174.31497388</ele>
        <time>2017-09-03T10:40:14Z</time>
      </trkpt>
      <trkpt lat="50.42139" lon="2.60378">
        <ele>174.31443712</ele>
        <time>2017-09-03T10:40:19Z</time>
      </trkpt>
      <trkpt lat="50.42145" lon="2.60358">
        <ele>173.31421724</ele>
        <time>2017-09-03T10:40:23Z</time>
      </trkpt>
      <trkpt lat="50.42148" lon="2.60347">
        <ele>173.31409692</ele>
        <time>2017-09-03T10:40:27Z</time>
      </trkpt>
      <trkpt lat="50.42152" lon="2.60331">
        <ele>174.31390232</ele>
        <time>2017-09-03T10:40:32Z</time>
      </trkpt>
      <trkpt lat="50.42158" lon="2.60324">
        <ele>172.31368492</ele>
        <time>2017-09-03T10:40:36Z</time>
      </trkpt>
      <trkpt lat="50.42164" lon="2.60309">
        <ele>169.31343348</ele>
        <time>2017-09-03T10:40:40Z</time>
      </trkpt>
      <trkpt lat="50.42169" lon="2.60282">
        <ele>166.3132246</ele>
        <time>2017-09-03T10:40:45Z</time>
      </trkpt>
      <trkpt lat="50.42185" lon="2.60255">
        <ele>170.31258912</ele>
        <time>2017-09-03T10:40:50Z</time>
      </trkpt>
      <trkpt lat="50.42189" lon="2.60242">
        <ele>169.31242604</ele>
        <time>2017-09-03T10:40:53Z</time>
      </trkpt>
      <trkpt lat="50.4219" lon="2.60228">
        <ele>165.3123836</ele>
        <time>2017-09-03T10:41:09Z</time>
      </trkpt>
      <trkpt lat="50.42197" lon="2.60212">
        <ele>162.31212312</ele>
        <time>2017-09-03T10:41:13Z</time>
      </trkpt>
      <trkpt lat="50.42207" lon="2.60207">
        <ele>158.31172536</ele>
        <time>2017-09-03T10:41:18Z</time>
      </trkpt>
      <trkpt lat="50.42218" lon="2.60211">
        <ele>160.31130048</ele>
        <time>2017-09-03T10:41:22Z</time>
      </trkpt>
      <trkpt lat="50.42236" lon="2.60214">
        <ele>162.31057908</ele>
        <time>2017-09-03T10:41:27Z</time>
      </trkpt>
      <trkpt lat="50.42249" lon="2.60227">
        <ele>163.31003608</ele>
        <time>2017-09-03T10:41:32Z</time>
      </trkpt>
      <trkpt lat="50.42264" lon="2.60235">
        <ele>160.30945268</ele>
        <time>2017-09-03T10:41:37Z</time>
      </trkpt>
      <trkpt lat="50.42282" lon="2.60229">
        <ele>160.30873876</ele>
        <time>2017-09-03T10:41:42Z</time>
      </trkpt>
      <trkpt lat="50.4229" lon="2.60232">
        <ele>158.30840052</ele>
        <time>2017-09-03T10:41:46Z</time>
      </trkpt>
      <trkpt lat="50.423" lon="2.60237">
        <ele>154.30800152</ele>
        <time>2017-09-03T10:41:50Z</time>
      </trkpt>
      <trkpt lat="50.42309" lon="2.60245">
        <ele>153.30764832</ele>
        <time>2017-09-03T10:41:54Z</time>
      </trkpt>
      <trkpt lat="50.42324" lon="2.60254">
        <ele>149.30702904</ele>
        <time>2017-09-03T10:41:58Z</time>
      </trkpt>
      <trkpt lat="50.42338" lon="2.6026">
        <ele>150.30649728</ele>
        <time>2017-09-03T10:42:03Z</time>
      </trkpt>
      <trkpt lat="50.42346" lon="2.60252">
        <ele>146.30616608</ele>
        <time>2017-09-03T10:42:07Z</time>
      </trkpt>
      <trkpt lat="50.42356" lon="2.60238">
        <ele>146.3057686</ele>
        <time>2017-09-03T10:42:12Z</time>
      </trkpt>
      <trkpt lat="50.42362" lon="2.60212">
        <ele>148.30550248</ele>
        <time>2017-09-03T10:42:16Z</time>
      </trkpt>
      <trkpt lat="50.42374" lon="2.6017">
        <ele>146.30503856</ele>
        <time>2017-09-03T10:42:21Z</time>
      </trkpt>
      <trkpt lat="50.42381" lon="2.6014">
        <ele>144.30477488</ele>
        <time>2017-09-03T10:42:25Z</time>
      </trkpt>
      <trkpt lat="50.42389" lon="2.60114">
        <ele>141.3044556</ele>
        <time>2017-09-03T10:42:29Z</time>
      </trkpt>
      <trkpt lat="50.42395" lon="2.6008">
        <ele>138.30419576</ele>
        <time>2017-09-03T10:42:34Z</time>
      </trkpt>
      <trkpt lat="50.42403" lon="2.60053">
        <ele>133.30390004</ele>
        <time>2017-09-03T10:42:38Z</time>
      </trkpt>
      <trkpt lat="50.42416" lon="2.60013">
        <ele>127.30335472</ele>
        <time>2017-09-03T10:42:43Z</time>
      </trkpt>
      <trkpt lat="50.42431" lon="2.59962">
        <ele>124.30278088</ele>
        <time>2017-09-03T10:42:48Z</time>
      </trkpt>
      <trkpt lat="50.4244" lon="2.59926">
        <ele>122.30241776</ele>
        <time>2017-09-03T10:42:52Z</time>
      </trkpt>
      <trkpt lat="50.42445" lon="2.59904">
        <ele>122.30221872</ele>
        <time>2017-09-03T10:42:56Z</time>
      </trkpt>
      <trkpt lat="50.42441" lon="2.59881">
        <ele>123.30235272</ele>
        <time>2017-09-03T10:43:00Z</time>
      </trkpt>
      <trkpt lat="50.42434" lon="2.59844">
        <ele>120.30265656</ele>
        <time>2017-09-03T10:43:05Z</time>
      </trkpt>
      <trkpt lat="50.42439" lon="2.59804">
        <ele>118.30245716</ele>
        <time>2017-09-03T10:43:09Z</time>
      </trkpt>
      <trkpt lat="50.42444" lon="2.59777">
        <ele>113.30223996</ele>
        <time>2017-09-03T10:43:13Z</time>
      </trkpt>
      <trkpt lat="50.42452" lon="2.59747">
        <ele>111.3019402</ele>
        <time>2017-09-03T10:43:18Z</time>
      </trkpt>
      <trkpt lat="50.42464" lon="2.59708">
        <ele>108.3014468</ele>
        <time>2017-09-03T10:43:23Z</time>
      </trkpt>
      <trkpt lat="50.42475" lon="2.59683">
        <ele>106.30099592</ele>
        <time>2017-09-03T10:43:26Z</time>
      </trkpt>
      <trkpt lat="50.42493" lon="2.59656">
        <ele>105.30028028</ele>
        <time>2017-09-03T10:43:31Z</time>
      </trkpt>
      <trkpt lat="50.42514" lon="2.59643">
        <ele>104.29945996</ele>
        <time>2017-09-03T10:43:36Z</time>
      </trkpt>
      <trkpt lat="50.42539" lon="2.59633">
        <ele>104.29844936</ele>
        <time>2017-09-03T10:43:41Z</time>
      </trkpt>
      <trkpt lat="50.42555" lon="2.59624">
        <ele>104.29780776</ele>
        <time>2017-09-03T10:43:45Z</time>
      </trkpt>
      <trkpt lat="50.42563" lon="2.59594">
        <ele>104.29748928</ele>
        <time>2017-09-03T10:43:50Z</time>
      </trkpt>
      <trkpt lat="50.42561" lon="2.59555">
        <ele>102.29754256</ele>
        <time>2017-09-03T10:43:54Z</time>
      </trkpt>
      <trkpt lat="50.42558" lon="2.59501">
        <ele>100.29766888</ele>
        <time>2017-09-03T10:43:59Z</time>
      </trkpt>
      <trkpt lat="50.42555" lon="2.59441">
        <ele>97.29778688</ele>
        <time>2017-09-03T10:44:04Z</time>
      </trkpt>
      <trkpt lat="50.42547" lon="2.5939">
        <ele>95.29813808</ele>
        <time>2017-09-03T10:44:08Z</time>
      </trkpt>
      <trkpt lat="50.42537" lon="2.59353">
        <ele>95.29852784</ele>
        <time>2017-09-03T10:44:11Z</time>
      </trkpt>
      <trkpt lat="50.42515" lon="2.59298">
        <ele>93.2994208</ele>
        <time>2017-09-03T10:44:16Z</time>
      </trkpt>
      <trkpt lat="50.42496" lon="2.59262">
        <ele>92.30015648</ele>
        <time>2017-09-03T10:44:20Z</time>
      </trkpt>
      <trkpt lat="50.42494" lon="2.5924">
        <ele>92.30025208</ele>
        <time>2017-09-03T10:44:24Z</time>
      </trkpt>
      <trkpt lat="50.42487" lon="2.59233">
        <ele>90.3005182</ele>
        <time>2017-09-03T10:44:29Z</time>
      </trkpt>
      <trkpt lat="50.42492" lon="2.59221">
        <ele>91.3003072</ele>
        <time>2017-09-03T10:44:34Z</time>
      </trkpt>
      <trkpt lat="50.42507" lon="2.59207">
        <ele>90.29973</ele>
        <time>2017-09-03T10:44:38Z</time>
      </trkpt>
      <trkpt lat="50.42524" lon="2.59188">
        <ele>90.29906184</ele>
        <time>2017-09-03T10:44:42Z</time>
      </trkpt>
      <trkpt lat="50.42543" lon="2.5916">
        <ele>90.29829036</ele>
        <time>2017-09-03T10:44:47Z</time>
      </trkpt>
      <trkpt lat="50.42558" lon="2.59137">
        <ele>90.29767</ele>
        <time>2017-09-03T10:44:51Z</time>
      </trkpt>
      <trkpt lat="50.42574" lon="2.59115">
        <ele>90.29705412</ele>
        <time>2017-09-03T10:44:55Z</time>
      </trkpt>
      <trkpt lat="50.42589" lon="2.59095">
        <ele>90.29644044</ele>
        <time>2017-09-03T10:44:59Z</time>
      </trkpt>
      <trkpt lat="50.42608" lon="2.59074">
        <ele>90.295673</ele>
        <time>2017-09-03T10:45:04Z</time>
      </trkpt>
      <trkpt lat="50.42624" lon="2.59059">
        <ele>90.2950584</ele>
        <time>2017-09-03T10:45:08Z</time>
      </trkpt>
      <trkpt lat="50.42645" lon="2.59049">
        <ele>92.29420072</ele>
        <time>2017-09-03T10:45:12Z</time>
      </trkpt>
      <trkpt lat="50.4266" lon="2.59046">
        <ele>91.29361548</ele>
        <time>2017-09-03T10:45:17Z</time>
      </trkpt>
      <trkpt lat="50.42673" lon="2.59045">
        <ele>91.2930706</ele>
        <time>2017-09-03T10:45:22Z</time>
      </trkpt>
      <trkpt lat="50.42686" lon="2.59043">
        <ele>93.2925506</ele>
        <time>2017-09-03T10:45:27Z</time>
      </trkpt>
      <trkpt lat="50.42695" lon="2.59043">
        <ele>94.29219224</ele>
        <time>2017-09-03T10:45:31Z</time>
      </trkpt>
      <trkpt lat="50.42704" lon="2.59042">
        <ele>94.2918378</ele>
        <time>2017-09-03T10:45:35Z</time>
      </trkpt>
      <trkpt lat="50.42713" lon="2.59044">
        <ele>95.2914734</ele>
        <time>2017-09-03T10:45:39Z</time>
      </trkpt>
      <trkpt lat="50.42721" lon="2.59044">
        <ele>95.29115096</ele>
        <time>2017-09-03T10:45:43Z</time>
      </trkpt>
      <trkpt lat="50.42729" lon="2.59043">
        <ele>95.290847</ele>
        <time>2017-09-03T10:45:47Z</time>
      </trkpt>
      <trkpt lat="50.42738" lon="2.59045">
        <ele>96.29049648</ele>
        <time>2017-09-03T10:45:52Z</time>
      </trkpt>
      <trkpt lat="50.42746" lon="2.59044">
        <ele>97.29016528</ele>
        <time>2017-09-03T10:47:58Z</time>
      </trkpt>
      <trkpt lat="50.42755" lon="2.59047">
        <ele>98.28982172</ele>
        <time>2017-09-03T10:48:03Z</time>
      </trkpt>
      <trkpt lat="50.42761" lon="2.59054">
        <ele>99.28955144</ele>
        <time>2017-09-03T10:48:07Z</time>
      </trkpt>
      <trkpt lat="50.42768" lon="2.5906">
        <ele>101.28929456</ele>
        <time>2017-09-03T10:48:11Z</time>
      </trkpt>
      <trkpt lat="50.42776" lon="2.59065">
        <ele>102.2889542</ele>
        <time>2017-09-03T10:48:16Z</time>
      </trkpt>
      <trkpt lat="50.42783" lon="2.59068">
        <ele>103.28866896</ele>
        <time>2017-09-03T10:48:21Z</time>
      </trkpt>
      <trkpt lat="50.42791" lon="2.59072">
        <ele>105.28835892</ele>
        <time>2017-09-03T10:48:25Z</time>
      </trkpt>
      <trkpt lat="50.42799" lon="2.59072">
        <ele>106.28804676</ele>
        <time>2017-09-03T10:48:31Z</time>
      </trkpt>
      <trkpt lat="50.42808" lon="2.59074">
        <ele>107.28769872</ele>
        <time>2017-09-03T10:48:37Z</time>
      </trkpt>
      <trkpt lat="50.42815" lon="2.59077">
        <ele>109.28739612</ele>
        <time>2017-09-03T10:48:42Z</time>
      </trkpt>
      <trkpt lat="50.42824" lon="2.59077">
        <ele>110.28704988</ele>
        <time>2017-09-03T10:48:48Z</time>
      </trkpt>
      <trkpt lat="50.42832" lon="2.5908">
        <ele>112.28672412</ele>
        <time>2017-09-03T10:48:54Z</time>
      </trkpt>
      <trkpt lat="50.4284" lon="2.59082">
        <ele>113.28640024</ele>
        <time>2017-09-03T10:49:00Z</time>
      </trkpt>
      <trkpt lat="50.42848" lon="2.59083">
        <ele>113.28609396</ele>
        <time>2017-09-03T10:49:06Z</time>
      </trkpt>
      <trkpt lat="50.42855" lon="2.59085">
        <ele>114.28580196</ele>
        <time>2017-09-03T10:49:10Z</time>
      </trkpt>
      <trkpt lat="50.42863" lon="2.59086">
        <ele>116.28549552</ele>
        <time>2017-09-03T10:49:15Z</time>
      </trkpt>
      <trkpt lat="50.42871" lon="2.59088">
        <ele>116.28515704</ele>
        <time>2017-09-03T10:49:20Z</time>
      </trkpt>
      <trkpt lat="50.42879" lon="2.59088">
        <ele>117.2848232</ele>
        <time>2017-09-03T10:49:25Z</time>
      </trkpt>
      <trkpt lat="50.42888" lon="2.59089">
        <ele>119.28447752</ele>
        <time>2017-09-03T10:49:30Z</time>
      </trkpt>
      <trkpt lat="50.42896" lon="2.59089">
        <ele>120.28416024</ele>
        <time>2017-09-03T10:49:36Z</time>
      </trkpt>
      <trkpt lat="50.42904" lon="2.59092">
        <ele>121.28384044</ele>
        <time>2017-09-03T10:49:41Z</time>
      </trkpt>
      <trkpt lat="50.42911" lon="2.59094">
        <ele>122.28354984</ele>
        <time>2017-09-03T10:49:45Z</time>
      </trkpt>
      <trkpt lat="50.42919" lon="2.59094">
        <ele>122.28323884</ele>
        <time>2017-09-03T10:49:50Z</time>
      </trkpt>
      <trkpt lat="50.42928" lon="2.59093">
        <ele>124.28289616</ele>
        <time>2017-09-03T10:49:54Z</time>
      </trkpt>
      <trkpt lat="50.42935" lon="2.59095">
        <ele>126.28259764</ele>
        <time>2017-09-03T10:50:00Z</time>
      </trkpt>
      <trkpt lat="50.42943" lon="2.59095">
        <ele>125.28229536</ele>
        <time>2017-09-03T10:50:05Z</time>
      </trkpt>
      <trkpt lat="50.4295" lon="2.59096">
        <ele>125.28199664</ele>
        <time>2017-09-03T10:50:09Z</time>
      </trkpt>
      <trkpt lat="50.42959" lon="2.59096">
        <ele>126.28164436</ele>
        <time>2017-09-03T10:50:14Z</time>
      </trkpt>
      <trkpt lat="50.42967" lon="2.59097">
        <ele>126.281307</ele>
        <time>2017-09-03T10:50:19Z</time>
      </trkpt>
      <trkpt lat="50.42976" lon="2.59099">
        <ele>127.2809784</ele>
        <time>2017-09-03T10:50:24Z</time>
      </trkpt>
      <trkpt lat="50.42984" lon="2.59099">
        <ele>130.28064548</ele>
        <time>2017-09-03T10:50:30Z</time>
      </trkpt>
      <trkpt lat="50.42992" lon="2.591">
        <ele>133.28030532</ele>
        <time>2017-09-03T10:50:36Z</time>
      </trkpt>
      <trkpt lat="50.43" lon="2.59101">
        <ele>134.2799824</ele>
        <time>2017-09-03T10:50:41Z</time>
      </trkpt>
      <trkpt lat="50.43009" lon="2.59104">
        <ele>133.27965552</ele>
        <time>2017-09-03T10:50:45Z</time>
      </trkpt>
      <trkpt lat="50.43016" lon="2.59105">
        <ele>135.27936796</ele>
        <time>2017-09-03T10:50:49Z</time>
      </trkpt>
      <trkpt lat="50.43025" lon="2.59104">
        <ele>136.27902116</ele>
        <time>2017-09-03T10:50:55Z</time>
      </trkpt>
      <trkpt lat="50.43032" lon="2.59103">
        <ele>137.27871692</ele>
        <time>2017-09-03T10:51:00Z</time>
      </trkpt>
      <trkpt lat="50.43041" lon="2.59105">
        <ele>137.27834672</ele>
        <time>2017-09-03T10:51:05Z</time>
      </trkpt>
      <trkpt lat="50.43049" lon="2.59107">
        <ele>137.27804088</ele>
        <time>2017-09-03T10:51:10Z</time>
      </trkpt>
      <trkpt lat="50.43056" lon="2.59108">
        <ele>138.27774376</ele>
        <time>2017-09-03T10:51:15Z</time>
      </trkpt>
      <trkpt lat="50.43065" lon="2.59107">
        <ele>137.27741256</ele>
        <time>2017-09-03T10:51:20Z</time>
      </trkpt>
      <trkpt lat="50.43073" lon="2.59108">
        <ele>138.27706932</ele>
        <time>2017-09-03T10:51:25Z</time>
      </trkpt>
      <trkpt lat="50.43082" lon="2.59111">
        <ele>139.276733</ele>
        <time>2017-09-03T10:51:29Z</time>
      </trkpt>
      <trkpt lat="50.43089" lon="2.59117">
        <ele>140.27645976</ele>
        <time>2017-09-03T10:51:34Z</time>
      </trkpt>
      <trkpt lat="50.43095" lon="2.59122">
        <ele>140.27619356</ele>
        <time>2017-09-03T10:51:38Z</time>
      </trkpt>
      <trkpt lat="50.43102" lon="2.59127">
        <ele>141.2759168</ele>
        <time>2017-09-03T10:51:42Z</time>
      </trkpt>
      <trkpt lat="50.4311" lon="2.59135">
        <ele>142.27561048</ele>
        <time>2017-09-03T10:51:47Z</time>
      </trkpt>
      <trkpt lat="50.43116" lon="2.59144">
        <ele>141.27536268</ele>
        <time>2017-09-03T10:51:52Z</time>
      </trkpt>
      <trkpt lat="50.43123" lon="2.59149">
        <ele>142.27507208</ele>
        <time>2017-09-03T10:51:57Z</time>
      </trkpt>
      <trkpt lat="50.43132" lon="2.59153">
        <ele>142.27473808</ele>
        <time>2017-09-03T10:52:02Z</time>
      </trkpt>
      <trkpt lat="50.43139" lon="2.59153">
        <ele>143.27443564</ele>
        <time>2017-09-03T10:52:07Z</time>
      </trkpt>
      <trkpt lat="50.43147" lon="2.59153">
        <ele>143.27412516</ele>
        <time>2017-09-03T10:52:11Z</time>
      </trkpt>
      <trkpt lat="50.43155" lon="2.59151">
        <ele>143.27379424</ele>
        <time>2017-09-03T10:52:16Z</time>
      </trkpt>
      <trkpt lat="50.43164" lon="2.59148">
        <ele>146.27345592</ele>
        <time>2017-09-03T10:52:21Z</time>
      </trkpt>
      <trkpt lat="50.43172" lon="2.59146">
        <ele>147.2731336</ele>
        <time>2017-09-03T10:52:25Z</time>
      </trkpt>
      <trkpt lat="50.43179" lon="2.5914">
        <ele>149.27282436</ele>
        <time>2017-09-03T10:52:31Z</time>
      </trkpt>
      <trkpt lat="50.43187" lon="2.59133">
        <ele>150.27250548</ele>
        <time>2017-09-03T10:52:36Z</time>
      </trkpt>
      <trkpt lat="50.43195" lon="2.59129">
        <ele>151.27218524</ele>
        <time>2017-09-03T10:52:41Z</time>
      </trkpt>
      <trkpt lat="50.43203" lon="2.59122">
        <ele>155.27189752</ele>
        <time>2017-09-03T10:52:47Z</time>
      </trkpt>
      <trkpt lat="50.43209" lon="2.59115">
        <ele>156.271652</ele>
        <time>2017-09-03T10:52:52Z</time>
      </trkpt>
      <trkpt lat="50.43214" lon="2.59109">
        <ele>156.27142976</ele>
        <time>2017-09-03T10:52:56Z</time>
      </trkpt>
      <trkpt lat="50.43222" lon="2.59102">
        <ele>158.27114112</ele>
        <time>2017-09-03T10:53:01Z</time>
      </trkpt>
      <trkpt lat="50.43227" lon="2.59094">
        <ele>158.27090952</ele>
        <time>2017-09-03T10:53:05Z</time>
      </trkpt>
      <trkpt lat="50.43229" lon="2.59082">
        <ele>157.27083984</ele>
        <time>2017-09-03T10:53:09Z</time>
      </trkpt>
      <trkpt lat="50.43235" lon="2.59071">
        <ele>159.27061504</ele>
        <time>2017-09-03T10:53:15Z</time>
      </trkpt>
      <trkpt lat="50.43239" lon="2.5906">
        <ele>159.2704382</ele>
        <time>2017-09-03T10:53:22Z</time>
      </trkpt>
      <trkpt lat="50.43244" lon="2.59053">
        <ele>157.2702338</ele>
        <time>2017-09-03T10:53:26Z</time>
      </trkpt>
      <trkpt lat="50.4325" lon="2.59042">
        <ele>159.2700138</ele>
        <time>2017-09-03T10:53:32Z</time>
      </trkpt>
      <trkpt lat="50.43251" lon="2.59029">
        <ele>163.2699456</ele>
        <time>2017-09-03T10:53:38Z</time>
      </trkpt>
      <trkpt lat="50.43257" lon="2.59019">
        <ele>162.26971056</ele>
        <time>2017-09-03T10:53:44Z</time>
      </trkpt>
      <trkpt lat="50.43258" lon="2.59007">
        <ele>165.269678</ele>
        <time>2017-09-03T10:53:49Z</time>
      </trkpt>
      <trkpt lat="50.43258" lon="2.58994">
        <ele>168.26969716</ele>
        <time>2017-09-03T10:53:55Z</time>
      </trkpt>
      <trkpt lat="50.43258" lon="2.5898">
        <ele>171.26967152</ele>
        <time>2017-09-03T10:54:01Z</time>
      </trkpt>
      <trkpt lat="50.43262" lon="2.58968">
        <ele>169.2695076</ele>
        <time>2017-09-03T10:54:08Z</time>
      </trkpt>
      <trkpt lat="50.43266" lon="2.58958">
        <ele>173.26936416</ele>
        <time>2017-09-03T10:54:14Z</time>
      </trkpt>
      <trkpt lat="50.43271" lon="2.58947">
        <ele>179.26915132</ele>
        <time>2017-09-03T10:54:22Z</time>
      </trkpt>
      <trkpt lat="50.43274" lon="2.58935">
        <ele>179.269032</ele>
        <time>2017-09-03T10:54:26Z</time>
      </trkpt>
      <trkpt lat="50.43281" lon="2.58925">
        <ele>182.2687666</ele>
        <time>2017-09-03T10:54:31Z</time>
      </trkpt>
      <trkpt lat="50.43293" lon="2.58913">
        <ele>176.26827688</ele>
        <time>2017-09-03T10:54:35Z</time>
      </trkpt>
      <trkpt lat="50.43298" lon="2.58901">
        <ele>178.26808136</ele>
        <time>2017-09-03T10:54:39Z</time>
      </trkpt>
      <trkpt lat="50.43307" lon="2.58885">
        <ele>184.26770796</ele>
        <time>2017-09-03T10:54:43Z</time>
      </trkpt>
      <trkpt lat="50.43319" lon="2.58871">
        <ele>180.2672506</ele>
        <time>2017-09-03T10:54:48Z</time>
      </trkpt>
      <trkpt lat="50.43326" lon="2.58856">
        <ele>179.2669678</ele>
        <time>2017-09-03T10:54:53Z</time>
      </trkpt>
      <trkpt lat="50.43332" lon="2.58845">
        <ele>181.2667126</ele>
        <time>2017-09-03T10:54:57Z</time>
      </trkpt>
      <trkpt lat="50.43341" lon="2.58828">
        <ele>181.26635</ele>
        <time>2017-09-03T10:55:02Z</time>
      </trkpt>
      <trkpt lat="50.43345" lon="2.58821">
        <ele>181.26621908</ele>
        <time>2017-09-03T10:55:04Z</time>
      </trkpt>
      <trkpt lat="50.43347" lon="2.5881">
        <ele>181.26610512</ele>
        <time>2017-09-03T10:55:08Z</time>
      </trkpt>
      <trkpt lat="50.43359" lon="2.58788">
        <ele>183.26564144</ele>
        <time>2017-09-03T10:55:13Z</time>
      </trkpt>
      <trkpt lat="50.43367" lon="2.58765">
        <ele>180.26534068</ele>
        <time>2017-09-03T10:55:18Z</time>
      </trkpt>
      <trkpt lat="50.43374" lon="2.58751">
        <ele>180.26505404</ele>
        <time>2017-09-03T10:55:21Z</time>
      </trkpt>
      <trkpt lat="50.43383" lon="2.58735">
        <ele>180.26467496</ele>
        <time>2017-09-03T10:55:25Z</time>
      </trkpt>
      <trkpt lat="50.43392" lon="2.58719">
        <ele>183.26432376</ele>
        <time>2017-09-03T10:55:30Z</time>
      </trkpt>
      <trkpt lat="50.43398" lon="2.58709">
        <ele>186.26406704</ele>
        <time>2017-09-03T10:55:35Z</time>
      </trkpt>
      <trkpt lat="50.43412" lon="2.58691">
        <ele>189.26351392</ele>
        <time>2017-09-03T10:55:39Z</time>
      </trkpt>
      <trkpt lat="50.43425" lon="2.58677">
        <ele>188.2630106</ele>
        <time>2017-09-03T10:55:44Z</time>
      </trkpt>
      <trkpt lat="50.4344" lon="2.58681">
        <ele>183.2624156</ele>
        <time>2017-09-03T10:55:48Z</time>
      </trkpt>
      <trkpt lat="50.43454" lon="2.58692">
        <ele>180.26183784</ele>
        <time>2017-09-03T10:55:52Z</time>
      </trkpt>
      <trkpt lat="50.4347" lon="2.58709">
        <ele>180.26121228</ele>
        <time>2017-09-03T10:55:57Z</time>
      </trkpt>
      <trkpt lat="50.43482" lon="2.58724">
        <ele>181.26071144</ele>
        <time>2017-09-03T10:56:01Z</time>
      </trkpt>
      <trkpt lat="50.43496" lon="2.58735">
        <ele>182.26016692</ele>
        <time>2017-09-03T10:56:05Z</time>
      </trkpt>
      <trkpt lat="50.43515" lon="2.5875">
        <ele>183.2593936</ele>
        <time>2017-09-03T10:56:10Z</time>
      </trkpt>
      <trkpt lat="50.43531" lon="2.58764">
        <ele>181.2587674</ele>
        <time>2017-09-03T10:56:14Z</time>
      </trkpt>
      <trkpt lat="50.43548" lon="2.58783">
        <ele>182.25808716</ele>
        <time>2017-09-03T10:56:19Z</time>
      </trkpt>
      <trkpt lat="50.43562" lon="2.588">
        <ele>183.25751804</ele>
        <time>2017-09-03T10:56:23Z</time>
      </trkpt>
      <trkpt lat="50.43577" lon="2.58802">
        <ele>184.25690484</ele>
        <time>2017-09-03T10:56:27Z</time>
      </trkpt>
      <trkpt lat="50.43589" lon="2.58803">
        <ele>182.25642564</ele>
        <time>2017-09-03T10:56:32Z</time>
      </trkpt>
      <trkpt lat="50.43607" lon="2.58818">
        <ele>182.25570276</ele>
        <time>2017-09-03T10:56:37Z</time>
      </trkpt>
      <trkpt lat="50.43623" lon="2.58834">
        <ele>182.2550666</ele>
        <time>2017-09-03T10:56:41Z</time>
      </trkpt>
      <trkpt lat="50.43645" lon="2.58852">
        <ele>181.2541944</ele>
        <time>2017-09-03T10:56:46Z</time>
      </trkpt>
      <trkpt lat="50.43667" lon="2.58867">
        <ele>183.2533238</ele>
        <time>2017-09-03T10:56:51Z</time>
      </trkpt>
      <trkpt lat="50.43689" lon="2.58885">
        <ele>181.2524568</ele>
        <time>2017-09-03T10:56:55Z</time>
      </trkpt>
      <trkpt lat="50.43705" lon="2.58911">
        <ele>178.25179976</ele>
        <time>2017-09-03T10:56:59Z</time>
      </trkpt>
      <trkpt lat="50.43723" lon="2.58933">
        <ele>176.25108756</ele>
        <time>2017-09-03T10:57:04Z</time>
      </trkpt>
      <trkpt lat="50.4374" lon="2.58951">
        <ele>175.2503886</ele>
        <time>2017-09-03T10:57:08Z</time>
      </trkpt>
      <trkpt lat="50.43766" lon="2.5897">
        <ele>172.24935088</ele>
        <time>2017-09-03T10:57:13Z</time>
      </trkpt>
      <trkpt lat="50.43784" lon="2.58987">
        <ele>171.2486312</ele>
        <time>2017-09-03T10:57:17Z</time>
      </trkpt>
      <trkpt lat="50.43808" lon="2.59005">
        <ele>168.2476908</ele>
        <time>2017-09-03T10:57:21Z</time>
      </trkpt>
      <trkpt lat="50.4383" lon="2.59022">
        <ele>168.2467826</ele>
        <time>2017-09-03T10:57:25Z</time>
      </trkpt>
      <trkpt lat="50.43852" lon="2.59042">
        <ele>165.24594152</ele>
        <time>2017-09-03T10:57:29Z</time>
      </trkpt>
      <trkpt lat="50.43871" lon="2.59059">
        <ele>164.24516988</ele>
        <time>2017-09-03T10:57:33Z</time>
      </trkpt>
      <trkpt lat="50.43888" lon="2.59074">
        <ele>161.24449792</ele>
        <time>2017-09-03T10:57:37Z</time>
      </trkpt>
      <trkpt lat="50.43907" lon="2.59088">
        <ele>159.24373088</ele>
        <time>2017-09-03T10:57:41Z</time>
      </trkpt>
      <trkpt lat="50.43928" lon="2.59108">
        <ele>157.24290008</ele>
        <time>2017-09-03T10:57:46Z</time>
      </trkpt>
      <trkpt lat="50.43949" lon="2.59124">
        <ele>154.24205672</ele>
        <time>2017-09-03T10:57:50Z</time>
      </trkpt>
      <trkpt lat="50.4396" lon="2.59133">
        <ele>153.24160088</ele>
        <time>2017-09-03T10:57:55Z</time>
      </trkpt>
      <trkpt lat="50.43966" lon="2.5914">
        <ele>153.24135004</ele>
        <time>2017-09-03T10:58:04Z</time>
      </trkpt>
      <trkpt lat="50.43978" lon="2.59146">
        <ele>154.24090052</ele>
        <time>2017-09-03T10:58:08Z</time>
      </trkpt>
      <trkpt lat="50.43998" lon="2.59141">
        <ele>153.24007932</ele>
        <time>2017-09-03T10:58:13Z</time>
      </trkpt>
      <trkpt lat="50.44014" lon="2.59137">
        <ele>156.23946</ele>
        <time>2017-09-03T10:58:17Z</time>
      </trkpt>
      <trkpt lat="50.44041" lon="2.59147">
        <ele>150.2383548</ele>
        <time>2017-09-03T10:58:22Z</time>
      </trkpt>
      <trkpt lat="50.44062" lon="2.59145">
        <ele>149.23750944</ele>
        <time>2017-09-03T10:58:27Z</time>
      </trkpt>
      <trkpt lat="50.44085" lon="2.59145">
        <ele>150.23661452</ele>
        <time>2017-09-03T10:58:31Z</time>
      </trkpt>
      <trkpt lat="50.44117" lon="2.5915">
        <ele>143.23532984</ele>
        <time>2017-09-03T10:58:36Z</time>
      </trkpt>
      <trkpt lat="50.4414" lon="2.59149">
        <ele>143.23439996</ele>
        <time>2017-09-03T10:58:40Z</time>
      </trkpt>
      <trkpt lat="50.44155" lon="2.5916">
        <ele>139.23379576</ele>
        <time>2017-09-03T10:58:44Z</time>
      </trkpt>
      <trkpt lat="50.44158" lon="2.5917">
        <ele>137.23368628</ele>
        <time>2017-09-03T10:58:48Z</time>
      </trkpt>
      <trkpt lat="50.44152" lon="2.59191">
        <ele>134.2339172</ele>
        <time>2017-09-03T10:58:53Z</time>
      </trkpt>
      <trkpt lat="50.44144" lon="2.59209">
        <ele>136.234259</ele>
        <time>2017-09-03T10:58:58Z</time>
      </trkpt>
      <trkpt lat="50.44134" lon="2.59226">
        <ele>136.23464944</ele>
        <time>2017-09-03T10:59:03Z</time>
      </trkpt>
      <trkpt lat="50.44124" lon="2.59242">
        <ele>137.2350592</ele>
        <time>2017-09-03T10:59:08Z</time>
      </trkpt>
      <trkpt lat="50.44117" lon="2.59255">
        <ele>134.2353122</ele>
        <time>2017-09-03T10:59:12Z</time>
      </trkpt>
      <trkpt lat="50.4411" lon="2.59265">
        <ele>136.23559208</ele>
        <time>2017-09-03T10:59:16Z</time>
      </trkpt>
      <trkpt lat="50.44104" lon="2.59278">
        <ele>139.23585452</ele>
        <time>2017-09-03T10:59:20Z</time>
      </trkpt>
      <trkpt lat="50.44095" lon="2.5929">
        <ele>144.23618552</ele>
        <time>2017-09-03T10:59:24Z</time>
      </trkpt>
      <trkpt lat="50.44088" lon="2.59309">
        <ele>145.23649084</ele>
        <time>2017-09-03T10:59:28Z</time>
      </trkpt>
      <trkpt lat="50.4408" lon="2.59322">
        <ele>145.2367968</ele>
        <time>2017-09-03T10:59:32Z</time>
      </trkpt>
      <trkpt lat="50.44074" lon="2.59334">
        <ele>145.23703796</ele>
        <time>2017-09-03T10:59:36Z</time>
      </trkpt>
      <trkpt lat="50.44063" lon="2.59351">
        <ele>147.23746836</ele>
        <time>2017-09-03T10:59:40Z</time>
      </trkpt>
      <trkpt lat="50.44055" lon="2.59363">
        <ele>145.23779276</ele>
        <time>2017-09-03T10:59:45Z</time>
      </trkpt>
      <trkpt lat="50.44044" lon="2.59383">
        <ele>152.23823064</ele>
        <time>2017-09-03T10:59:49Z</time>
      </trkpt>
      <trkpt lat="50.44037" lon="2.59396">
        <ele>153.23850544</ele>
        <time>2017-09-03T10:59:54Z</time>
      </trkpt>
      <trkpt lat="50.44029" lon="2.5942">
        <ele>156.23882364</ele>
        <time>2017-09-03T10:59:59Z</time>
      </trkpt>
      <trkpt lat="50.4402" lon="2.59436">
        <ele>155.23920812</ele>
        <time>2017-09-03T11:00:03Z</time>
      </trkpt>
      <trkpt lat="50.44006" lon="2.59457">
        <ele>154.23977184</ele>
        <time>2017-09-03T11:00:07Z</time>
      </trkpt>
      <trkpt lat="50.43995" lon="2.59475">
        <ele>154.24022168</ele>
        <time>2017-09-03T11:00:12Z</time>
      </trkpt>
      <trkpt lat="50.4398" lon="2.59502">
        <ele>154.24080644</ele>
        <time>2017-09-03T11:00:17Z</time>
      </trkpt>
      <trkpt lat="50.43965" lon="2.59525">
        <ele>153.24141996</ele>
        <time>2017-09-03T11:00:21Z</time>
      </trkpt>
      <trkpt lat="50.43946" lon="2.59562">
        <ele>151.24214984</ele>
        <time>2017-09-03T11:00:26Z</time>
      </trkpt>
      <trkpt lat="50.43941" lon="2.59598">
        <ele>151.24236628</ele>
        <time>2017-09-03T11:00:30Z</time>
      </trkpt>
      <trkpt lat="50.43937" lon="2.5963">
        <ele>152.24251936</ele>
        <time>2017-09-03T11:00:34Z</time>
      </trkpt>
      <trkpt lat="50.43934" lon="2.59655">
        <ele>153.24263184</ele>
        <time>2017-09-03T11:00:38Z</time>
      </trkpt>
      <trkpt lat="50.43927" lon="2.59684">
        <ele>150.24293268</ele>
        <time>2017-09-03T11:00:43Z</time>
      </trkpt>
      <trkpt lat="50.43923" lon="2.59707">
        <ele>153.24309284</ele>
        <time>2017-09-03T11:00:47Z</time>
      </trkpt>
      <trkpt lat="50.43919" lon="2.59739">
        <ele>153.24324608</ele>
        <time>2017-09-03T11:00:52Z</time>
      </trkpt>
      <trkpt lat="50.43911" lon="2.59768">
        <ele>154.24356212</ele>
        <time>2017-09-03T11:00:57Z</time>
      </trkpt>
      <trkpt lat="50.43907" lon="2.59789">
        <ele>155.24371004</ele>
        <time>2017-09-03T11:01:01Z</time>
      </trkpt>
      <trkpt lat="50.43901" lon="2.59806">
        <ele>160.24397952</ele>
        <time>2017-09-03T11:01:06Z</time>
      </trkpt>
      <trkpt lat="50.43895" lon="2.59818">
        <ele>160.24418468</ele>
        <time>2017-09-03T11:01:10Z</time>
      </trkpt>
      <trkpt lat="50.43892" lon="2.59829">
        <ele>162.24434156</ele>
        <time>2017-09-03T11:01:14Z</time>
      </trkpt>
      <trkpt lat="50.43888" lon="2.59841">
        <ele>165.24447336</ele>
        <time>2017-09-03T11:01:18Z</time>
      </trkpt>
      <trkpt lat="50.43884" lon="2.59855">
        <ele>164.24463836</ele>
        <time>2017-09-03T11:01:22Z</time>
      </trkpt>
      <trkpt lat="50.43876" lon="2.59871">
        <ele>163.24494768</ele>
        <time>2017-09-03T11:01:27Z</time>
      </trkpt>
      <trkpt lat="50.43872" lon="2.59884">
        <ele>163.2451374</ele>
        <time>2017-09-03T11:01:31Z</time>
      </trkpt>
      <trkpt lat="50.43866" lon="2.59905">
        <ele>166.24535068</ele>
        <time>2017-09-03T11:01:36Z</time>
      </trkpt>
      <trkpt lat="50.43862" lon="2.59925">
        <ele>167.24550748</ele>
        <time>2017-09-03T11:01:40Z</time>
      </trkpt>
      <trkpt lat="50.4386" lon="2.5994">
        <ele>169.2455978</ele>
        <time>2017-09-03T11:01:45Z</time>
      </trkpt>
      <trkpt lat="50.43857" lon="2.59961">
        <ele>169.24570576</ele>
        <time>2017-09-03T11:01:49Z</time>
      </trkpt>
      <trkpt lat="50.43851" lon="2.59981">
        <ele>169.24597072</ele>
        <time>2017-09-03T11:01:54Z</time>
      </trkpt>
      <trkpt lat="50.43856" lon="2.59997">
        <ele>169.24576828</ele>
        <time>2017-09-03T11:01:58Z</time>
      </trkpt>
      <trkpt lat="50.43858" lon="2.60015">
        <ele>169.24568568</ele>
        <time>2017-09-03T11:02:03Z</time>
      </trkpt>
      <trkpt lat="50.43864" lon="2.60043">
        <ele>165.24544192</ele>
        <time>2017-09-03T11:02:07Z</time>
      </trkpt>
      <trkpt lat="50.43867" lon="2.60068">
        <ele>169.24530272</ele>
        <time>2017-09-03T11:02:11Z</time>
      </trkpt>
      <trkpt lat="50.43879" lon="2.60106">
        <ele>168.24484744</ele>
        <time>2017-09-03T11:02:16Z</time>
      </trkpt>
      <trkpt lat="50.43886" lon="2.60131">
        <ele>166.24454476</ele>
        <time>2017-09-03T11:02:20Z</time>
      </trkpt>
      <trkpt lat="50.43906" lon="2.60148">
        <ele>164.24376412</ele>
        <time>2017-09-03T11:02:25Z</time>
      </trkpt>
      <trkpt lat="50.43932" lon="2.60163">
        <ele>162.24270804</ele>
        <time>2017-09-03T11:02:30Z</time>
      </trkpt>
      <trkpt lat="50.43942" lon="2.60165">
        <ele>163.24232972</ele>
        <time>2017-09-03T11:02:34Z</time>
      </trkpt>
      <trkpt lat="50.43967" lon="2.60178">
        <ele>159.24130904</ele>
        <time>2017-09-03T11:02:39Z</time>
      </trkpt>
      <trkpt lat="50.43999" lon="2.60196">
        <ele>157.2400592</ele>
        <time>2017-09-03T11:02:44Z</time>
      </trkpt>
      <trkpt lat="50.44023" lon="2.60219">
        <ele>153.23906656</ele>
        <time>2017-09-03T11:02:48Z</time>
      </trkpt>
      <trkpt lat="50.44035" lon="2.6023">
        <ele>152.23860168</ele>
        <time>2017-09-03T11:02:50Z</time>
      </trkpt>
      <trkpt lat="50.44044" lon="2.6025">
        <ele>147.23823072</ele>
        <time>2017-09-03T11:02:55Z</time>
      </trkpt>
      <trkpt lat="50.44038" lon="2.60276">
        <ele>140.23849408</ele>
        <time>2017-09-03T11:02:59Z</time>
      </trkpt>
      <trkpt lat="50.44031" lon="2.60292">
        <ele>139.23875928</ele>
        <time>2017-09-03T11:03:03Z</time>
      </trkpt>
      <trkpt lat="50.44024" lon="2.60297">
        <ele>138.2390296</ele>
        <time>2017-09-03T11:03:06Z</time>
      </trkpt>
      <trkpt lat="50.4402" lon="2.60311">
        <ele>138.23919836</ele>
        <time>2017-09-03T11:03:11Z</time>
      </trkpt>
      <trkpt lat="50.44019" lon="2.60331">
        <ele>137.2392318</ele>
        <time>2017-09-03T11:03:15Z</time>
      </trkpt>
      <trkpt lat="50.44015" lon="2.60348">
        <ele>139.239402</ele>
        <time>2017-09-03T11:03:20Z</time>
      </trkpt>
      <trkpt lat="50.44006" lon="2.60369">
        <ele>140.23976468</ele>
        <time>2017-09-03T11:03:25Z</time>
      </trkpt>
      <trkpt lat="50.44003" lon="2.60384">
        <ele>141.23988444</ele>
        <time>2017-09-03T11:03:29Z</time>
      </trkpt>
      <trkpt lat="50.44006" lon="2.6041">
        <ele>142.23974308</ele>
        <time>2017-09-03T11:03:34Z</time>
      </trkpt>
      <trkpt lat="50.44013" lon="2.60432">
        <ele>141.23948912</ele>
        <time>2017-09-03T11:03:38Z</time>
      </trkpt>
      <trkpt lat="50.44012" lon="2.60467">
        <ele>140.23951972</ele>
        <time>2017-09-03T11:03:42Z</time>
      </trkpt>
      <trkpt lat="50.44007" lon="2.60493">
        <ele>138.23973728</ele>
        <time>2017-09-03T11:03:47Z</time>
      </trkpt>
      <trkpt lat="50.44" lon="2.60526">
        <ele>135.23998656</ele>
        <time>2017-09-03T11:03:52Z</time>
      </trkpt>
      <trkpt lat="50.43991" lon="2.60539">
        <ele>134.24034968</ele>
        <time>2017-09-03T11:03:55Z</time>
      </trkpt>
      <trkpt lat="50.43978" lon="2.60578">
        <ele>133.24089428</ele>
        <time>2017-09-03T11:04:00Z</time>
      </trkpt>
      <trkpt lat="50.43973" lon="2.60618">
        <ele>131.24109392</ele>
        <time>2017-09-03T11:04:05Z</time>
      </trkpt>
      <trkpt lat="50.43964" lon="2.60631">
        <ele>130.24146016</ele>
        <time>2017-09-03T11:04:08Z</time>
      </trkpt>
      <trkpt lat="50.4395" lon="2.60652">
        <ele>129.24198428</ele>
        <time>2017-09-03T11:04:13Z</time>
      </trkpt>
      <trkpt lat="50.4394" lon="2.60669">
        <ele>128.24238336</ele>
        <time>2017-09-03T11:04:17Z</time>
      </trkpt>
      <trkpt lat="50.4393" lon="2.60687">
        <ele>129.24279104</ele>
        <time>2017-09-03T11:04:22Z</time>
      </trkpt>
      <trkpt lat="50.43919" lon="2.6069">
        <ele>129.24322692</ele>
        <time>2017-09-03T11:04:26Z</time>
      </trkpt>
      <trkpt lat="50.43911" lon="2.60693">
        <ele>132.24354544</ele>
        <time>2017-09-03T11:04:31Z</time>
      </trkpt>
      <trkpt lat="50.43903" lon="2.60694">
        <ele>132.24389</ele>
        <time>2017-09-03T11:04:35Z</time>
      </trkpt>
      <trkpt lat="50.43893" lon="2.60695">
        <ele>135.24428764</ele>
        <time>2017-09-03T11:04:40Z</time>
      </trkpt>
      <trkpt lat="50.43886" lon="2.60699">
        <ele>137.24455404</ele>
        <time>2017-09-03T11:04:46Z</time>
      </trkpt>
      <trkpt lat="50.43877" lon="2.60701">
        <ele>139.2449064</ele>
        <time>2017-09-03T11:04:52Z</time>
      </trkpt>
      <trkpt lat="50.43869" lon="2.60701">
        <ele>141.24525496</ele>
        <time>2017-09-03T11:05:01Z</time>
      </trkpt>
      <trkpt lat="50.4386" lon="2.60703">
        <ele>145.24558808</ele>
        <time>2017-09-03T11:05:07Z</time>
      </trkpt>
      <trkpt lat="50.43852" lon="2.60705">
        <ele>144.2459416</ele>
        <time>2017-09-03T11:05:12Z</time>
      </trkpt>
      <trkpt lat="50.43843" lon="2.60706">
        <ele>146.246296</ele>
        <time>2017-09-03T11:05:19Z</time>
      </trkpt>
      <trkpt lat="50.43837" lon="2.60708">
        <ele>147.24653456</ele>
        <time>2017-09-03T11:05:25Z</time>
      </trkpt>
      <trkpt lat="50.43829" lon="2.60709">
        <ele>147.2468454</ele>
        <time>2017-09-03T11:05:29Z</time>
      </trkpt>
      <trkpt lat="50.43822" lon="2.60709">
        <ele>148.24711544</ele>
        <time>2017-09-03T11:05:33Z</time>
      </trkpt>
      <trkpt lat="50.43815" lon="2.6071">
        <ele>149.24741636</ele>
        <time>2017-09-03T11:05:38Z</time>
      </trkpt>
      <trkpt lat="50.43806" lon="2.6071">
        <ele>147.2477754</ele>
        <time>2017-09-03T11:05:43Z</time>
      </trkpt>
      <trkpt lat="50.43797" lon="2.60712">
        <ele>154.24811492</ele>
        <time>2017-09-03T11:05:51Z</time>
      </trkpt>
      <trkpt lat="50.43788" lon="2.60713">
        <ele>155.2484704</ele>
        <time>2017-09-03T11:05:55Z</time>
      </trkpt>
      <trkpt lat="50.43779" lon="2.60714">
        <ele>159.24882784</ele>
        <time>2017-09-03T11:06:03Z</time>
      </trkpt>
      <trkpt lat="50.43771" lon="2.60715">
        <ele>162.24914688</ele>
        <time>2017-09-03T11:06:27Z</time>
      </trkpt>
      <trkpt lat="50.43763" lon="2.60715">
        <ele>163.2494806</ele>
        <time>2017-09-03T11:06:38Z</time>
      </trkpt>
      <trkpt lat="50.43754" lon="2.60716">
        <ele>165.24983524</ele>
        <time>2017-09-03T11:06:48Z</time>
      </trkpt>
      <trkpt lat="50.43746" lon="2.60718">
        <ele>167.25017948</ele>
        <time>2017-09-03T11:06:57Z</time>
      </trkpt>
      <trkpt lat="50.43737" lon="2.60718">
        <ele>165.25053328</ele>
        <time>2017-09-03T11:07:02Z</time>
      </trkpt>
      <trkpt lat="50.43728" lon="2.60722">
        <ele>166.25086212</ele>
        <time>2017-09-03T11:07:11Z</time>
      </trkpt>
      <trkpt lat="50.4372" lon="2.60724">
        <ele>173.25118244</ele>
        <time>2017-09-03T11:07:46Z</time>
      </trkpt>
      <trkpt lat="50.43715" lon="2.60727">
        <ele>178.25140788</ele>
        <time>2017-09-03T11:07:51Z</time>
      </trkpt>
      <trkpt lat="50.43707" lon="2.60729">
        <ele>178.25170452</ele>
        <time>2017-09-03T11:07:56Z</time>
      </trkpt>
      <trkpt lat="50.43699" lon="2.60728">
        <ele>180.25203136</ele>
        <time>2017-09-03T11:08:01Z</time>
      </trkpt>
      <trkpt lat="50.43686" lon="2.60729">
        <ele>179.25255584</ele>
        <time>2017-09-03T11:08:06Z</time>
      </trkpt>
      <trkpt lat="50.43678" lon="2.6073">
        <ele>178.25289152</ele>
        <time>2017-09-03T11:08:11Z</time>
      </trkpt>
      <trkpt lat="50.43671" lon="2.60733">
        <ele>183.25316984</ele>
        <time>2017-09-03T11:08:17Z</time>
      </trkpt>
      <trkpt lat="50.43662" lon="2.60736">
        <ele>185.25353472</ele>
        <time>2017-09-03T11:08:22Z</time>
      </trkpt>
      <trkpt lat="50.43655" lon="2.60738">
        <ele>182.25379764</ele>
        <time>2017-09-03T11:08:27Z</time>
      </trkpt>
      <trkpt lat="50.43645" lon="2.60742">
        <ele>184.2542182</ele>
        <time>2017-09-03T11:08:32Z</time>
      </trkpt>
      <trkpt lat="50.43635" lon="2.60742">
        <ele>185.25459776</ele>
        <time>2017-09-03T11:08:36Z</time>
      </trkpt>
      <trkpt lat="50.43628" lon="2.60742">
        <ele>186.2548874</ele>
        <time>2017-09-03T11:08:41Z</time>
      </trkpt>
      <trkpt lat="50.43619" lon="2.60742">
        <ele>186.255259</ele>
        <time>2017-09-03T11:08:45Z</time>
      </trkpt>
      <trkpt lat="50.4361" lon="2.60743">
        <ele>186.25559648</ele>
        <time>2017-09-03T11:08:50Z</time>
      </trkpt>
      <trkpt lat="50.43602" lon="2.60744">
        <ele>186.25592296</ele>
        <time>2017-09-03T11:08:54Z</time>
      </trkpt>
      <trkpt lat="50.43592" lon="2.60746">
        <ele>187.25631812</ele>
        <time>2017-09-03T11:08:58Z</time>
      </trkpt>
      <trkpt lat="50.43585" lon="2.60746">
        <ele>187.2565888</ele>
        <time>2017-09-03T11:09:03Z</time>
      </trkpt>
      <trkpt lat="50.43571" lon="2.60746">
        <ele>184.25714224</ele>
        <time>2017-09-03T11:09:08Z</time>
      </trkpt>
      <trkpt lat="50.43556" lon="2.60747">
        <ele>182.25778152</ele>
        <time>2017-09-03T11:09:12Z</time>
      </trkpt>
      <trkpt lat="50.43546" lon="2.6074">
        <ele>182.25814732</ele>
        <time>2017-09-03T11:09:17Z</time>
      </trkpt>
      <trkpt lat="50.43532" lon="2.60735">
        <ele>185.25872212</ele>
        <time>2017-09-03T11:09:21Z</time>
      </trkpt>
      <trkpt lat="50.43519" lon="2.60735">
        <ele>185.25923912</ele>
        <time>2017-09-03T11:09:26Z</time>
      </trkpt>
      <trkpt lat="50.4351" lon="2.60732">
        <ele>184.25961728</ele>
        <time>2017-09-03T11:09:30Z</time>
      </trkpt>
      <trkpt lat="50.43496" lon="2.60726">
        <ele>185.26015572</ele>
        <time>2017-09-03T11:09:35Z</time>
      </trkpt>
      <trkpt lat="50.43478" lon="2.60721">
        <ele>188.26089004</ele>
        <time>2017-09-03T11:09:39Z</time>
      </trkpt>
      <trkpt lat="50.43467" lon="2.60717">
        <ele>186.26131936</ele>
        <time>2017-09-03T11:09:43Z</time>
      </trkpt>
      <trkpt lat="50.43449" lon="2.60708">
        <ele>187.2620272</ele>
        <time>2017-09-03T11:09:47Z</time>
      </trkpt>
      <trkpt lat="50.43437" lon="2.60718">
        <ele>187.26252664</ele>
        <time>2017-09-03T11:09:51Z</time>
      </trkpt>
      <trkpt lat="50.43426" lon="2.60739">
        <ele>185.26297448</ele>
        <time>2017-09-03T11:09:56Z</time>
      </trkpt>
      <trkpt lat="50.43414" lon="2.60759">
        <ele>185.26344724</ele>
        <time>2017-09-03T11:10:00Z</time>
      </trkpt>
      <trkpt lat="50.43403" lon="2.60779">
        <ele>183.26389252</ele>
        <time>2017-09-03T11:10:04Z</time>
      </trkpt>
      <trkpt lat="50.43391" lon="2.60797">
        <ele>183.26436004</ele>
        <time>2017-09-03T11:10:08Z</time>
      </trkpt>
      <trkpt lat="50.43378" lon="2.60814">
        <ele>181.26490004</ele>
        <time>2017-09-03T11:10:13Z</time>
      </trkpt>
      <trkpt lat="50.43368" lon="2.6083">
        <ele>178.2652982</ele>
        <time>2017-09-03T11:10:17Z</time>
      </trkpt>
      <trkpt lat="50.43358" lon="2.60846">
        <ele>176.2656974</ele>
        <time>2017-09-03T11:10:20Z</time>
      </trkpt>
      <trkpt lat="50.43339" lon="2.60875">
        <ele>175.2664292</ele>
        <time>2017-09-03T11:10:25Z</time>
      </trkpt>
      <trkpt lat="50.43322" lon="2.60902">
        <ele>175.26713076</ele>
        <time>2017-09-03T11:10:29Z</time>
      </trkpt>
      <trkpt lat="50.43303" lon="2.60933">
        <ele>175.26786652</ele>
        <time>2017-09-03T11:10:34Z</time>
      </trkpt>
      <trkpt lat="50.43284" lon="2.60967">
        <ele>174.26863888</ele>
        <time>2017-09-03T11:10:37Z</time>
      </trkpt>
      <trkpt lat="50.43268" lon="2.61002">
        <ele>175.26926588</ele>
        <time>2017-09-03T11:10:42Z</time>
      </trkpt>
      <trkpt lat="50.4326" lon="2.61021">
        <ele>171.26958688</ele>
        <time>2017-09-03T11:10:44Z</time>
      </trkpt>
      <trkpt lat="50.43251" lon="2.61045">
        <ele>172.26996716</ele>
        <time>2017-09-03T11:10:48Z</time>
      </trkpt>
      <trkpt lat="50.43245" lon="2.61059">
        <ele>174.27021516</ele>
        <time>2017-09-03T11:10:52Z</time>
      </trkpt>
      <trkpt lat="50.43242" lon="2.61073">
        <ele>176.27032828</ele>
        <time>2017-09-03T11:10:57Z</time>
      </trkpt>
      <trkpt lat="50.43241" lon="2.61086">
        <ele>175.27035536</ele>
        <time>2017-09-03T11:11:01Z</time>
      </trkpt>
      <trkpt lat="50.43245" lon="2.61099">
        <ele>171.27019008</ele>
        <time>2017-09-03T11:11:05Z</time>
      </trkpt>
      <trkpt lat="50.43251" lon="2.61108">
        <ele>170.26994892</ele>
        <time>2017-09-03T11:11:10Z</time>
      </trkpt>
      <trkpt lat="50.43271" lon="2.61094">
        <ele>169.26917776</ele>
        <time>2017-09-03T11:11:14Z</time>
      </trkpt>
      <trkpt lat="50.43289" lon="2.61089">
        <ele>168.26845948</ele>
        <time>2017-09-03T11:11:19Z</time>
      </trkpt>
      <trkpt lat="50.43308" lon="2.61078">
        <ele>170.26767568</ele>
        <time>2017-09-03T11:11:24Z</time>
      </trkpt>
      <trkpt lat="50.43324" lon="2.61059">
        <ele>168.26706096</ele>
        <time>2017-09-03T11:11:29Z</time>
      </trkpt>
      <trkpt lat="50.43336" lon="2.6104">
        <ele>166.26656304</ele>
        <time>2017-09-03T11:11:32Z</time>
      </trkpt>
      <trkpt lat="50.43348" lon="2.61034">
        <ele>162.26607684</ele>
        <time>2017-09-03T11:11:37Z</time>
      </trkpt>
      <trkpt lat="50.43366" lon="2.61043">
        <ele>158.26535752</ele>
        <time>2017-09-03T11:11:41Z</time>
      </trkpt>
      <trkpt lat="50.43387" lon="2.61046">
        <ele>154.26453372</ele>
        <time>2017-09-03T11:11:46Z</time>
      </trkpt>
      <trkpt lat="50.43402" lon="2.6105">
        <ele>151.26392376</ele>
        <time>2017-09-03T11:11:51Z</time>
      </trkpt>
      <trkpt lat="50.43433" lon="2.61058">
        <ele>141.262696</ele>
        <time>2017-09-03T11:11:55Z</time>
      </trkpt>
      <trkpt lat="50.43457" lon="2.61061">
        <ele>140.2617266</ele>
        <time>2017-09-03T11:11:59Z</time>
      </trkpt>
      <trkpt lat="50.43482" lon="2.61072">
        <ele>139.26071088</ele>
        <time>2017-09-03T11:12:03Z</time>
      </trkpt>
      <trkpt lat="50.43512" lon="2.61095">
        <ele>142.25951804</ele>
        <time>2017-09-03T11:12:08Z</time>
      </trkpt>
      <trkpt lat="50.43529" lon="2.61092">
        <ele>138.25882444</ele>
        <time>2017-09-03T11:12:13Z</time>
      </trkpt>
      <trkpt lat="50.43546" lon="2.611">
        <ele>140.258155</ele>
        <time>2017-09-03T11:12:18Z</time>
      </trkpt>
      <trkpt lat="50.43562" lon="2.61108">
        <ele>138.25753248</ele>
        <time>2017-09-03T11:12:22Z</time>
      </trkpt>
      <trkpt lat="50.43576" lon="2.61115">
        <ele>138.25697004</ele>
        <time>2017-09-03T11:12:26Z</time>
      </trkpt>
      <trkpt lat="50.43586" lon="2.61122">
        <ele>137.25654708</ele>
        <time>2017-09-03T11:12:31Z</time>
      </trkpt>
      <trkpt lat="50.43601" lon="2.61136">
        <ele>139.25596704</ele>
        <time>2017-09-03T11:12:35Z</time>
      </trkpt>
      <trkpt lat="50.4362" lon="2.6115">
        <ele>137.25519192</ele>
        <time>2017-09-03T11:12:40Z</time>
      </trkpt>
      <trkpt lat="50.43635" lon="2.61162">
        <ele>138.2546068</ele>
        <time>2017-09-03T11:12:44Z</time>
      </trkpt>
      <trkpt lat="50.43651" lon="2.61171">
        <ele>135.25394824</ele>
        <time>2017-09-03T11:12:49Z</time>
      </trkpt>
      <trkpt lat="50.4367" lon="2.61177">
        <ele>132.25321628</ele>
        <time>2017-09-03T11:12:53Z</time>
      </trkpt>
      <trkpt lat="50.43684" lon="2.61174">
        <ele>131.25265276</ele>
        <time>2017-09-03T11:12:58Z</time>
      </trkpt>
      <trkpt lat="50.43694" lon="2.6118">
        <ele>128.25224976</ele>
        <time>2017-09-03T11:13:01Z</time>
      </trkpt>
      <trkpt lat="50.43711" lon="2.61167">
        <ele>127.25154732</ele>
        <time>2017-09-03T11:13:06Z</time>
      </trkpt>
      <trkpt lat="50.4373" lon="2.61167">
        <ele>126.25078636</ele>
        <time>2017-09-03T11:13:10Z</time>
      </trkpt>
      <trkpt lat="50.43749" lon="2.61168">
        <ele>126.25005776</ele>
        <time>2017-09-03T11:13:14Z</time>
      </trkpt>
      <trkpt lat="50.43764" lon="2.61171">
        <ele>125.24943968</ele>
        <time>2017-09-03T11:13:18Z</time>
      </trkpt>
      <trkpt lat="50.43786" lon="2.6117">
        <ele>131.24854344</ele>
        <time>2017-09-03T11:13:23Z</time>
      </trkpt>
      <trkpt lat="50.43804" lon="2.61177">
        <ele>130.24783232</ele>
        <time>2017-09-03T11:13:27Z</time>
      </trkpt>
      <trkpt lat="50.43822" lon="2.61177">
        <ele>129.2471054</ele>
        <time>2017-09-03T11:13:32Z</time>
      </trkpt>
      <trkpt lat="50.43845" lon="2.61171">
        <ele>131.24621456</ele>
        <time>2017-09-03T11:13:36Z</time>
      </trkpt>
      <trkpt lat="50.43866" lon="2.61167">
        <ele>130.24536216</ele>
        <time>2017-09-03T11:13:40Z</time>
      </trkpt>
      <trkpt lat="50.43895" lon="2.61162">
        <ele>127.24420456</ele>
        <time>2017-09-03T11:13:44Z</time>
      </trkpt>
      <trkpt lat="50.43924" lon="2.61159">
        <ele>122.24302604</ele>
        <time>2017-09-03T11:13:49Z</time>
      </trkpt>
      <trkpt lat="50.43949" lon="2.61154">
        <ele>124.2420536</ele>
        <time>2017-09-03T11:13:54Z</time>
      </trkpt>
      <trkpt lat="50.43966" lon="2.61155">
        <ele>126.24136824</ele>
        <time>2017-09-03T11:13:58Z</time>
      </trkpt>
      <trkpt lat="50.4398" lon="2.61157">
        <ele>126.24081312</ele>
        <time>2017-09-03T11:14:03Z</time>
      </trkpt>
      <trkpt lat="50.44002" lon="2.61154">
        <ele>128.2399292</ele>
        <time>2017-09-03T11:14:07Z</time>
      </trkpt>
      <trkpt lat="50.44018" lon="2.61149">
        <ele>127.23929928</ele>
        <time>2017-09-03T11:14:12Z</time>
      </trkpt>
      <trkpt lat="50.44031" lon="2.61135">
        <ele>130.23875208</ele>
        <time>2017-09-03T11:14:15Z</time>
      </trkpt>
      <trkpt lat="50.44042" lon="2.6112">
        <ele>128.23830604</ele>
        <time>2017-09-03T11:14:20Z</time>
      </trkpt>
      <trkpt lat="50.4406" lon="2.6111">
        <ele>126.23759944</ele>
        <time>2017-09-03T11:14:25Z</time>
      </trkpt>
      <trkpt lat="50.44077" lon="2.61111">
        <ele>124.23691808</ele>
        <time>2017-09-03T11:14:29Z</time>
      </trkpt>
      <trkpt lat="50.44095" lon="2.61106">
        <ele>122.23619856</ele>
        <time>2017-09-03T11:14:33Z</time>
      </trkpt>
      <trkpt lat="50.4412" lon="2.61096">
        <ele>123.235221</ele>
        <time>2017-09-03T11:14:37Z</time>
      </trkpt>
      <trkpt lat="50.4414" lon="2.61094">
        <ele>123.23441984</ele>
        <time>2017-09-03T11:14:42Z</time>
      </trkpt>
      <trkpt lat="50.44157" lon="2.61088">
        <ele>123.23372532</ele>
        <time>2017-09-03T11:14:45Z</time>
      </trkpt>
      <trkpt lat="50.44174" lon="2.61087">
        <ele>119.2330332</ele>
        <time>2017-09-03T11:14:50Z</time>
      </trkpt>
      <trkpt lat="50.44187" lon="2.61103">
        <ele>114.23252592</ele>
        <time>2017-09-03T11:14:55Z</time>
      </trkpt>
      <trkpt lat="50.44194" lon="2.61122">
        <ele>115.2322548</ele>
        <time>2017-09-03T11:14:58Z</time>
      </trkpt>
      <trkpt lat="50.44199" lon="2.61135">
        <ele>112.23204456</ele>
        <time>2017-09-03T11:15:02Z</time>
      </trkpt>
      <trkpt lat="50.44203" lon="2.61158">
        <ele>110.23188332</ele>
        <time>2017-09-03T11:15:06Z</time>
      </trkpt>
      <trkpt lat="50.44201" lon="2.61195">
        <ele>109.23197208</ele>
        <time>2017-09-03T11:15:11Z</time>
      </trkpt>
      <trkpt lat="50.44194" lon="2.61247">
        <ele>106.2322264</ele>
        <time>2017-09-03T11:15:15Z</time>
      </trkpt>
      <trkpt lat="50.44186" lon="2.61305">
        <ele>105.2325534</ele>
        <time>2017-09-03T11:15:20Z</time>
      </trkpt>
      <trkpt lat="50.44185" lon="2.61344">
        <ele>102.23260392</ele>
        <time>2017-09-03T11:15:25Z</time>
      </trkpt>
      <trkpt lat="50.44203" lon="2.61365">
        <ele>101.23186712</ele>
        <time>2017-09-03T11:15:29Z</time>
      </trkpt>
      <trkpt lat="50.4422" lon="2.61391">
        <ele>101.23121732</ele>
        <time>2017-09-03T11:15:33Z</time>
      </trkpt>
      <trkpt lat="50.44221" lon="2.61418">
        <ele>102.23116756</ele>
        <time>2017-09-03T11:15:38Z</time>
      </trkpt>
      <trkpt lat="50.4422" lon="2.61429">
        <ele>103.23120028</ele>
        <time>2017-09-03T11:15:40Z</time>
      </trkpt>
      <trkpt lat="50.4423" lon="2.61453">
        <ele>104.23081588</ele>
        <time>2017-09-03T11:15:45Z</time>
      </trkpt>
      <trkpt lat="50.4423" lon="2.6148">
        <ele>105.23082164</ele>
        <time>2017-09-03T11:15:49Z</time>
      </trkpt>
      <trkpt lat="50.44231" lon="2.615">
        <ele>106.23077232</ele>
        <time>2017-09-03T11:15:53Z</time>
      </trkpt>
      <trkpt lat="50.44234" lon="2.61542">
        <ele>105.23064256</ele>
        <time>2017-09-03T11:15:57Z</time>
      </trkpt>
      <trkpt lat="50.44236" lon="2.61572">
        <ele>104.23054396</ele>
        <time>2017-09-03T11:16:02Z</time>
      </trkpt>
      <trkpt lat="50.44237" lon="2.61599">
        <ele>103.2305354</ele>
        <time>2017-09-03T11:16:06Z</time>
      </trkpt>
      <trkpt lat="50.44226" lon="2.61629">
        <ele>105.23096864</ele>
        <time>2017-09-03T11:16:10Z</time>
      </trkpt>
      <trkpt lat="50.44217" lon="2.61652">
        <ele>104.23131448</ele>
        <time>2017-09-03T11:16:15Z</time>
      </trkpt>
      <trkpt lat="50.44211" lon="2.61686">
        <ele>103.23154972</ele>
        <time>2017-09-03T11:16:20Z</time>
      </trkpt>
      <trkpt lat="50.44201" lon="2.61718">
        <ele>107.231968</ele>
        <time>2017-09-03T11:16:24Z</time>
      </trkpt>
      <trkpt lat="50.44195" lon="2.61736">
        <ele>108.23221904</ele>
        <time>2017-09-03T11:16:29Z</time>
      </trkpt>
      <trkpt lat="50.44183" lon="2.61759">
        <ele>110.23266424</ele>
        <time>2017-09-03T11:16:33Z</time>
      </trkpt>
      <trkpt lat="50.44176" lon="2.61779">
        <ele>112.23295072</ele>
        <time>2017-09-03T11:16:37Z</time>
      </trkpt>
      <trkpt lat="50.44168" lon="2.61799">
        <ele>109.233279</ele>
        <time>2017-09-03T11:16:42Z</time>
      </trkpt>
      <trkpt lat="50.44161" lon="2.61815">
        <ele>110.2335798</ele>
        <time>2017-09-03T11:16:46Z</time>
      </trkpt>
      <trkpt lat="50.4415" lon="2.61833">
        <ele>111.23400276</ele>
        <time>2017-09-03T11:16:50Z</time>
      </trkpt>
      <trkpt lat="50.44142" lon="2.61858">
        <ele>111.23431848</ele>
        <time>2017-09-03T11:16:54Z</time>
      </trkpt>
      <trkpt lat="50.44145" lon="2.61891">
        <ele>113.23421708</ele>
        <time>2017-09-03T11:16:59Z</time>
      </trkpt>
      <trkpt lat="50.44141" lon="2.61939">
        <ele>112.23436144</ele>
        <time>2017-09-03T11:17:03Z</time>
      </trkpt>
      <trkpt lat="50.44128" lon="2.61967">
        <ele>109.2348786</ele>
        <time>2017-09-03T11:17:08Z</time>
      </trkpt>
      <trkpt lat="50.44116" lon="2.61993">
        <ele>108.23535808</ele>
        <time>2017-09-03T11:17:12Z</time>
      </trkpt>
      <trkpt lat="50.44105" lon="2.62024">
        <ele>106.235809</ele>
        <time>2017-09-03T11:17:16Z</time>
      </trkpt>
      <trkpt lat="50.44092" lon="2.62055">
        <ele>104.23630288</ele>
        <time>2017-09-03T11:17:19Z</time>
      </trkpt>
      <trkpt lat="50.44077" lon="2.62082">
        <ele>105.23690344</ele>
        <time>2017-09-03T11:17:23Z</time>
      </trkpt>
      <trkpt lat="50.44081" lon="2.6211">
        <ele>104.23677648</ele>
        <time>2017-09-03T11:17:27Z</time>
      </trkpt>
      <trkpt lat="50.44096" lon="2.62131">
        <ele>101.23617576</ele>
        <time>2017-09-03T11:17:31Z</time>
      </trkpt>
      <trkpt lat="50.44114" lon="2.62152">
        <ele>100.23544796</ele>
        <time>2017-09-03T11:17:36Z</time>
      </trkpt>
      <trkpt lat="50.44128" lon="2.62182">
        <ele>98.2348828</ele>
        <time>2017-09-03T11:17:40Z</time>
      </trkpt>
      <trkpt lat="50.44127" lon="2.62232">
        <ele>97.23493392</ele>
        <time>2017-09-03T11:17:45Z</time>
      </trkpt>
      <trkpt lat="50.4411" lon="2.6227">
        <ele>98.23560532</ele>
        <time>2017-09-03T11:17:50Z</time>
      </trkpt>
      <trkpt lat="50.44089" lon="2.62289">
        <ele>100.2364404</ele>
        <time>2017-09-03T11:17:55Z</time>
      </trkpt>
      <trkpt lat="50.44075" lon="2.62299">
        <ele>101.23699332</ele>
        <time>2017-09-03T11:17:59Z</time>
      </trkpt>
      <trkpt lat="50.44066" lon="2.62309">
        <ele>102.2373656</ele>
        <time>2017-09-03T11:18:03Z</time>
      </trkpt>
      <trkpt lat="50.44059" lon="2.62325">
        <ele>104.23765012</ele>
        <time>2017-09-03T11:18:08Z</time>
      </trkpt>
      <trkpt lat="50.4406" lon="2.62345">
        <ele>104.23761224</ele>
        <time>2017-09-03T11:18:12Z</time>
      </trkpt>
      <trkpt lat="50.44064" lon="2.62364">
        <ele>105.23744088</ele>
        <time>2017-09-03T11:18:16Z</time>
      </trkpt>
      <trkpt lat="50.44073" lon="2.62381">
        <ele>105.23706204</ele>
        <time>2017-09-03T11:18:21Z</time>
      </trkpt>
      <trkpt lat="50.44087" lon="2.62406">
        <ele>104.2365308</ele>
        <time>2017-09-03T11:18:26Z</time>
      </trkpt>
      <trkpt lat="50.44103" lon="2.62431">
        <ele>105.23589536</ele>
        <time>2017-09-03T11:18:31Z</time>
      </trkpt>
      <trkpt lat="50.44108" lon="2.62464">
        <ele>106.2356658</ele>
        <time>2017-09-03T11:18:35Z</time>
      </trkpt>
      <trkpt lat="50.44105" lon="2.6249">
        <ele>108.23580508</ele>
        <time>2017-09-03T11:18:39Z</time>
      </trkpt>
      <trkpt lat="50.44099" lon="2.62515">
        <ele>107.23604348</ele>
        <time>2017-09-03T11:18:43Z</time>
      </trkpt>
      <trkpt lat="50.44093" lon="2.62539">
        <ele>108.236275</ele>
        <time>2017-09-03T11:18:48Z</time>
      </trkpt>
      <trkpt lat="50.44086" lon="2.62567">
        <ele>110.236543</ele>
        <time>2017-09-03T11:18:52Z</time>
      </trkpt>
      <trkpt lat="50.44082" lon="2.62593">
        <ele>112.2367204</ele>
        <time>2017-09-03T11:18:57Z</time>
      </trkpt>
      <trkpt lat="50.44074" lon="2.62619">
        <ele>111.23702344</ele>
        <time>2017-09-03T11:19:02Z</time>
      </trkpt>
      <trkpt lat="50.44065" lon="2.62637">
        <ele>112.23741764</ele>
        <time>2017-09-03T11:19:06Z</time>
      </trkpt>
      <trkpt lat="50.44057" lon="2.62649">
        <ele>112.23773848</ele>
        <time>2017-09-03T11:19:10Z</time>
      </trkpt>
      <trkpt lat="50.44052" lon="2.62679">
        <ele>111.23791424</ele>
        <time>2017-09-03T11:19:15Z</time>
      </trkpt>
      <trkpt lat="50.44055" lon="2.62705">
        <ele>111.23779832</ele>
        <time>2017-09-03T11:19:19Z</time>
      </trkpt>
      <trkpt lat="50.44065" lon="2.62741">
        <ele>110.23739428</ele>
        <time>2017-09-03T11:19:24Z</time>
      </trkpt>
      <trkpt lat="50.44073" lon="2.62766">
        <ele>109.2370894</ele>
        <time>2017-09-03T11:19:28Z</time>
      </trkpt>
      <trkpt lat="50.44085" lon="2.62808">
        <ele>107.23660216</ele>
        <time>2017-09-03T11:19:33Z</time>
      </trkpt>
      <trkpt lat="50.44096" lon="2.62862">
        <ele>104.23617944</ele>
        <time>2017-09-03T11:19:38Z</time>
      </trkpt>
      <trkpt lat="50.44104" lon="2.6291">
        <ele>102.23582864</ele>
        <time>2017-09-03T11:19:42Z</time>
      </trkpt>
      <trkpt lat="50.44112" lon="2.62958">
        <ele>102.23550856</ele>
        <time>2017-09-03T11:19:46Z</time>
      </trkpt>
      <trkpt lat="50.44127" lon="2.62999">
        <ele>100.23490396</ele>
        <time>2017-09-03T11:19:50Z</time>
      </trkpt>
      <trkpt lat="50.44147" lon="2.63036">
        <ele>98.23411476</ele>
        <time>2017-09-03T11:19:54Z</time>
      </trkpt>
      <trkpt lat="50.44174" lon="2.63084">
        <ele>97.23304244</ele>
        <time>2017-09-03T11:19:59Z</time>
      </trkpt>
      <trkpt lat="50.44195" lon="2.63122">
        <ele>96.23219612</ele>
        <time>2017-09-03T11:20:03Z</time>
      </trkpt>
      <trkpt lat="50.44218" lon="2.63159">
        <ele>95.23128012</ele>
        <time>2017-09-03T11:20:07Z</time>
      </trkpt>
      <trkpt lat="50.44242" lon="2.63189">
        <ele>94.23032244</ele>
        <time>2017-09-03T11:20:11Z</time>
      </trkpt>
      <trkpt lat="50.44266" lon="2.6322">
        <ele>93.2293512</ele>
        <time>2017-09-03T11:20:16Z</time>
      </trkpt>
      <trkpt lat="50.44287" lon="2.6326">
        <ele>91.22853756</ele>
        <time>2017-09-03T11:20:20Z</time>
      </trkpt>
      <trkpt lat="50.44306" lon="2.63315">
        <ele>90.22777808</ele>
        <time>2017-09-03T11:20:24Z</time>
      </trkpt>
      <trkpt lat="50.44324" lon="2.63356">
        <ele>89.22704668</ele>
        <time>2017-09-03T11:20:29Z</time>
      </trkpt>
      <trkpt lat="50.44347" lon="2.63401">
        <ele>88.22610948</ele>
        <time>2017-09-03T11:20:34Z</time>
      </trkpt>
      <trkpt lat="50.44364" lon="2.63428">
        <ele>88.22542264</ele>
        <time>2017-09-03T11:20:38Z</time>
      </trkpt>
      <trkpt lat="50.44375" lon="2.63441">
        <ele>88.22499316</ele>
        <time>2017-09-03T11:20:42Z</time>
      </trkpt>
      <trkpt lat="50.44391" lon="2.63465">
        <ele>88.22437784</ele>
        <time>2017-09-03T11:20:46Z</time>
      </trkpt>
      <trkpt lat="50.44413" lon="2.63495">
        <ele>88.2234892</ele>
        <time>2017-09-03T11:20:50Z</time>
      </trkpt>
      <trkpt lat="50.44431" lon="2.63521">
        <ele>89.2227776</ele>
        <time>2017-09-03T11:20:55Z</time>
      </trkpt>
      <trkpt lat="50.44448" lon="2.63545">
        <ele>88.2220772</ele>
        <time>2017-09-03T11:20:59Z</time>
      </trkpt>
      <trkpt lat="50.44467" lon="2.63582">
        <ele>88.22130304</ele>
        <time>2017-09-03T11:21:04Z</time>
      </trkpt>
      <trkpt lat="50.44475" lon="2.63625">
        <ele>85.2210182</ele>
        <time>2017-09-03T11:21:07Z</time>
      </trkpt>
      <trkpt lat="50.4447" lon="2.63668">
        <ele>85.22122108</ele>
        <time>2017-09-03T11:21:11Z</time>
      </trkpt>
      <trkpt lat="50.44487" lon="2.63705">
        <ele>83.22054116</ele>
        <time>2017-09-03T11:21:16Z</time>
      </trkpt>
      <trkpt lat="50.44508" lon="2.63741">
        <ele>81.2196694</ele>
        <time>2017-09-03T11:21:20Z</time>
      </trkpt>
      <trkpt lat="50.44534" lon="2.63799">
        <ele>78.21863796</ele>
        <time>2017-09-03T11:21:25Z</time>
      </trkpt>
      <trkpt lat="50.44564" lon="2.63836">
        <ele>77.21744312</ele>
        <time>2017-09-03T11:21:29Z</time>
      </trkpt>
      <trkpt lat="50.44601" lon="2.63873">
        <ele>76.21596644</ele>
        <time>2017-09-03T11:21:33Z</time>
      </trkpt>
      <trkpt lat="50.44633" lon="2.63905">
        <ele>75.21466348</ele>
        <time>2017-09-03T11:21:38Z</time>
      </trkpt>
      <trkpt lat="50.44654" lon="2.63934">
        <ele>75.21382784</ele>
        <time>2017-09-03T11:21:43Z</time>
      </trkpt>
      <trkpt lat="50.44667" lon="2.63982">
        <ele>77.21332868</ele>
        <time>2017-09-03T11:21:48Z</time>
      </trkpt>
      <trkpt lat="50.44681" lon="2.63997">
        <ele>77.21275932</ele>
        <time>2017-09-03T11:21:53Z</time>
      </trkpt>
      <trkpt lat="50.44697" lon="2.6399">
        <ele>76.21211096</ele>
        <time>2017-09-03T11:21:57Z</time>
      </trkpt>
      <trkpt lat="50.4472" lon="2.6399">
        <ele>75.2112</ele>
        <time>2017-09-03T11:22:01Z</time>
      </trkpt>
      <trkpt lat="50.44731" lon="2.63978">
        <ele>76.21077824</ele>
        <time>2017-09-03T11:22:05Z</time>
      </trkpt>
      <trkpt lat="50.44738" lon="2.63963">
        <ele>76.2104896</ele>
        <time>2017-09-03T11:22:10Z</time>
      </trkpt>
      <trkpt lat="50.44751" lon="2.63939">
        <ele>77.2099746</ele>
        <time>2017-09-03T11:22:14Z</time>
      </trkpt>
      <trkpt lat="50.44763" lon="2.63918">
        <ele>76.20949816</ele>
        <time>2017-09-03T11:22:18Z</time>
      </trkpt>
      <trkpt lat="50.44776" lon="2.63899">
        <ele>77.2089462</ele>
        <time>2017-09-03T11:22:22Z</time>
      </trkpt>
      <trkpt lat="50.44795" lon="2.63876">
        <ele>77.20821944</ele>
        <time>2017-09-03T11:22:27Z</time>
      </trkpt>
      <trkpt lat="50.44812" lon="2.63854">
        <ele>78.20752628</ele>
        <time>2017-09-03T11:22:32Z</time>
      </trkpt>
      <trkpt lat="50.44828" lon="2.6384">
        <ele>77.20688388</ele>
        <time>2017-09-03T11:22:37Z</time>
      </trkpt>
      <trkpt lat="50.4485" lon="2.6382">
        <ele>78.20600468</ele>
        <time>2017-09-03T11:22:42Z</time>
      </trkpt>
      <trkpt lat="50.44868" lon="2.63803">
        <ele>79.2052966</ele>
        <time>2017-09-03T11:22:46Z</time>
      </trkpt>
      <trkpt lat="50.44884" lon="2.63784">
        <ele>78.20462452</ele>
        <time>2017-09-03T11:22:50Z</time>
      </trkpt>
      <trkpt lat="50.44901" lon="2.63765">
        <ele>79.20396204</ele>
        <time>2017-09-03T11:22:53Z</time>
      </trkpt>
      <trkpt lat="50.44918" lon="2.63743">
        <ele>77.20329444</ele>
        <time>2017-09-03T11:22:57Z</time>
      </trkpt>
      <trkpt lat="50.44934" lon="2.63722">
        <ele>77.202634</ele>
        <time>2017-09-03T11:23:02Z</time>
      </trkpt>
      <trkpt lat="50.44953" lon="2.6369">
        <ele>77.20187192</ele>
        <time>2017-09-03T11:23:06Z</time>
      </trkpt>
      <trkpt lat="50.4496" lon="2.63675">
        <ele>77.20158444</ele>
        <time>2017-09-03T11:23:11Z</time>
      </trkpt>
      <trkpt lat="50.44976" lon="2.63653">
        <ele>76.20096728</ele>
        <time>2017-09-03T11:23:15Z</time>
      </trkpt>
      <trkpt lat="50.4498" lon="2.63643">
        <ele>76.20079724</ele>
        <time>2017-09-03T11:23:19Z</time>
      </trkpt>
      <trkpt lat="50.44987" lon="2.63627">
        <ele>77.2005144</ele>
        <time>2017-09-03T11:23:24Z</time>
      </trkpt>
      <trkpt lat="50.45001" lon="2.636">
        <ele>77.19996988</ele>
        <time>2017-09-03T11:23:28Z</time>
      </trkpt>
      <trkpt lat="50.45014" lon="2.63574">
        <ele>76.19943452</ele>
        <time>2017-09-03T11:23:32Z</time>
      </trkpt>
      <trkpt lat="50.45031" lon="2.63539">
        <ele>75.19875304</ele>
        <time>2017-09-03T11:23:37Z</time>
      </trkpt>
      <trkpt lat="50.45044" lon="2.63509">
        <ele>76.19825232</ele>
        <time>2017-09-03T11:23:41Z</time>
      </trkpt>
      <trkpt lat="50.45058" lon="2.6348">
        <ele>75.197681</ele>
        <time>2017-09-03T11:23:46Z</time>
      </trkpt>
      <trkpt lat="50.45072" lon="2.63447">
        <ele>76.19711868</ele>
        <time>2017-09-03T11:23:50Z</time>
      </trkpt>
      <trkpt lat="50.45088" lon="2.63416">
        <ele>74.19649516</ele>
        <time>2017-09-03T11:23:54Z</time>
      </trkpt>
      <trkpt lat="50.45106" lon="2.63381">
        <ele>74.19574948</ele>
        <time>2017-09-03T11:23:58Z</time>
      </trkpt>
      <trkpt lat="50.45121" lon="2.63346">
        <ele>74.19514248</ele>
        <time>2017-09-03T11:24:03Z</time>
      </trkpt>
      <trkpt lat="50.45139" lon="2.63306">
        <ele>76.19442308</ele>
        <time>2017-09-03T11:24:08Z</time>
      </trkpt>
      <trkpt lat="50.45162" lon="2.63271">
        <ele>76.193519</ele>
        <time>2017-09-03T11:24:12Z</time>
      </trkpt>
      <trkpt lat="50.4518" lon="2.63249">
        <ele>76.19281184</ele>
        <time>2017-09-03T11:24:16Z</time>
      </trkpt>
      <trkpt lat="50.45198" lon="2.63225">
        <ele>74.1920832</ele>
        <time>2017-09-03T11:24:21Z</time>
      </trkpt>
      <trkpt lat="50.45207" lon="2.63216">
        <ele>74.19172176</ele>
        <time>2017-09-03T11:24:26Z</time>
      </trkpt>
      <trkpt lat="50.45225" lon="2.63209">
        <ele>73.19099156</ele>
        <time>2017-09-03T11:24:30Z</time>
      </trkpt>
      <trkpt lat="50.45241" lon="2.63208">
        <ele>72.19034968</ele>
        <time>2017-09-03T11:24:35Z</time>
      </trkpt>
      <trkpt lat="50.45264" lon="2.63202">
        <ele>69.18943236</ele>
        <time>2017-09-03T11:24:39Z</time>
      </trkpt>
      <trkpt lat="50.453" lon="2.63188">
        <ele>68.18800608</ele>
        <time>2017-09-03T11:24:43Z</time>
      </trkpt>
      <trkpt lat="50.45338" lon="2.63169">
        <ele>66.18649076</ele>
        <time>2017-09-03T11:24:48Z</time>
      </trkpt>
      <trkpt lat="50.45374" lon="2.63149">
        <ele>66.18505436</ele>
        <time>2017-09-03T11:24:53Z</time>
      </trkpt>
      <trkpt lat="50.45401" lon="2.63134">
        <ele>65.18394628</ele>
        <time>2017-09-03T11:24:58Z</time>
      </trkpt>
      <trkpt lat="50.45422" lon="2.63144">
        <ele>65.1831036</ele>
        <time>2017-09-03T11:25:03Z</time>
      </trkpt>
      <trkpt lat="50.45433" lon="2.63155">
        <ele>63.18266584</ele>
        <time>2017-09-03T11:25:07Z</time>
      </trkpt>
      <trkpt lat="50.45437" lon="2.63179">
        <ele>63.18252696</ele>
        <time>2017-09-03T11:25:11Z</time>
      </trkpt>
      <trkpt lat="50.45431" lon="2.63204">
        <ele>65.1827536</ele>
        <time>2017-09-03T11:25:15Z</time>
      </trkpt>
      <trkpt lat="50.45418" lon="2.63228">
        <ele>65.1832656</ele>
        <time>2017-09-03T11:25:20Z</time>
      </trkpt>
      <trkpt lat="50.45403" lon="2.63255">
        <ele>65.18387668</ele>
        <time>2017-09-03T11:25:24Z</time>
      </trkpt>
      <trkpt lat="50.45393" lon="2.63271">
        <ele>65.18426716</ele>
        <time>2017-09-03T11:25:28Z</time>
      </trkpt>
      <trkpt lat="50.45405" lon="2.63282">
        <ele>63.18380492</ele>
        <time>2017-09-03T11:25:33Z</time>
      </trkpt>
      <trkpt lat="50.45434" lon="2.63296">
        <ele>62.18265752</ele>
        <time>2017-09-03T11:25:37Z</time>
      </trkpt>
      <trkpt lat="50.45466" lon="2.63309">
        <ele>62.18136372</ele>
        <time>2017-09-03T11:25:42Z</time>
      </trkpt>
      <trkpt lat="50.4549" lon="2.63326">
        <ele>61.18040456</ele>
        <time>2017-09-03T11:25:47Z</time>
      </trkpt>
      <trkpt lat="50.45507" lon="2.63339">
        <ele>61.1797252</ele>
        <time>2017-09-03T11:25:50Z</time>
      </trkpt>
      <trkpt lat="50.45533" lon="2.63363">
        <ele>59.17866964</ele>
        <time>2017-09-03T11:25:55Z</time>
      </trkpt>
      <trkpt lat="50.45562" lon="2.63391">
        <ele>59.17751612</ele>
        <time>2017-09-03T11:25:59Z</time>
      </trkpt>
      <trkpt lat="50.4558" lon="2.6341">
        <ele>59.17679912</ele>
        <time>2017-09-03T11:26:02Z</time>
      </trkpt>
      <trkpt lat="50.45603" lon="2.63432">
        <ele>58.17588204</ele>
        <time>2017-09-03T11:26:06Z</time>
      </trkpt>
      <trkpt lat="50.45628" lon="2.63451">
        <ele>57.17490104</ele>
        <time>2017-09-03T11:26:11Z</time>
      </trkpt>
      <trkpt lat="50.45652" lon="2.63472">
        <ele>57.17391832</ele>
        <time>2017-09-03T11:26:15Z</time>
      </trkpt>
      <trkpt lat="50.45675" lon="2.63494">
        <ele>56.17298932</ele>
        <time>2017-09-03T11:26:19Z</time>
      </trkpt>
      <trkpt lat="50.45705" lon="2.63524">
        <ele>56.17181224</ele>
        <time>2017-09-03T11:26:24Z</time>
      </trkpt>
      <trkpt lat="50.45723" lon="2.63544">
        <ele>56.17108472</ele>
        <time>2017-09-03T11:26:27Z</time>
      </trkpt>
      <trkpt lat="50.45747" lon="2.63569">
        <ele>55.1701072</ele>
        <time>2017-09-03T11:26:30Z</time>
      </trkpt>
      <trkpt lat="50.45772" lon="2.63595">
        <ele>54.16911636</ele>
        <time>2017-09-03T11:26:34Z</time>
      </trkpt>
      <trkpt lat="50.45797" lon="2.63622">
        <ele>54.16811988</ele>
        <time>2017-09-03T11:26:39Z</time>
      </trkpt>
      <trkpt lat="50.45827" lon="2.63658">
        <ele>54.1669394</ele>
        <time>2017-09-03T11:26:43Z</time>
      </trkpt>
      <trkpt lat="50.45849" lon="2.63685">
        <ele>54.166047</ele>
        <time>2017-09-03T11:26:48Z</time>
      </trkpt>
      <trkpt lat="50.45871" lon="2.6371">
        <ele>53.16517052</ele>
        <time>2017-09-03T11:26:51Z</time>
      </trkpt>
      <trkpt lat="50.45893" lon="2.63736">
        <ele>53.1642754</ele>
        <time>2017-09-03T11:26:56Z</time>
      </trkpt>
      <trkpt lat="50.45917" lon="2.63773">
        <ele>53.16331312</ele>
        <time>2017-09-03T11:27:01Z</time>
      </trkpt>
      <trkpt lat="50.45938" lon="2.63813">
        <ele>52.16250164</ele>
        <time>2017-09-03T11:27:06Z</time>
      </trkpt>
      <trkpt lat="50.45953" lon="2.63842">
        <ele>52.16189968</ele>
        <time>2017-09-03T11:27:10Z</time>
      </trkpt>
      <trkpt lat="50.45967" lon="2.63872">
        <ele>52.16133076</ele>
        <time>2017-09-03T11:27:14Z</time>
      </trkpt>
      <trkpt lat="50.45985" lon="2.63907">
        <ele>51.16058304</ele>
        <time>2017-09-03T11:27:19Z</time>
      </trkpt>
      <trkpt lat="50.46005" lon="2.63936">
        <ele>50.15980124</ele>
        <time>2017-09-03T11:27:23Z</time>
      </trkpt>
      <trkpt lat="50.46024" lon="2.63962">
        <ele>50.1590442</ele>
        <time>2017-09-03T11:27:28Z</time>
      </trkpt>
      <trkpt lat="50.46048" lon="2.63993">
        <ele>50.15807604</ele>
        <time>2017-09-03T11:27:33Z</time>
      </trkpt>
      <trkpt lat="50.46069" lon="2.64028">
        <ele>50.15724072</ele>
        <time>2017-09-03T11:27:37Z</time>
      </trkpt>
      <trkpt lat="50.46086" lon="2.64052">
        <ele>50.15657856</ele>
        <time>2017-09-03T11:27:41Z</time>
      </trkpt>
      <trkpt lat="50.46101" lon="2.64075">
        <ele>49.1559674</ele>
        <time>2017-09-03T11:27:45Z</time>
      </trkpt>
      <trkpt lat="50.46117" lon="2.64097">
        <ele>49.15531844</ele>
        <time>2017-09-03T11:27:50Z</time>
      </trkpt>
      <trkpt lat="50.46135" lon="2.64119">
        <ele>48.1545938</ele>
        <time>2017-09-03T11:27:53Z</time>
      </trkpt>
      <trkpt lat="50.46154" lon="2.64142">
        <ele>48.15386088</ele>
        <time>2017-09-03T11:27:58Z</time>
      </trkpt>
      <trkpt lat="50.46178" lon="2.64173">
        <ele>49.152881</ele>
        <time>2017-09-03T11:28:02Z</time>
      </trkpt>
      <trkpt lat="50.46199" lon="2.64197">
        <ele>49.15204612</ele>
        <time>2017-09-03T11:28:07Z</time>
      </trkpt>
      <trkpt lat="50.46225" lon="2.64226">
        <ele>48.15099156</ele>
        <time>2017-09-03T11:28:11Z</time>
      </trkpt>
      <trkpt lat="50.46243" lon="2.64249">
        <ele>48.1502674</ele>
        <time>2017-09-03T11:28:15Z</time>
      </trkpt>
      <trkpt lat="50.46236" lon="2.64242">
        <ele>48.15057296</ele>
        <time>2017-09-03T11:28:50Z</time>
      </trkpt>
      <trkpt lat="50.46242" lon="2.64249">
        <ele>48.15030596</ele>
        <time>2017-09-03T11:29:10Z</time>
      </trkpt>
      <trkpt lat="50.46249" lon="2.64258">
        <ele>48.1500448</ele>
        <time>2017-09-03T11:29:15Z</time>
      </trkpt>
      <trkpt lat="50.46254" lon="2.64251">
        <ele>48.14984872</ele>
        <time>2017-09-03T11:29:21Z</time>
      </trkpt>
      <trkpt lat="50.46255" lon="2.64222">
        <ele>49.14980108</ele>
        <time>2017-09-03T11:29:26Z</time>
      </trkpt>
      <trkpt lat="50.46258" lon="2.64196">
        <ele>49.14966548</ele>
        <time>2017-09-03T11:29:30Z</time>
      </trkpt>
      <trkpt lat="50.46262" lon="2.64168">
        <ele>49.14950476</ele>
        <time>2017-09-03T11:29:34Z</time>
      </trkpt>
      <trkpt lat="50.46266" lon="2.64132">
        <ele>50.1493602</ele>
        <time>2017-09-03T11:29:39Z</time>
      </trkpt>
      <trkpt lat="50.46268" lon="2.64097">
        <ele>51.1492912</ele>
        <time>2017-09-03T11:29:43Z</time>
      </trkpt>
      <trkpt lat="50.46267" lon="2.64066">
        <ele>52.1493204</ele>
        <time>2017-09-03T11:29:48Z</time>
      </trkpt>
      <trkpt lat="50.46266" lon="2.64044">
        <ele>52.14936268</ele>
        <time>2017-09-03T11:29:53Z</time>
      </trkpt>
      <trkpt lat="50.46265" lon="2.64017">
        <ele>53.14939416</ele>
        <time>2017-09-03T11:29:58Z</time>
      </trkpt>
      <trkpt lat="50.46265" lon="2.63992">
        <ele>53.14941756</ele>
        <time>2017-09-03T11:30:02Z</time>
      </trkpt>
      <trkpt lat="50.46264" lon="2.63972">
        <ele>54.14943944</ele>
        <time>2017-09-03T11:30:07Z</time>
      </trkpt>
      <trkpt lat="50.46264" lon="2.63949">
        <ele>55.14946092</ele>
        <time>2017-09-03T11:30:11Z</time>
      </trkpt>
      <trkpt lat="50.46263" lon="2.63931">
        <ele>56.14946548</ele>
        <time>2017-09-03T11:30:16Z</time>
      </trkpt>
      <trkpt lat="50.46263" lon="2.63914">
        <ele>57.14948856</ele>
        <time>2017-09-03T11:30:20Z</time>
      </trkpt>
      <trkpt lat="50.46262" lon="2.63892">
        <ele>57.14950464</ele>
        <time>2017-09-03T11:30:24Z</time>
      </trkpt>
      <trkpt lat="50.46262" lon="2.63874">
        <ele>58.14951952</ele>
        <time>2017-09-03T11:30:29Z</time>
      </trkpt>
      <trkpt lat="50.46262" lon="2.63854">
        <ele>60.14952268</ele>
        <time>2017-09-03T11:30:33Z</time>
      </trkpt>
      <trkpt lat="50.46262" lon="2.63839">
        <ele>61.14952204</ele>
        <time>2017-09-03T11:30:38Z</time>
      </trkpt>
      <trkpt lat="50.46263" lon="2.63823">
        <ele>62.149498</ele>
        <time>2017-09-03T11:30:42Z</time>
      </trkpt>
      <trkpt lat="50.46264" lon="2.63811">
        <ele>63.14946092</ele>
        <time>2017-09-03T11:30:46Z</time>
      </trkpt>
      <trkpt lat="50.46265" lon="2.63798">
        <ele>64.14939564</ele>
        <time>2017-09-03T11:30:50Z</time>
      </trkpt>
      <trkpt lat="50.46268" lon="2.63781">
        <ele>65.14929856</ele>
        <time>2017-09-03T11:30:55Z</time>
      </trkpt>
      <trkpt lat="50.46272" lon="2.63762">
        <ele>65.14912676</ele>
        <time>2017-09-03T11:30:59Z</time>
      </trkpt>
      <trkpt lat="50.46276" lon="2.63735">
        <ele>66.148961</ele>
        <time>2017-09-03T11:31:04Z</time>
      </trkpt>
      <trkpt lat="50.4628" lon="2.63708">
        <ele>66.14879048</ele>
        <time>2017-09-03T11:31:09Z</time>
      </trkpt>
      <trkpt lat="50.46284" lon="2.63683">
        <ele>66.14864748</ele>
        <time>2017-09-03T11:31:13Z</time>
      </trkpt>
      <trkpt lat="50.46287" lon="2.63664">
        <ele>67.14852164</ele>
        <time>2017-09-03T11:31:17Z</time>
      </trkpt>
      <trkpt lat="50.4629" lon="2.63644">
        <ele>67.14839348</ele>
        <time>2017-09-03T11:31:22Z</time>
      </trkpt>
      <trkpt lat="50.46295" lon="2.63617">
        <ele>68.14819244</ele>
        <time>2017-09-03T11:31:26Z</time>
      </trkpt>
      <trkpt lat="50.46299" lon="2.63594">
        <ele>68.14802864</ele>
        <time>2017-09-03T11:31:31Z</time>
      </trkpt>
      <trkpt lat="50.46304" lon="2.63572">
        <ele>68.14786104</ele>
        <time>2017-09-03T11:31:35Z</time>
      </trkpt>
      <trkpt lat="50.46309" lon="2.63541">
        <ele>67.1476362</ele>
        <time>2017-09-03T11:31:39Z</time>
      </trkpt>
      <trkpt lat="50.46315" lon="2.63514">
        <ele>67.14738936</ele>
        <time>2017-09-03T11:31:44Z</time>
      </trkpt>
      <trkpt lat="50.46324" lon="2.63479">
        <ele>67.14702468</ele>
        <time>2017-09-03T11:31:48Z</time>
      </trkpt>
      <trkpt lat="50.46335" lon="2.63451">
        <ele>66.14661144</ele>
        <time>2017-09-03T11:31:52Z</time>
      </trkpt>
      <trkpt lat="50.46343" lon="2.63421">
        <ele>65.14626752</ele>
        <time>2017-09-03T11:31:56Z</time>
      </trkpt>
      <trkpt lat="50.46357" lon="2.63385">
        <ele>65.14572192</ele>
        <time>2017-09-03T11:32:01Z</time>
      </trkpt>
      <trkpt lat="50.46366" lon="2.63357">
        <ele>65.14536836</ele>
        <time>2017-09-03T11:32:06Z</time>
      </trkpt>
      <trkpt lat="50.46375" lon="2.63327">
        <ele>65.14502164</ele>
        <time>2017-09-03T11:32:10Z</time>
      </trkpt>
      <trkpt lat="50.46385" lon="2.63289">
        <ele>65.14458952</ele>
        <time>2017-09-03T11:32:15Z</time>
      </trkpt>
      <trkpt lat="50.46397" lon="2.63252">
        <ele>65.14412532</ele>
        <time>2017-09-03T11:32:19Z</time>
      </trkpt>
      <trkpt lat="50.46403" lon="2.6323">
        <ele>65.14387124</ele>
        <time>2017-09-03T11:32:23Z</time>
      </trkpt>
      <trkpt lat="50.4641" lon="2.6319">
        <ele>65.14360912</ele>
        <time>2017-09-03T11:32:27Z</time>
      </trkpt>
      <trkpt lat="50.46415" lon="2.63158">
        <ele>65.14341748</ele>
        <time>2017-09-03T11:32:31Z</time>
      </trkpt>
      <trkpt lat="50.46418" lon="2.63125">
        <ele>66.14327176</ele>
        <time>2017-09-03T11:32:35Z</time>
      </trkpt>
      <trkpt lat="50.46423" lon="2.63093">
        <ele>65.14306212</ele>
        <time>2017-09-03T11:32:40Z</time>
      </trkpt>
      <trkpt lat="50.46431" lon="2.63052">
        <ele>65.14274712</ele>
        <time>2017-09-03T11:32:44Z</time>
      </trkpt>
      <trkpt lat="50.46437" lon="2.63018">
        <ele>66.14253408</ele>
        <time>2017-09-03T11:32:49Z</time>
      </trkpt>
      <trkpt lat="50.46441" lon="2.62994">
        <ele>66.14234368</ele>
        <time>2017-09-03T11:32:52Z</time>
      </trkpt>
      <trkpt lat="50.46448" lon="2.62969">
        <ele>65.14208292</ele>
        <time>2017-09-03T11:32:55Z</time>
      </trkpt>
      <trkpt lat="50.46454" lon="2.6295">
        <ele>64.14182756</ele>
        <time>2017-09-03T11:33:00Z</time>
      </trkpt>
      <trkpt lat="50.46473" lon="2.6296">
        <ele>64.14109972</ele>
        <time>2017-09-03T11:33:04Z</time>
      </trkpt>
      <trkpt lat="50.46495" lon="2.62979">
        <ele>63.14021948</ele>
        <time>2017-09-03T11:33:09Z</time>
      </trkpt>
      <trkpt lat="50.46523" lon="2.63001">
        <ele>63.13908892</ele>
        <time>2017-09-03T11:33:14Z</time>
      </trkpt>
      <trkpt lat="50.4655" lon="2.63009">
        <ele>63.1379944</ele>
        <time>2017-09-03T11:33:19Z</time>
      </trkpt>
      <trkpt lat="50.46576" lon="2.63013">
        <ele>62.136942</ele>
        <time>2017-09-03T11:33:24Z</time>
      </trkpt>
      <trkpt lat="50.46605" lon="2.63021">
        <ele>62.13578688</ele>
        <time>2017-09-03T11:33:28Z</time>
      </trkpt>
      <trkpt lat="50.4663" lon="2.63016">
        <ele>62.1348108</ele>
        <time>2017-09-03T11:33:33Z</time>
      </trkpt>
      <trkpt lat="50.46656" lon="2.63009">
        <ele>62.13377232</ele>
        <time>2017-09-03T11:33:37Z</time>
      </trkpt>
      <trkpt lat="50.46683" lon="2.62985">
        <ele>62.13266608</ele>
        <time>2017-09-03T11:33:41Z</time>
      </trkpt>
      <trkpt lat="50.46707" lon="2.62974">
        <ele>61.131718</ele>
        <time>2017-09-03T11:33:46Z</time>
      </trkpt>
      <trkpt lat="50.46739" lon="2.62972">
        <ele>61.13042208</ele>
        <time>2017-09-03T11:33:51Z</time>
      </trkpt>
      <trkpt lat="50.46772" lon="2.6297">
        <ele>61.12911228</ele>
        <time>2017-09-03T11:33:55Z</time>
      </trkpt>
      <trkpt lat="50.46797" lon="2.62971">
        <ele>62.12813692</ele>
        <time>2017-09-03T11:34:00Z</time>
      </trkpt>
      <trkpt lat="50.46828" lon="2.62973">
        <ele>61.126883</ele>
        <time>2017-09-03T11:34:04Z</time>
      </trkpt>
      <trkpt lat="50.46854" lon="2.62973">
        <ele>61.1258564</ele>
        <time>2017-09-03T11:34:08Z</time>
      </trkpt>
      <trkpt lat="50.4688" lon="2.62971">
        <ele>61.12482172</ele>
        <time>2017-09-03T11:34:12Z</time>
      </trkpt>
      <trkpt lat="50.46903" lon="2.62969">
        <ele>61.12389928</ele>
        <time>2017-09-03T11:34:16Z</time>
      </trkpt>
      <trkpt lat="50.46927" lon="2.62965">
        <ele>61.12290504</ele>
        <time>2017-09-03T11:34:20Z</time>
      </trkpt>
      <trkpt lat="50.46961" lon="2.62961">
        <ele>60.121545</ele>
        <time>2017-09-03T11:34:25Z</time>
      </trkpt>
      <trkpt lat="50.46989" lon="2.62956">
        <ele>60.12043508</ele>
        <time>2017-09-03T11:34:30Z</time>
      </trkpt>
      <trkpt lat="50.4702" lon="2.62953">
        <ele>59.11919344</ele>
        <time>2017-09-03T11:34:35Z</time>
      </trkpt>
      <trkpt lat="50.47043" lon="2.6295">
        <ele>60.1182902</ele>
        <time>2017-09-03T11:34:39Z</time>
      </trkpt>
      <trkpt lat="50.47072" lon="2.62952">
        <ele>61.117102</ele>
        <time>2017-09-03T11:34:43Z</time>
      </trkpt>
      <trkpt lat="50.47103" lon="2.62962">
        <ele>61.11587256</ele>
        <time>2017-09-03T11:34:48Z</time>
      </trkpt>
      <trkpt lat="50.47127" lon="2.62972">
        <ele>61.11490556</ele>
        <time>2017-09-03T11:34:53Z</time>
      </trkpt>
      <trkpt lat="50.47151" lon="2.6298">
        <ele>61.11395604</ele>
        <time>2017-09-03T11:34:57Z</time>
      </trkpt>
      <trkpt lat="50.47177" lon="2.62987">
        <ele>60.1129022</ele>
        <time>2017-09-03T11:35:01Z</time>
      </trkpt>
      <trkpt lat="50.47193" lon="2.62992">
        <ele>61.11229976</ele>
        <time>2017-09-03T11:35:05Z</time>
      </trkpt>
      <trkpt lat="50.4722" lon="2.63002">
        <ele>61.11119624</ele>
        <time>2017-09-03T11:35:10Z</time>
      </trkpt>
      <trkpt lat="50.47242" lon="2.6301">
        <ele>62.11030668</ele>
        <time>2017-09-03T11:35:13Z</time>
      </trkpt>
      <trkpt lat="50.47266" lon="2.63018">
        <ele>61.10936304</ele>
        <time>2017-09-03T11:35:18Z</time>
      </trkpt>
      <trkpt lat="50.47289" lon="2.63025">
        <ele>62.10844296</ele>
        <time>2017-09-03T11:35:21Z</time>
      </trkpt>
      <trkpt lat="50.4731" lon="2.63035">
        <ele>63.10759196</ele>
        <time>2017-09-03T11:35:26Z</time>
      </trkpt>
      <trkpt lat="50.47336" lon="2.63052">
        <ele>62.10657756</ele>
        <time>2017-09-03T11:35:30Z</time>
      </trkpt>
      <trkpt lat="50.47354" lon="2.63062">
        <ele>62.10584888</ele>
        <time>2017-09-03T11:35:34Z</time>
      </trkpt>
      <trkpt lat="50.47372" lon="2.63074">
        <ele>62.10511208</ele>
        <time>2017-09-03T11:35:39Z</time>
      </trkpt>
      <trkpt lat="50.47391" lon="2.63083">
        <ele>62.10434648</ele>
        <time>2017-09-03T11:35:43Z</time>
      </trkpt>
      <trkpt lat="50.47414" lon="2.63088">
        <ele>62.10342344</ele>
        <time>2017-09-03T11:35:47Z</time>
      </trkpt>
      <trkpt lat="50.47431" lon="2.63084">
        <ele>61.10276996</ele>
        <time>2017-09-03T11:35:51Z</time>
      </trkpt>
      <trkpt lat="50.47447" lon="2.63078">
        <ele>61.10214024</ele>
        <time>2017-09-03T11:35:56Z</time>
      </trkpt>
      <trkpt lat="50.47461" lon="2.63074">
        <ele>60.10156132</ele>
        <time>2017-09-03T11:36:00Z</time>
      </trkpt>
      <trkpt lat="50.47486" lon="2.6307">
        <ele>60.10057776</ele>
        <time>2017-09-03T11:36:04Z</time>
      </trkpt>
      <trkpt lat="50.47499" lon="2.63073">
        <ele>59.100029</ele>
        <time>2017-09-03T11:36:09Z</time>
      </trkpt>
      <trkpt lat="50.47515" lon="2.63077">
        <ele>59.09940292</ele>
        <time>2017-09-03T11:36:13Z</time>
      </trkpt>
      <trkpt lat="50.47532" lon="2.63083">
        <ele>60.09871284</ele>
        <time>2017-09-03T11:36:18Z</time>
      </trkpt>
      <trkpt lat="50.47552" lon="2.63089">
        <ele>59.09792112</ele>
        <time>2017-09-03T11:36:23Z</time>
      </trkpt>
      <trkpt lat="50.47574" lon="2.63097">
        <ele>59.09703808</ele>
        <time>2017-09-03T11:36:28Z</time>
      </trkpt>
      <trkpt lat="50.4759" lon="2.63104">
        <ele>58.09641512</ele>
        <time>2017-09-03T11:36:32Z</time>
      </trkpt>
      <trkpt lat="50.47605" lon="2.63113">
        <ele>57.0958124</ele>
        <time>2017-09-03T11:36:35Z</time>
      </trkpt>
      <trkpt lat="50.47629" lon="2.6313">
        <ele>57.0948408</ele>
        <time>2017-09-03T11:36:40Z</time>
      </trkpt>
      <trkpt lat="50.47649" lon="2.6314">
        <ele>55.094031</ele>
        <time>2017-09-03T11:36:45Z</time>
      </trkpt>
      <trkpt lat="50.47671" lon="2.63151">
        <ele>55.09314316</ele>
        <time>2017-09-03T11:36:50Z</time>
      </trkpt>
      <trkpt lat="50.47682" lon="2.63159">
        <ele>56.09271256</ele>
        <time>2017-09-03T11:36:52Z</time>
      </trkpt>
      <trkpt lat="50.47699" lon="2.63166">
        <ele>52.0920514</ele>
        <time>2017-09-03T11:36:56Z</time>
      </trkpt>
      <trkpt lat="50.47721" lon="2.63171">
        <ele>52.0911644</ele>
        <time>2017-09-03T11:37:01Z</time>
      </trkpt>
      <trkpt lat="50.47744" lon="2.63177">
        <ele>52.09026052</ele>
        <time>2017-09-03T11:37:05Z</time>
      </trkpt>
      <trkpt lat="50.47769" lon="2.63185">
        <ele>52.0892456</ele>
        <time>2017-09-03T11:37:10Z</time>
      </trkpt>
      <trkpt lat="50.47803" lon="2.63191">
        <ele>52.08787388</ele>
        <time>2017-09-03T11:37:15Z</time>
      </trkpt>
      <trkpt lat="50.47832" lon="2.63195">
        <ele>52.08673528</ele>
        <time>2017-09-03T11:37:19Z</time>
      </trkpt>
      <trkpt lat="50.47866" lon="2.632">
        <ele>52.08538136</ele>
        <time>2017-09-03T11:37:23Z</time>
      </trkpt>
      <trkpt lat="50.47891" lon="2.63198">
        <ele>51.08437748</ele>
        <time>2017-09-03T11:37:28Z</time>
      </trkpt>
      <trkpt lat="50.47922" lon="2.63202">
        <ele>51.0831046</ele>
        <time>2017-09-03T11:37:33Z</time>
      </trkpt>
      <trkpt lat="50.4794" lon="2.632">
        <ele>51.08241396</ele>
        <time>2017-09-03T11:37:35Z</time>
      </trkpt>
      <trkpt lat="50.47959" lon="2.63202">
        <ele>50.08163292</ele>
        <time>2017-09-03T11:37:39Z</time>
      </trkpt>
      <trkpt lat="50.47978" lon="2.63202">
        <ele>51.08090128</ele>
        <time>2017-09-03T11:37:44Z</time>
      </trkpt>
      <trkpt lat="50.48001" lon="2.63193">
        <ele>53.079948</ele>
        <time>2017-09-03T11:37:49Z</time>
      </trkpt>
      <trkpt lat="50.48026" lon="2.63192">
        <ele>53.07895492</ele>
        <time>2017-09-03T11:37:53Z</time>
      </trkpt>
      <trkpt lat="50.48058" lon="2.63193">
        <ele>52.07768728</ele>
        <time>2017-09-03T11:37:57Z</time>
      </trkpt>
      <trkpt lat="50.48086" lon="2.63197">
        <ele>50.07658172</ele>
        <time>2017-09-03T11:38:02Z</time>
      </trkpt>
      <trkpt lat="50.48105" lon="2.63196">
        <ele>50.07579912</ele>
        <time>2017-09-03T11:38:07Z</time>
      </trkpt>
      <trkpt lat="50.4813" lon="2.63196">
        <ele>50.07480588</ele>
        <time>2017-09-03T11:38:11Z</time>
      </trkpt>
      <trkpt lat="50.48156" lon="2.63197">
        <ele>50.07374612</ele>
        <time>2017-09-03T11:38:16Z</time>
      </trkpt>
      <trkpt lat="50.48182" lon="2.63196">
        <ele>46.07271004</ele>
        <time>2017-09-03T11:38:21Z</time>
      </trkpt>
      <trkpt lat="50.48205" lon="2.63194">
        <ele>47.07180788</ele>
        <time>2017-09-03T11:38:25Z</time>
      </trkpt>
      <trkpt lat="50.48224" lon="2.63195">
        <ele>47.07104772</ele>
        <time>2017-09-03T11:38:30Z</time>
      </trkpt>
      <trkpt lat="50.48243" lon="2.63197">
        <ele>47.07029188</ele>
        <time>2017-09-03T11:38:34Z</time>
      </trkpt>
      <trkpt lat="50.48265" lon="2.63201">
        <ele>46.06941476</ele>
        <time>2017-09-03T11:38:38Z</time>
      </trkpt>
      <trkpt lat="50.48283" lon="2.63206">
        <ele>46.0686722</ele>
        <time>2017-09-03T11:38:42Z</time>
      </trkpt>
      <trkpt lat="50.48298" lon="2.63214">
        <ele>45.06807084</ele>
        <time>2017-09-03T11:38:47Z</time>
      </trkpt>
      <trkpt lat="50.48297" lon="2.63235">
        <ele>44.06812316</ele>
        <time>2017-09-03T11:38:51Z</time>
      </trkpt>
      <trkpt lat="50.48292" lon="2.63252">
        <ele>44.06834128</ele>
        <time>2017-09-03T11:38:54Z</time>
      </trkpt>
      <trkpt lat="50.48282" lon="2.63282">
        <ele>44.06871392</ele>
        <time>2017-09-03T11:38:59Z</time>
      </trkpt>
      <trkpt lat="50.48274" lon="2.63307">
        <ele>46.06902328</ele>
        <time>2017-09-03T11:39:03Z</time>
      </trkpt>
      <trkpt lat="50.48269" lon="2.63327">
        <ele>46.06923932</ele>
        <time>2017-09-03T11:39:08Z</time>
      </trkpt>
      <trkpt lat="50.4826" lon="2.63345">
        <ele>48.06959024</ele>
        <time>2017-09-03T11:39:11Z</time>
      </trkpt>
      <trkpt lat="50.48251" lon="2.63371">
        <ele>48.06996092</ele>
        <time>2017-09-03T11:39:16Z</time>
      </trkpt>
      <trkpt lat="50.48243" lon="2.63389">
        <ele>50.07028964</ele>
        <time>2017-09-03T11:39:21Z</time>
      </trkpt>
      <trkpt lat="50.48234" lon="2.63401">
        <ele>51.07065196</ele>
        <time>2017-09-03T11:39:25Z</time>
      </trkpt>
      <trkpt lat="50.48222" lon="2.63414">
        <ele>54.07111752</ele>
        <time>2017-09-03T11:39:30Z</time>
      </trkpt>
      <trkpt lat="50.48212" lon="2.63425">
        <ele>54.07152204</ele>
        <time>2017-09-03T11:39:34Z</time>
      </trkpt>
      <trkpt lat="50.48202" lon="2.63435">
        <ele>54.07192748</ele>
        <time>2017-09-03T11:39:39Z</time>
      </trkpt>
      <trkpt lat="50.48195" lon="2.63445">
        <ele>55.07221684</ele>
        <time>2017-09-03T11:39:43Z</time>
      </trkpt>
      <trkpt lat="50.48183" lon="2.63457">
        <ele>58.0726796</ele>
        <time>2017-09-03T11:39:47Z</time>
      </trkpt>
      <trkpt lat="50.48175" lon="2.63466">
        <ele>58.0730042</ele>
        <time>2017-09-03T11:39:52Z</time>
      </trkpt>
      <trkpt lat="50.48162" lon="2.63477">
        <ele>56.07351236</ele>
        <time>2017-09-03T11:39:57Z</time>
      </trkpt>
      <trkpt lat="50.48153" lon="2.63489">
        <ele>59.07389904</ele>
        <time>2017-09-03T11:40:01Z</time>
      </trkpt>
      <trkpt lat="50.4814" lon="2.63505">
        <ele>58.07441576</ele>
        <time>2017-09-03T11:40:05Z</time>
      </trkpt>
      <trkpt lat="50.48128" lon="2.63519">
        <ele>60.07489628</ele>
        <time>2017-09-03T11:40:10Z</time>
      </trkpt>
      <trkpt lat="50.48119" lon="2.63529">
        <ele>61.0752576</ele>
        <time>2017-09-03T11:40:14Z</time>
      </trkpt>
      <trkpt lat="50.4811" lon="2.63546">
        <ele>60.07559564</ele>
        <time>2017-09-03T11:40:18Z</time>
      </trkpt>
      <trkpt lat="50.48103" lon="2.63565">
        <ele>60.07588472</ele>
        <time>2017-09-03T11:40:22Z</time>
      </trkpt>
      <trkpt lat="50.48095" lon="2.63592">
        <ele>60.07619424</ele>
        <time>2017-09-03T11:40:27Z</time>
      </trkpt>
      <trkpt lat="50.48092" lon="2.63611">
        <ele>59.0763376</ele>
        <time>2017-09-03T11:40:31Z</time>
      </trkpt>
      <trkpt lat="50.48089" lon="2.63634">
        <ele>61.07646064</ele>
        <time>2017-09-03T11:40:36Z</time>
      </trkpt>
      <trkpt lat="50.48086" lon="2.63655">
        <ele>60.07657976</ele>
        <time>2017-09-03T11:40:41Z</time>
      </trkpt>
      <trkpt lat="50.4808" lon="2.63676">
        <ele>60.07681028</ele>
        <time>2017-09-03T11:40:45Z</time>
      </trkpt>
      <trkpt lat="50.48067" lon="2.63706">
        <ele>59.07730688</ele>
        <time>2017-09-03T11:40:49Z</time>
      </trkpt>
      <trkpt lat="50.48056" lon="2.6373">
        <ele>58.07776528</ele>
        <time>2017-09-03T11:40:53Z</time>
      </trkpt>
      <trkpt lat="50.48046" lon="2.63753">
        <ele>57.07817324</ele>
        <time>2017-09-03T11:40:58Z</time>
      </trkpt>
      <trkpt lat="50.4803" lon="2.63782">
        <ele>56.07879808</ele>
        <time>2017-09-03T11:41:03Z</time>
      </trkpt>
      <trkpt lat="50.48012" lon="2.63818">
        <ele>55.07950772</ele>
        <time>2017-09-03T11:41:07Z</time>
      </trkpt>
      <trkpt lat="50.48" lon="2.63848">
        <ele>55.07998616</ele>
        <time>2017-09-03T11:41:11Z</time>
      </trkpt>
      <trkpt lat="50.47989" lon="2.63879">
        <ele>53.08043696</ele>
        <time>2017-09-03T11:41:15Z</time>
      </trkpt>
      <trkpt lat="50.47978" lon="2.63916">
        <ele>53.08087236</ele>
        <time>2017-09-03T11:41:20Z</time>
      </trkpt>
      <trkpt lat="50.47974" lon="2.63949">
        <ele>53.08105344</ele>
        <time>2017-09-03T11:41:24Z</time>
      </trkpt>
      <trkpt lat="50.47974" lon="2.63991">
        <ele>52.08105488</ele>
        <time>2017-09-03T11:41:29Z</time>
      </trkpt>
      <trkpt lat="50.47977" lon="2.64027">
        <ele>52.08091476</ele>
        <time>2017-09-03T11:41:33Z</time>
      </trkpt>
      <trkpt lat="50.47978" lon="2.64075">
        <ele>52.0808982</ele>
        <time>2017-09-03T11:41:38Z</time>
      </trkpt>
      <trkpt lat="50.47967" lon="2.64125">
        <ele>52.081304</ele>
        <time>2017-09-03T11:41:43Z</time>
      </trkpt>
      <trkpt lat="50.47959" lon="2.64159">
        <ele>54.08165892</ele>
        <time>2017-09-03T11:41:48Z</time>
      </trkpt>
      <trkpt lat="50.47949" lon="2.64211">
        <ele>52.08202244</ele>
        <time>2017-09-03T11:41:53Z</time>
      </trkpt>
      <trkpt lat="50.47942" lon="2.64264">
        <ele>50.08231196</ele>
        <time>2017-09-03T11:41:57Z</time>
      </trkpt>
      <trkpt lat="50.47937" lon="2.64305">
        <ele>50.08253292</ele>
        <time>2017-09-03T11:42:01Z</time>
      </trkpt>
      <trkpt lat="50.47929" lon="2.64356">
        <ele>49.08284344</ele>
        <time>2017-09-03T11:42:06Z</time>
      </trkpt>
      <trkpt lat="50.47922" lon="2.64397">
        <ele>49.0831242</ele>
        <time>2017-09-03T11:42:11Z</time>
      </trkpt>
      <trkpt lat="50.47913" lon="2.64449">
        <ele>48.08346696</ele>
        <time>2017-09-03T11:42:15Z</time>
      </trkpt>
      <trkpt lat="50.47907" lon="2.6449">
        <ele>47.08370952</ele>
        <time>2017-09-03T11:42:19Z</time>
      </trkpt>
      <trkpt lat="50.47902" lon="2.64544">
        <ele>47.08392028</ele>
        <time>2017-09-03T11:42:24Z</time>
      </trkpt>
      <trkpt lat="50.47898" lon="2.64588">
        <ele>46.08407012</ele>
        <time>2017-09-03T11:42:28Z</time>
      </trkpt>
      <trkpt lat="50.47894" lon="2.64632">
        <ele>45.08424704</ele>
        <time>2017-09-03T11:42:32Z</time>
      </trkpt>
      <trkpt lat="50.47889" lon="2.64688">
        <ele>45.08445304</ele>
        <time>2017-09-03T11:42:37Z</time>
      </trkpt>
      <trkpt lat="50.47882" lon="2.64731">
        <ele>45.08470484</ele>
        <time>2017-09-03T11:42:42Z</time>
      </trkpt>
      <trkpt lat="50.47874" lon="2.64785">
        <ele>44.08503056</ele>
        <time>2017-09-03T11:42:46Z</time>
      </trkpt>
      <trkpt lat="50.47865" lon="2.64827">
        <ele>43.0853904</ele>
        <time>2017-09-03T11:42:50Z</time>
      </trkpt>
      <trkpt lat="50.47851" lon="2.64876">
        <ele>41.08596108</ele>
        <time>2017-09-03T11:42:55Z</time>
      </trkpt>
      <trkpt lat="50.47841" lon="2.64913">
        <ele>40.08637352</ele>
        <time>2017-09-03T11:43:00Z</time>
      </trkpt>
      <trkpt lat="50.47831" lon="2.64962">
        <ele>40.08677468</ele>
        <time>2017-09-03T11:43:05Z</time>
      </trkpt>
      <trkpt lat="50.47828" lon="2.65004">
        <ele>40.08688848</ele>
        <time>2017-09-03T11:43:09Z</time>
      </trkpt>
      <trkpt lat="50.4782" lon="2.65054">
        <ele>39.08721068</ele>
        <time>2017-09-03T11:43:14Z</time>
      </trkpt>
      <trkpt lat="50.47807" lon="2.65104">
        <ele>37.0877296</ele>
        <time>2017-09-03T11:43:19Z</time>
      </trkpt>
      <trkpt lat="50.47797" lon="2.65155">
        <ele>37.08814056</ele>
        <time>2017-09-03T11:43:23Z</time>
      </trkpt>
      <trkpt lat="50.4779" lon="2.65194">
        <ele>35.0884004</ele>
        <time>2017-09-03T11:43:28Z</time>
      </trkpt>
      <trkpt lat="50.47791" lon="2.65231">
        <ele>35.08837048</ele>
        <time>2017-09-03T11:43:32Z</time>
      </trkpt>
      <trkpt lat="50.47797" lon="2.65277">
        <ele>33.08812588</ele>
        <time>2017-09-03T11:43:37Z</time>
      </trkpt>
      <trkpt lat="50.47806" lon="2.65317">
        <ele>33.08774268</ele>
        <time>2017-09-03T11:43:41Z</time>
      </trkpt>
      <trkpt lat="50.47817" lon="2.65357">
        <ele>33.08731176</ele>
        <time>2017-09-03T11:43:44Z</time>
      </trkpt>
      <trkpt lat="50.47828" lon="2.65397">
        <ele>32.08689804</ele>
        <time>2017-09-03T11:43:48Z</time>
      </trkpt>
      <trkpt lat="50.47836" lon="2.6544">
        <ele>32.08657216</ele>
        <time>2017-09-03T11:43:53Z</time>
      </trkpt>
      <trkpt lat="50.47841" lon="2.6548">
        <ele>32.08634944</ele>
        <time>2017-09-03T11:43:57Z</time>
      </trkpt>
      <trkpt lat="50.47843" lon="2.6552">
        <ele>32.08628472</ele>
        <time>2017-09-03T11:44:01Z</time>
      </trkpt>
      <trkpt lat="50.47844" lon="2.65568">
        <ele>32.08623436</ele>
        <time>2017-09-03T11:44:05Z</time>
      </trkpt>
      <trkpt lat="50.47844" lon="2.65605">
        <ele>31.08624568</ele>
        <time>2017-09-03T11:44:10Z</time>
      </trkpt>
      <trkpt lat="50.47845" lon="2.65641">
        <ele>32.08620172</ele>
        <time>2017-09-03T11:44:14Z</time>
      </trkpt>
      <trkpt lat="50.47848" lon="2.65677">
        <ele>32.08607924</ele>
        <time>2017-09-03T11:44:18Z</time>
      </trkpt>
      <trkpt lat="50.47853" lon="2.65722">
        <ele>32.08587924</ele>
        <time>2017-09-03T11:44:22Z</time>
      </trkpt>
      <trkpt lat="50.47861" lon="2.65768">
        <ele>32.08556616</ele>
        <time>2017-09-03T11:44:27Z</time>
      </trkpt>
      <trkpt lat="50.47866" lon="2.65806">
        <ele>32.0853782</ele>
        <time>2017-09-03T11:44:31Z</time>
      </trkpt>
      <trkpt lat="50.4787" lon="2.6584">
        <ele>32.08520608</ele>
        <time>2017-09-03T11:44:36Z</time>
      </trkpt>
      <trkpt lat="50.47873" lon="2.6587">
        <ele>30.08509088</ele>
        <time>2017-09-03T11:44:40Z</time>
      </trkpt>
      <trkpt lat="50.47876" lon="2.65902">
        <ele>29.08496252</ele>
        <time>2017-09-03T11:44:43Z</time>
      </trkpt>
      <trkpt lat="50.47877" lon="2.65916">
        <ele>31.08493912</ele>
        <time>2017-09-03T11:44:48Z</time>
      </trkpt>
      <trkpt lat="50.47892" lon="2.65923">
        <ele>32.0843282</ele>
        <time>2017-09-03T11:44:52Z</time>
      </trkpt>
      <trkpt lat="50.47919" lon="2.65931">
        <ele>31.08324332</ele>
        <time>2017-09-03T11:44:57Z</time>
      </trkpt>
      <trkpt lat="50.47938" lon="2.65929">
        <ele>32.0824624</ele>
        <time>2017-09-03T11:45:02Z</time>
      </trkpt>
      <trkpt lat="50.47947" lon="2.65898">
        <ele>32.0821376</ele>
        <time>2017-09-03T11:45:06Z</time>
      </trkpt>
      <trkpt lat="50.4796" lon="2.6586">
        <ele>33.08161648</ele>
        <time>2017-09-03T11:45:11Z</time>
      </trkpt>
      <trkpt lat="50.47982" lon="2.65821">
        <ele>31.080723</ele>
        <time>2017-09-03T11:45:15Z</time>
      </trkpt>
      <trkpt lat="50.48001" lon="2.65796">
        <ele>31.07996488</ele>
        <time>2017-09-03T11:45:19Z</time>
      </trkpt>
      <trkpt lat="50.48023" lon="2.65779">
        <ele>30.079077</ele>
        <time>2017-09-03T11:45:24Z</time>
      </trkpt>
      <trkpt lat="50.48049" lon="2.65768">
        <ele>30.07803604</ele>
        <time>2017-09-03T11:45:28Z</time>
      </trkpt>
      <trkpt lat="50.48077" lon="2.65759">
        <ele>29.076916</ele>
        <time>2017-09-03T11:45:32Z</time>
      </trkpt>
      <trkpt lat="50.48112" lon="2.65747">
        <ele>30.07551836</ele>
        <time>2017-09-03T11:45:36Z</time>
      </trkpt>
      <trkpt lat="50.48141" lon="2.6574">
        <ele>30.0743712</ele>
        <time>2017-09-03T11:45:41Z</time>
      </trkpt>
      <trkpt lat="50.48176" lon="2.65737">
        <ele>31.072957</ele>
        <time>2017-09-03T11:45:45Z</time>
      </trkpt>
      <trkpt lat="50.48203" lon="2.65744">
        <ele>32.07188908</ele>
        <time>2017-09-03T11:45:50Z</time>
      </trkpt>
      <trkpt lat="50.48233" lon="2.65752">
        <ele>32.07069264</ele>
        <time>2017-09-03T11:45:54Z</time>
      </trkpt>
      <trkpt lat="50.48256" lon="2.65759">
        <ele>31.06976372</ele>
        <time>2017-09-03T11:45:59Z</time>
      </trkpt>
      <trkpt lat="50.48272" lon="2.65776">
        <ele>31.0691116</ele>
        <time>2017-09-03T11:46:02Z</time>
      </trkpt>
      <trkpt lat="50.4827" lon="2.6582">
        <ele>30.0692058</ele>
        <time>2017-09-03T11:46:07Z</time>
      </trkpt>
      <trkpt lat="50.48266" lon="2.65854">
        <ele>30.06935044</ele>
        <time>2017-09-03T11:46:11Z</time>
      </trkpt>
      <trkpt lat="50.48256" lon="2.6589">
        <ele>30.06977908</ele>
        <time>2017-09-03T11:46:16Z</time>
      </trkpt>
      <trkpt lat="50.48247" lon="2.6592">
        <ele>28.07013472</ele>
        <time>2017-09-03T11:46:20Z</time>
      </trkpt>
      <trkpt lat="50.48236" lon="2.65946">
        <ele>28.07056816</ele>
        <time>2017-09-03T11:46:24Z</time>
      </trkpt>
      <trkpt lat="50.48234" lon="2.65966">
        <ele>29.07062804</ele>
        <time>2017-09-03T11:46:29Z</time>
      </trkpt>
      <trkpt lat="50.4825" lon="2.65968">
        <ele>29.07000808</ele>
        <time>2017-09-03T11:46:33Z</time>
      </trkpt>
      <trkpt lat="50.48261" lon="2.65963">
        <ele>27.06957196</ele>
        <time>2017-09-03T11:46:37Z</time>
      </trkpt>
      <trkpt lat="50.48272" lon="2.65976">
        <ele>27.06913244</ele>
        <time>2017-09-03T11:46:41Z</time>
      </trkpt>
      <trkpt lat="50.48288" lon="2.65989">
        <ele>27.06847716</ele>
        <time>2017-09-03T11:46:46Z</time>
      </trkpt>
      <trkpt lat="50.48309" lon="2.66006">
        <ele>29.06763124</ele>
        <time>2017-09-03T11:46:51Z</time>
      </trkpt>
      <trkpt lat="50.4833" lon="2.66026">
        <ele>32.06679928</ele>
        <time>2017-09-03T11:46:55Z</time>
      </trkpt>
      <trkpt lat="50.48349" lon="2.66047">
        <ele>29.06604064</ele>
        <time>2017-09-03T11:46:59Z</time>
      </trkpt>
      <trkpt lat="50.48366" lon="2.66062">
        <ele>30.06535728</ele>
        <time>2017-09-03T11:47:04Z</time>
      </trkpt>
      <trkpt lat="50.48379" lon="2.66083">
        <ele>28.0648558</ele>
        <time>2017-09-03T11:47:09Z</time>
      </trkpt>
      <trkpt lat="50.48393" lon="2.66101">
        <ele>28.06429384</ele>
        <time>2017-09-03T11:47:12Z</time>
      </trkpt>
      <trkpt lat="50.48409" lon="2.66111">
        <ele>28.06366188</ele>
        <time>2017-09-03T11:47:17Z</time>
      </trkpt>
      <trkpt lat="50.48408" lon="2.66138">
        <ele>29.06368956</ele>
        <time>2017-09-03T11:47:20Z</time>
      </trkpt>
      <trkpt lat="50.48402" lon="2.66155">
        <ele>28.0639392</ele>
        <time>2017-09-03T11:47:24Z</time>
      </trkpt>
      <trkpt lat="50.48398" lon="2.66166">
        <ele>28.0640896</ele>
        <time>2017-09-03T11:47:30Z</time>
      </trkpt>
      <trkpt lat="50.48393" lon="2.66178">
        <ele>27.06428004</ele>
        <time>2017-09-03T11:47:37Z</time>
      </trkpt>
      <trkpt lat="50.48384" lon="2.66178">
        <ele>29.06463608</ele>
        <time>2017-09-03T11:47:52Z</time>
      </trkpt>
      <trkpt lat="50.48383" lon="2.66182">
        <ele>29.06470176</ele>
        <time>2017-09-03T11:49:10Z</time>
      </trkpt>
      <trkpt lat="50.48383" lon="2.66182">
        <ele>29.06470176</ele>
        <time>2017-09-03T11:49:10Z</time>
      </trkpt>
      <trkpt lat="50.48383" lon="2.66182">
        <ele>29.06470176</ele>
        <time>2017-09-03T11:49:10Z</time>
      </trkpt>
      <trkpt lat="50.48383" lon="2.66182">
        <ele>29.06470176</ele>
        <time>2017-09-03T11:49:10Z</time>
      </trkpt>
      <trkpt lat="50.48393" lon="2.66188">
        <ele>28</ele>
      </trkpt>
      <trkpt lat="50.48401" lon="2.66163">
        <ele>28.2</ele>
      </trkpt>
      <trkpt lat="50.48408" lon="2.66168">
        <ele>28.1</ele>
      </trkpt>
      <trkpt lat="50.48414" lon="2.66172">
        <ele>28</ele>
      </trkpt>
      <trkpt lat="50.48404" lon="2.66208">
        <ele>27.7</ele>
      </trkpt>
      <trkpt lat="50.484" lon="2.66222">
        <ele>27.5</ele>
      </trkpt>
      <trkpt lat="50.48397" lon="2.6623">
        <ele>27.5</ele>
      </trkpt>
      <trkpt lat="50.48394" lon="2.66241">
        <ele>27.4</ele>
      </trkpt>
      <trkpt lat="50.48389" lon="2.66258">
        <ele>27.2</ele>
      </trkpt>
      <trkpt lat="50.48329" lon="2.6646">
        <ele>27.6</ele>
      </trkpt>
      <trkpt lat="50.48321" lon="2.66485">
        <ele>28</ele>
      </trkpt>
      <trkpt lat="50.48315" lon="2.66503">
        <ele>28.2</ele>
      </trkpt>
      <trkpt lat="50.48281" lon="2.6661">
        <ele>29.5</ele>
      </trkpt>
      <trkpt lat="50.48274" lon="2.66628">
        <ele>29.8</ele>
      </trkpt>
      <trkpt lat="50.48255" lon="2.66688">
        <ele>30.8</ele>
      </trkpt>
      <trkpt lat="50.48234" lon="2.66748">
        <ele>31.2</ele>
      </trkpt>
      <trkpt lat="50.48229" lon="2.66758">
        <ele>31.3</ele>
      </trkpt>
      <trkpt lat="50.48235" lon="2.66767">
        <ele>31.2</ele>
      </trkpt>
      <trkpt lat="50.48233" lon="2.66773">
        <ele>31.3</ele>
      </trkpt>
      <trkpt lat="50.48226" lon="2.66796">
        <ele>31.4</ele>
      </trkpt>
      <trkpt lat="50.48179" lon="2.66946">
        <ele>32.8</ele>
      </trkpt>
      <trkpt lat="50.48182" lon="2.66967">
        <ele>32.7</ele>
      </trkpt>
      <trkpt lat="50.48182" lon="2.66981">
        <ele>32.8</ele>
      </trkpt>
      <trkpt lat="50.48175" lon="2.67001">
        <ele>32.9</ele>
      </trkpt>
      <trkpt lat="50.4814" lon="2.67097">
        <ele>34.7</ele>
      </trkpt>
      <trkpt lat="50.48115" lon="2.67163">
        <ele>35</ele>
      </trkpt>
      <trkpt lat="50.4811" lon="2.67178">
        <ele>35</ele>
      </trkpt>
      <trkpt lat="50.48102" lon="2.67199">
        <ele>35</ele>
      </trkpt>
      <trkpt lat="50.48082" lon="2.67252">
        <ele>35</ele>
      </trkpt>
      <trkpt lat="50.48063" lon="2.67301">
        <ele>35</ele>
      </trkpt>
      <trkpt lat="50.48055" lon="2.67294">
        <ele>35</ele>
      </trkpt>
      <trkpt lat="50.48012" lon="2.67257">
        <ele>35</ele>
      </trkpt>
      <trkpt lat="50.47966" lon="2.67215">
        <ele>35.8</ele>
      </trkpt>
      <trkpt lat="50.47927" lon="2.67322">
        <ele>37.5</ele>
      </trkpt>
      <trkpt lat="50.47873" lon="2.67276">
        <ele>38.9</ele>
      </trkpt>
      <trkpt lat="50.47847" lon="2.67398">
        <ele>40</ele>
      </trkpt>
      <trkpt lat="50.47816" lon="2.67529">
        <ele>40.6</ele>
      </trkpt>
      <trkpt lat="50.47802" lon="2.67581">
        <ele>41.1</ele>
      </trkpt>
      <trkpt lat="50.47782" lon="2.6766">
        <ele>40.9</ele>
      </trkpt>
      <trkpt lat="50.47778" lon="2.67678">
        <ele>41.1</ele>
      </trkpt>
      <trkpt lat="50.47771" lon="2.67703">
        <ele>41.6</ele>
      </trkpt>
      <trkpt lat="50.47766" lon="2.67723">
        <ele>42</ele>
      </trkpt>
      <trkpt lat="50.47761" lon="2.67739">
        <ele>42.4</ele>
      </trkpt>
      <trkpt lat="50.47756" lon="2.67737">
        <ele>42.6</ele>
      </trkpt>
      <trkpt lat="50.47746" lon="2.6774">
        <ele>43</ele>
      </trkpt>
      <trkpt lat="50.47739" lon="2.67751">
        <ele>43.3</ele>
      </trkpt>
      <trkpt lat="50.47737" lon="2.67759">
        <ele>43.5</ele>
      </trkpt>
      <trkpt lat="50.47733" lon="2.67764">
        <ele>43.7</ele>
      </trkpt>
      <trkpt lat="50.47727" lon="2.67767">
        <ele>44</ele>
      </trkpt>
      <trkpt lat="50.47706" lon="2.67773">
        <ele>44.6</ele>
      </trkpt>
      <trkpt lat="50.47694" lon="2.67776">
        <ele>45</ele>
      </trkpt>
      <trkpt lat="50.47675" lon="2.67783">
        <ele>45.6</ele>
      </trkpt>
      <trkpt lat="50.476" lon="2.67806">
        <ele>47.1</ele>
      </trkpt>
      <trkpt lat="50.47567" lon="2.67816">
        <ele>47.8</ele>
      </trkpt>
      <trkpt lat="50.47562" lon="2.67817">
        <ele>47.9</ele>
      </trkpt>
      <trkpt lat="50.47467" lon="2.67845">
        <ele>50.2</ele>
      </trkpt>
      <trkpt lat="50.47394" lon="2.67867">
        <ele>52</ele>
      </trkpt>
      <trkpt lat="50.47387" lon="2.67868">
        <ele>52</ele>
      </trkpt>
      <trkpt lat="50.4738" lon="2.67865">
        <ele>52</ele>
      </trkpt>
      <trkpt lat="50.47377" lon="2.6786">
        <ele>52</ele>
      </trkpt>
      <trkpt lat="50.47373" lon="2.67855">
        <ele>52</ele>
      </trkpt>
      <trkpt lat="50.47368" lon="2.67853">
        <ele>52</ele>
      </trkpt>
      <trkpt lat="50.47363" lon="2.67853">
        <ele>52</ele>
      </trkpt>
      <trkpt lat="50.47355" lon="2.67859">
        <ele>52</ele>
      </trkpt>
      <trkpt lat="50.47351" lon="2.67864">
        <ele>52</ele>
      </trkpt>
      <trkpt lat="50.47347" lon="2.67867">
        <ele>52</ele>
      </trkpt>
      <trkpt lat="50.47345" lon="2.67868">
        <ele>52</ele>
      </trkpt>
      <trkpt lat="50.47338" lon="2.67868">
        <ele>52</ele>
      </trkpt>
      <trkpt lat="50.47329" lon="2.67864">
        <ele>52.1</ele>
      </trkpt>
      <trkpt lat="50.47313" lon="2.67852">
        <ele>52.5</ele>
      </trkpt>
      <trkpt lat="50.47265" lon="2.67798">
        <ele>53.3</ele>
      </trkpt>
      <trkpt lat="50.4723" lon="2.67759">
        <ele>53.6</ele>
      </trkpt>
      <trkpt lat="50.47222" lon="2.67751">
        <ele>53.7</ele>
      </trkpt>
      <trkpt lat="50.47218" lon="2.67749">
        <ele>53.8</ele>
      </trkpt>
      <trkpt lat="50.47216" lon="2.67748">
        <ele>53.8</ele>
      </trkpt>
      <trkpt lat="50.472" lon="2.67747">
        <ele>54.2</ele>
      </trkpt>
      <trkpt lat="50.47191" lon="2.67751">
        <ele>54.4</ele>
      </trkpt>
      <trkpt lat="50.47184" lon="2.67758">
        <ele>54.6</ele>
      </trkpt>
      <trkpt lat="50.47179" lon="2.67765">
        <ele>54.7</ele>
      </trkpt>
      <trkpt lat="50.47165" lon="2.6779">
        <ele>55</ele>
      </trkpt>
      <trkpt lat="50.47154" lon="2.67802">
        <ele>55.3</ele>
      </trkpt>
      <trkpt lat="50.47143" lon="2.67807">
        <ele>55.7</ele>
      </trkpt>
      <trkpt lat="50.47131" lon="2.67805">
        <ele>56</ele>
      </trkpt>
      <trkpt lat="50.47116" lon="2.67797">
        <ele>56.3</ele>
      </trkpt>
      <trkpt lat="50.46806" lon="2.67604">
        <ele>56.1</ele>
      </trkpt>
      <trkpt lat="50.46778" lon="2.67586">
        <ele>56</ele>
      </trkpt>
      <trkpt lat="50.46756" lon="2.67573">
        <ele>56</ele>
      </trkpt>
      <trkpt lat="50.46745" lon="2.67565">
        <ele>56.1</ele>
      </trkpt>
      <trkpt lat="50.46613" lon="2.67483">
        <ele>59</ele>
      </trkpt>
      <trkpt lat="50.46597" lon="2.67547">
        <ele>58.8</ele>
      </trkpt>
      <trkpt lat="50.46584" lon="2.67599">
        <ele>58.8</ele>
      </trkpt>
      <trkpt lat="50.4658" lon="2.67617">
        <ele>58.5</ele>
      </trkpt>
      <trkpt lat="50.46561" lon="2.67705">
        <ele>57</ele>
      </trkpt>
      <trkpt lat="50.46551" lon="2.67732">
        <ele>56.4</ele>
      </trkpt>
      <trkpt lat="50.46544" lon="2.67742">
        <ele>56.2</ele>
      </trkpt>
      <trkpt lat="50.46537" lon="2.67743">
        <ele>56</ele>
      </trkpt>
      <trkpt lat="50.4653" lon="2.67742">
        <ele>55.8</ele>
      </trkpt>
      <trkpt lat="50.4652" lon="2.67735">
        <ele>55.7</ele>
      </trkpt>
      <trkpt lat="50.46486" lon="2.67683">
        <ele>55.9</ele>
      </trkpt>
      <trkpt lat="50.46479" lon="2.67681">
        <ele>56</ele>
      </trkpt>
      <trkpt lat="50.46454" lon="2.67719">
        <ele>55.6</ele>
      </trkpt>
      <trkpt lat="50.46426" lon="2.67756">
        <ele>54.9</ele>
      </trkpt>
      <trkpt lat="50.46418" lon="2.67744">
        <ele>55.1</ele>
      </trkpt>
      <trkpt lat="50.46391" lon="2.67782">
        <ele>53.6</ele>
      </trkpt>
      <trkpt lat="50.46343" lon="2.67816">
        <ele>51.6</ele>
      </trkpt>
      <trkpt lat="50.46276" lon="2.67688">
        <ele>51.7</ele>
      </trkpt>
      <trkpt lat="50.46273" lon="2.67684">
        <ele>51.6</ele>
      </trkpt>
      <trkpt lat="50.46261" lon="2.67692">
        <ele>51.1</ele>
      </trkpt>
      <trkpt lat="50.46182" lon="2.67767">
        <ele>48.9</ele>
      </trkpt>
      <trkpt lat="50.46176" lon="2.67773">
        <ele>48.8</ele>
      </trkpt>
      <trkpt lat="50.46167" lon="2.67772">
        <ele>48.7</ele>
      </trkpt>
      <trkpt lat="50.46149" lon="2.67767">
        <ele>49.1</ele>
      </trkpt>
      <trkpt lat="50.46138" lon="2.6777">
        <ele>49.4</ele>
      </trkpt>
      <trkpt lat="50.46131" lon="2.67775">
        <ele>49.5</ele>
      </trkpt>
      <trkpt lat="50.46129" lon="2.67782">
        <ele>49.6</ele>
      </trkpt>
      <trkpt lat="50.46129" lon="2.67799">
        <ele>49.7</ele>
      </trkpt>
      <trkpt lat="50.46128" lon="2.67802">
        <ele>49.7</ele>
      </trkpt>
      <trkpt lat="50.46098" lon="2.67829">
        <ele>51.2</ele>
      </trkpt>
      <trkpt lat="50.46096" lon="2.67837">
        <ele>51.4</ele>
      </trkpt>
      <trkpt lat="50.46096" lon="2.67842">
        <ele>51.4</ele>
      </trkpt>
      <trkpt lat="50.46089" lon="2.67844">
        <ele>51.7</ele>
      </trkpt>
      <trkpt lat="50.46083" lon="2.67849">
        <ele>52</ele>
      </trkpt>
      <trkpt lat="50.46081" lon="2.67846">
        <ele>52.1</ele>
      </trkpt>
      <trkpt lat="50.46073" lon="2.67835">
        <ele>52.3</ele>
      </trkpt>
      <trkpt lat="50.46055" lon="2.6782">
        <ele>52.4</ele>
      </trkpt>
      <trkpt lat="50.4599" lon="2.67779">
        <ele>52.9</ele>
      </trkpt>
      <trkpt lat="50.45939" lon="2.67747">
        <ele>53.4</ele>
      </trkpt>
      <trkpt lat="50.45895" lon="2.67713">
        <ele>53.4</ele>
      </trkpt>
      <trkpt lat="50.45872" lon="2.677">
        <ele>53.3</ele>
      </trkpt>
      <trkpt lat="50.45845" lon="2.67697">
        <ele>53.6</ele>
      </trkpt>
      <trkpt lat="50.45795" lon="2.67701">
        <ele>55</ele>
      </trkpt>
      <trkpt lat="50.45709" lon="2.67697">
        <ele>57.3</ele>
      </trkpt>
      <trkpt lat="50.45671" lon="2.67693">
        <ele>58.2</ele>
      </trkpt>
      <trkpt lat="50.45546" lon="2.67671">
        <ele>60.9</ele>
      </trkpt>
      <trkpt lat="50.45485" lon="2.67668">
        <ele>62.2</ele>
      </trkpt>
      <trkpt lat="50.45428" lon="2.6766">
        <ele>62.8</ele>
      </trkpt>
      <trkpt lat="50.45422" lon="2.67659">
        <ele>62.8</ele>
      </trkpt>
      <trkpt lat="50.45121" lon="2.67709">
        <ele>65.5</ele>
      </trkpt>
      <trkpt lat="50.45036" lon="2.67729">
        <ele>65.3</ele>
      </trkpt>
      <trkpt lat="50.44964" lon="2.67752">
        <ele>65.4</ele>
      </trkpt>
      <trkpt lat="50.4493" lon="2.67763">
        <ele>65.7</ele>
      </trkpt>
      <trkpt lat="50.44909" lon="2.6777">
        <ele>65.9</ele>
      </trkpt>
      <trkpt lat="50.44882" lon="2.67781">
        <ele>66.2</ele>
      </trkpt>
      <trkpt lat="50.4476" lon="2.67845">
        <ele>64.1</ele>
      </trkpt>
      <trkpt lat="50.44749" lon="2.67853">
        <ele>64</ele>
      </trkpt>
      <trkpt lat="50.44742" lon="2.67859">
        <ele>64.3</ele>
      </trkpt>
      <trkpt lat="50.44711" lon="2.67898">
        <ele>65.7</ele>
      </trkpt>
      <trkpt lat="50.4469" lon="2.67925">
        <ele>67.1</ele>
      </trkpt>
      <trkpt lat="50.44685" lon="2.67915">
        <ele>67.1</ele>
      </trkpt>
      <trkpt lat="50.44664" lon="2.67871">
        <ele>67.1</ele>
      </trkpt>
      <trkpt lat="50.44617" lon="2.67795">
        <ele>68.8</ele>
      </trkpt>
      <trkpt lat="50.44608" lon="2.6778">
        <ele>68.9</ele>
      </trkpt>
      <trkpt lat="50.44519" lon="2.67733">
        <ele>72.1</ele>
      </trkpt>
      <trkpt lat="50.44501" lon="2.67707">
        <ele>71.9</ele>
      </trkpt>
      <trkpt lat="50.44493" lon="2.67693">
        <ele>71.4</ele>
      </trkpt>
      <trkpt lat="50.44466" lon="2.67645">
        <ele>70.3</ele>
      </trkpt>
      <trkpt lat="50.44417" lon="2.67559">
        <ele>69.4</ele>
      </trkpt>
      <trkpt lat="50.44409" lon="2.67539">
        <ele>69</ele>
      </trkpt>
      <trkpt lat="50.44398" lon="2.67512">
        <ele>68.5</ele>
      </trkpt>
      <trkpt lat="50.44383" lon="2.67467">
        <ele>68.6</ele>
      </trkpt>
      <trkpt lat="50.44355" lon="2.67387">
        <ele>69</ele>
      </trkpt>
      <trkpt lat="50.44341" lon="2.67346">
        <ele>69</ele>
      </trkpt>
      <trkpt lat="50.44333" lon="2.67323">
        <ele>69.3</ele>
      </trkpt>
      <trkpt lat="50.44326" lon="2.67305">
        <ele>69.9</ele>
      </trkpt>
      <trkpt lat="50.44321" lon="2.67289">
        <ele>70.4</ele>
      </trkpt>
      <trkpt lat="50.44313" lon="2.67274">
        <ele>70.9</ele>
      </trkpt>
      <trkpt lat="50.44308" lon="2.67252">
        <ele>71.3</ele>
      </trkpt>
      <trkpt lat="50.44306" lon="2.67238">
        <ele>71.4</ele>
      </trkpt>
      <trkpt lat="50.44304" lon="2.67227">
        <ele>71.5</ele>
      </trkpt>
      <trkpt lat="50.44305" lon="2.67218">
        <ele>71.6</ele>
      </trkpt>
      <trkpt lat="50.44305" lon="2.67206">
        <ele>71.7</ele>
      </trkpt>
      <trkpt lat="50.44304" lon="2.67189">
        <ele>71.8</ele>
      </trkpt>
      <trkpt lat="50.44303" lon="2.67183">
        <ele>71.9</ele>
      </trkpt>
      <trkpt lat="50.44299" lon="2.67175">
        <ele>71.9</ele>
      </trkpt>
      <trkpt lat="50.44295" lon="2.6717">
        <ele>72</ele>
      </trkpt>
      <trkpt lat="50.44288" lon="2.6717">
        <ele>72</ele>
      </trkpt>
      <trkpt lat="50.44285" lon="2.67172">
        <ele>72</ele>
      </trkpt>
      <trkpt lat="50.4428" lon="2.67177">
        <ele>72</ele>
      </trkpt>
      <trkpt lat="50.44277" lon="2.67186">
        <ele>71.9</ele>
      </trkpt>
      <trkpt lat="50.44276" lon="2.67194">
        <ele>71.9</ele>
      </trkpt>
      <trkpt lat="50.44275" lon="2.67203">
        <ele>71.9</ele>
      </trkpt>
      <trkpt lat="50.44271" lon="2.67208">
        <ele>71.9</ele>
      </trkpt>
      <trkpt lat="50.44264" lon="2.67212">
        <ele>71.9</ele>
      </trkpt>
      <trkpt lat="50.44252" lon="2.67213">
        <ele>72</ele>
      </trkpt>
      <trkpt lat="50.44238" lon="2.67205">
        <ele>72.2</ele>
      </trkpt>
      <trkpt lat="50.4423" lon="2.67201">
        <ele>72.3</ele>
      </trkpt>
      <trkpt lat="50.44211" lon="2.67195">
        <ele>72.6</ele>
      </trkpt>
      <trkpt lat="50.44195" lon="2.67192">
        <ele>72.9</ele>
      </trkpt>
      <trkpt lat="50.44126" lon="2.67184">
        <ele>74.6</ele>
      </trkpt>
      <trkpt lat="50.44092" lon="2.6718">
        <ele>75.7</ele>
      </trkpt>
      <trkpt lat="50.44062" lon="2.67178">
        <ele>76.2</ele>
      </trkpt>
      <trkpt lat="50.4404" lon="2.67182">
        <ele>76.4</ele>
      </trkpt>
      <trkpt lat="50.44016" lon="2.67192">
        <ele>76.6</ele>
      </trkpt>
      <trkpt lat="50.43991" lon="2.67205">
        <ele>76.5</ele>
      </trkpt>
      <trkpt lat="50.43981" lon="2.67209">
        <ele>76.5</ele>
      </trkpt>
      <trkpt lat="50.43965" lon="2.67218">
        <ele>76.4</ele>
      </trkpt>
      <trkpt lat="50.43937" lon="2.67224">
        <ele>76.3</ele>
      </trkpt>
      <trkpt lat="50.43807" lon="2.67217">
        <ele>75.4</ele>
      </trkpt>
      <trkpt lat="50.43716" lon="2.67214">
        <ele>75.9</ele>
      </trkpt>
      <trkpt lat="50.4369" lon="2.67215">
        <ele>77</ele>
      </trkpt>
      <trkpt lat="50.43677" lon="2.67209">
        <ele>77.6</ele>
      </trkpt>
      <trkpt lat="50.43664" lon="2.67204">
        <ele>78.1</ele>
      </trkpt>
      <trkpt lat="50.4366" lon="2.672">
        <ele>78.3</ele>
      </trkpt>
      <trkpt lat="50.43657" lon="2.67193">
        <ele>78.5</ele>
      </trkpt>
      <trkpt lat="50.43653" lon="2.67188">
        <ele>78.7</ele>
      </trkpt>
      <trkpt lat="50.43647" lon="2.67184">
        <ele>78.9</ele>
      </trkpt>
      <trkpt lat="50.43641" lon="2.67184">
        <ele>79.2</ele>
      </trkpt>
      <trkpt lat="50.43635" lon="2.67187">
        <ele>79.5</ele>
      </trkpt>
      <trkpt lat="50.43631" lon="2.67191">
        <ele>79.7</ele>
      </trkpt>
      <trkpt lat="50.43628" lon="2.67196">
        <ele>79.9</ele>
      </trkpt>
      <trkpt lat="50.43622" lon="2.67203">
        <ele>80.1</ele>
      </trkpt>
      <trkpt lat="50.43614" lon="2.67207">
        <ele>80.5</ele>
      </trkpt>
      <trkpt lat="50.43601" lon="2.67213">
        <ele>81.2</ele>
      </trkpt>
      <trkpt lat="50.43585" lon="2.67212">
        <ele>81.9</ele>
      </trkpt>
      <trkpt lat="50.43551" lon="2.6721">
        <ele>84.1</ele>
      </trkpt>
      <trkpt lat="50.43513" lon="2.67211">
        <ele>86.7</ele>
      </trkpt>
      <trkpt lat="50.435" lon="2.67214">
        <ele>87.6</ele>
      </trkpt>
      <trkpt lat="50.43486" lon="2.67223">
        <ele>88.6</ele>
      </trkpt>
      <trkpt lat="50.43473" lon="2.67239">
        <ele>89.5</ele>
      </trkpt>
      <trkpt lat="50.43452" lon="2.67275">
        <ele>90.8</ele>
      </trkpt>
      <trkpt lat="50.4344" lon="2.673">
        <ele>91.3</ele>
      </trkpt>
      <trkpt lat="50.43437" lon="2.67305">
        <ele>91.4</ele>
      </trkpt>
      <trkpt lat="50.43415" lon="2.67346">
        <ele>91.8</ele>
      </trkpt>
      <trkpt lat="50.43409" lon="2.67355">
        <ele>91.9</ele>
      </trkpt>
      <trkpt lat="50.43404" lon="2.67364">
        <ele>91.9</ele>
      </trkpt>
      <trkpt lat="50.43334" lon="2.67479">
        <ele>93.5</ele>
      </trkpt>
      <trkpt lat="50.43318" lon="2.67492">
        <ele>93.4</ele>
      </trkpt>
      <trkpt lat="50.43304" lon="2.67484">
        <ele>93.7</ele>
      </trkpt>
      <trkpt lat="50.43279" lon="2.67455">
        <ele>94.7</ele>
      </trkpt>
      <trkpt lat="50.43232" lon="2.67392">
        <ele>97</ele>
      </trkpt>
      <trkpt lat="50.43223" lon="2.67414">
        <ele>96.7</ele>
      </trkpt>
      <trkpt lat="50.43193" lon="2.67498">
        <ele>94.7</ele>
      </trkpt>
      <trkpt lat="50.43179" lon="2.67528">
        <ele>93.9</ele>
      </trkpt>
      <trkpt lat="50.43177" lon="2.67535">
        <ele>93.7</ele>
      </trkpt>
      <trkpt lat="50.43165" lon="2.67518">
        <ele>94.3</ele>
      </trkpt>
      <trkpt lat="50.43129" lon="2.67491">
        <ele>94.4</ele>
      </trkpt>
      <trkpt lat="50.43093" lon="2.6746">
        <ele>94.7</ele>
      </trkpt>
      <trkpt lat="50.43071" lon="2.67445">
        <ele>94.9</ele>
      </trkpt>
      <trkpt lat="50.42947" lon="2.67438">
        <ele>96.4</ele>
      </trkpt>
      <trkpt lat="50.42911" lon="2.67405">
        <ele>98.5</ele>
      </trkpt>
      <trkpt lat="50.42873" lon="2.67386">
        <ele>99.9</ele>
      </trkpt>
      <trkpt lat="50.42836" lon="2.67382">
        <ele>100.9</ele>
      </trkpt>
      <trkpt lat="50.42809" lon="2.67383">
        <ele>101.6</ele>
      </trkpt>
      <trkpt lat="50.42774" lon="2.67393">
        <ele>102.7</ele>
      </trkpt>
      <trkpt lat="50.42759" lon="2.67398">
        <ele>103.3</ele>
      </trkpt>
      <trkpt lat="50.42742" lon="2.67417">
        <ele>104.5</ele>
      </trkpt>
      <trkpt lat="50.42735" lon="2.67435">
        <ele>105.6</ele>
      </trkpt>
      <trkpt lat="50.42713" lon="2.67495">
        <ele>109.5</ele>
      </trkpt>
      <trkpt lat="50.42704" lon="2.67518">
        <ele>110</ele>
      </trkpt>
      <trkpt lat="50.42695" lon="2.67533">
        <ele>110.3</ele>
      </trkpt>
      <trkpt lat="50.42594" lon="2.67568">
        <ele>115</ele>
      </trkpt>
      <trkpt lat="50.42531" lon="2.67502">
        <ele>119.8</ele>
      </trkpt>
      <trkpt lat="50.4251" lon="2.67567">
        <ele>118.9</ele>
      </trkpt>
      <trkpt lat="50.42499" lon="2.676">
        <ele>118.7</ele>
      </trkpt>
      <trkpt lat="50.42463" lon="2.67716">
        <ele>120.6</ele>
      </trkpt>
      <trkpt lat="50.4244" lon="2.67749">
        <ele>122.8</ele>
      </trkpt>
      <trkpt lat="50.42414" lon="2.67781">
        <ele>125.1</ele>
      </trkpt>
      <trkpt lat="50.42393" lon="2.678">
        <ele>126.1</ele>
      </trkpt>
      <trkpt lat="50.42375" lon="2.67782">
        <ele>127</ele>
      </trkpt>
      <trkpt lat="50.4235" lon="2.67753">
        <ele>128.2</ele>
      </trkpt>
      <trkpt lat="50.42325" lon="2.6774">
        <ele>129.3</ele>
      </trkpt>
      <trkpt lat="50.42299" lon="2.67725">
        <ele>130.1</ele>
      </trkpt>
      <trkpt lat="50.42272" lon="2.67701">
        <ele>130.8</ele>
      </trkpt>
      <trkpt lat="50.42266" lon="2.67699">
        <ele>130.9</ele>
      </trkpt>
      <trkpt lat="50.42233" lon="2.67685">
        <ele>131.3</ele>
      </trkpt>
      <trkpt lat="50.4222" lon="2.67687">
        <ele>131.4</ele>
      </trkpt>
      <trkpt lat="50.4221" lon="2.67696">
        <ele>131.7</ele>
      </trkpt>
      <trkpt lat="50.42172" lon="2.67742">
        <ele>133.6</ele>
      </trkpt>
      <trkpt lat="50.42098" lon="2.67831">
        <ele>135.2</ele>
      </trkpt>
      <trkpt lat="50.42059" lon="2.67886">
        <ele>134.5</ele>
      </trkpt>
      <trkpt lat="50.42047" lon="2.67897">
        <ele>134</ele>
      </trkpt>
      <trkpt lat="50.42041" lon="2.6796">
        <ele>134.5</ele>
      </trkpt>
      <trkpt lat="50.42026" lon="2.67979">
        <ele>134</ele>
      </trkpt>
      <trkpt lat="50.42024" lon="2.67989">
        <ele>134</ele>
      </trkpt>
      <trkpt lat="50.42019" lon="2.68011">
        <ele>134</ele>
      </trkpt>
      <trkpt lat="50.42015" lon="2.68025">
        <ele>134</ele>
      </trkpt>
      <trkpt lat="50.41987" lon="2.68147">
        <ele>134</ele>
      </trkpt>
      <trkpt lat="50.41967" lon="2.68182">
        <ele>132.7</ele>
      </trkpt>
      <trkpt lat="50.41941" lon="2.68217">
        <ele>130.7</ele>
      </trkpt>
      <trkpt lat="50.41932" lon="2.68227">
        <ele>130.1</ele>
      </trkpt>
      <trkpt lat="50.41843" lon="2.68279">
        <ele>123.9</ele>
      </trkpt>
      <trkpt lat="50.41784" lon="2.68356">
        <ele>120.3</ele>
      </trkpt>
      <trkpt lat="50.41745" lon="2.68413">
        <ele>119</ele>
      </trkpt>
      <trkpt lat="50.41704" lon="2.68437">
        <ele>118.5</ele>
      </trkpt>
      <trkpt lat="50.41655" lon="2.68456">
        <ele>118.1</ele>
      </trkpt>
      <trkpt lat="50.41626" lon="2.68468">
        <ele>118.2</ele>
      </trkpt>
      <trkpt lat="50.41584" lon="2.6848">
        <ele>118.7</ele>
      </trkpt>
      <trkpt lat="50.41536" lon="2.68496">
        <ele>120.7</ele>
      </trkpt>
      <trkpt lat="50.41518" lon="2.68514">
        <ele>121.3</ele>
      </trkpt>
      <trkpt lat="50.41502" lon="2.68518">
        <ele>121.7</ele>
      </trkpt>
      <trkpt lat="50.41477" lon="2.68509">
        <ele>122.2</ele>
      </trkpt>
      <trkpt lat="50.41448" lon="2.68496">
        <ele>122.6</ele>
      </trkpt>
      <trkpt lat="50.41433" lon="2.68488">
        <ele>122.7</ele>
      </trkpt>
      <trkpt lat="50.41333" lon="2.68462">
        <ele>129.3</ele>
      </trkpt>
      <trkpt lat="50.41306" lon="2.68458">
        <ele>135.1</ele>
      </trkpt>
      <trkpt lat="50.41273" lon="2.68457">
        <ele>142</ele>
      </trkpt>
      <trkpt lat="50.41255" lon="2.6846">
        <ele>145.2</ele>
      </trkpt>
      <trkpt lat="50.41233" lon="2.68489">
        <ele>147.1</ele>
      </trkpt>
      <trkpt lat="50.41185" lon="2.68589">
        <ele>151.7</ele>
      </trkpt>
      <trkpt lat="50.41145" lon="2.68709">
        <ele>148.7</ele>
      </trkpt>
      <trkpt lat="50.41102" lon="2.68774">
        <ele>156.3</ele>
      </trkpt>
      <trkpt lat="50.41068" lon="2.6882">
        <ele>161.1</ele>
      </trkpt>
      <trkpt lat="50.41029" lon="2.6885">
        <ele>169.6</ele>
      </trkpt>
      <trkpt lat="50.41011" lon="2.68853">
        <ele>174.7</ele>
      </trkpt>
      <trkpt lat="50.40988" lon="2.68847">
        <ele>180</ele>
      </trkpt>
      <trkpt lat="50.4098" lon="2.6885">
        <ele>180.6</ele>
      </trkpt>
      <trkpt lat="50.40997" lon="2.68868">
        <ele>177</ele>
      </trkpt>
      <trkpt lat="50.40994" lon="2.68927">
        <ele>172</ele>
      </trkpt>
      <trkpt lat="50.4098" lon="2.69075">
        <ele>159</ele>
      </trkpt>
      <trkpt lat="50.40989" lon="2.6911">
        <ele>151.9</ele>
      </trkpt>
      <trkpt lat="50.40994" lon="2.69127">
        <ele>148.2</ele>
      </trkpt>
      <trkpt lat="50.40902" lon="2.69446">
        <ele>153.9</ele>
      </trkpt>
      <trkpt lat="50.40849" lon="2.69696">
        <ele>158</ele>
      </trkpt>
      <trkpt lat="50.40831" lon="2.69784">
        <ele>156.4</ele>
      </trkpt>
      <trkpt lat="50.40756" lon="2.70164">
        <ele>156</ele>
      </trkpt>
      <trkpt lat="50.40722" lon="2.70288">
        <ele>156.7</ele>
      </trkpt>
      <trkpt lat="50.40723" lon="2.70283">
        <ele>156.8</ele>
      </trkpt>
      <trkpt lat="50.40721" lon="2.70294">
        <ele>156.5</ele>
      </trkpt>
      <trkpt lat="50.4068" lon="2.70443">
        <ele>152.8</ele>
      </trkpt>
      <trkpt lat="50.40685" lon="2.70458">
        <ele>150.1</ele>
      </trkpt>
      <trkpt lat="50.4054" lon="2.70956">
        <ele>157.8</ele>
      </trkpt>
      <trkpt lat="50.40536" lon="2.70945">
        <ele>159.1</ele>
      </trkpt>
      <trkpt lat="50.40494" lon="2.7085">
        <ele>172</ele>
      </trkpt>
      <trkpt lat="50.40491" lon="2.70772">
        <ele>174.7</ele>
      </trkpt>
      <trkpt lat="50.40473" lon="2.70716">
        <ele>177.7</ele>
      </trkpt>
      <trkpt lat="50.40451" lon="2.70664">
        <ele>180.4</ele>
      </trkpt>
      <trkpt lat="50.40278" lon="2.70604">
        <ele>180.9</ele>
      </trkpt>
      <trkpt lat="50.40268" lon="2.70601">
        <ele>180.7</ele>
      </trkpt>
      <trkpt lat="50.40269" lon="2.70589">
        <ele>180.5</ele>
      </trkpt>
      <trkpt lat="50.4027" lon="2.70578">
        <ele>180.4</ele>
      </trkpt>
      <trkpt lat="50.40273" lon="2.70552">
        <ele>180.3</ele>
      </trkpt>
      <trkpt lat="50.40283" lon="2.70504">
        <ele>180.2</ele>
      </trkpt>
      <trkpt lat="50.40286" lon="2.70479">
        <ele>180.1</ele>
      </trkpt>
      <trkpt lat="50.40283" lon="2.70406">
        <ele>179.2</ele>
      </trkpt>
      <trkpt lat="50.40284" lon="2.70384">
        <ele>179</ele>
      </trkpt>
      <trkpt lat="50.40288" lon="2.70354">
        <ele>178.9</ele>
      </trkpt>
      <trkpt lat="50.40298" lon="2.70296">
        <ele>179.2</ele>
      </trkpt>
      <trkpt lat="50.4031" lon="2.70156">
        <ele>180.4</ele>
      </trkpt>
      <trkpt lat="50.40312" lon="2.70125">
        <ele>182.3</ele>
      </trkpt>
      <trkpt lat="50.40331" lon="2.70032">
        <ele>188.4</ele>
      </trkpt>
      <trkpt lat="50.4039" lon="2.69699">
        <ele>183.1</ele>
      </trkpt>
      <trkpt lat="50.40386" lon="2.69701">
        <ele>182.9</ele>
      </trkpt>
      <trkpt lat="50.4039" lon="2.69699">
        <ele>183.1</ele>
      </trkpt>
      <trkpt lat="50.40502" lon="2.69626">
        <ele>188.2</ele>
      </trkpt>
      <trkpt lat="50.40648" lon="2.69519">
        <ele>197.7</ele>
      </trkpt>
      <trkpt lat="50.40663" lon="2.6949">
        <ele>198.5</ele>
      </trkpt>
      <trkpt lat="50.40683" lon="2.69361">
        <ele>195.5</ele>
      </trkpt>
      <trkpt lat="50.40705" lon="2.69152">
        <ele>190.3</ele>
      </trkpt>
      <trkpt lat="50.40759" lon="2.69005">
        <ele>188.8</ele>
      </trkpt>
      <trkpt lat="50.40769" lon="2.6898">
        <ele>188.5</ele>
      </trkpt>
      <trkpt lat="50.40782" lon="2.68963">
        <ele>188.3</ele>
      </trkpt>
      <trkpt lat="50.40886" lon="2.68857">
        <ele>188.5</ele>
      </trkpt>
      <trkpt lat="50.40892" lon="2.68851">
        <ele>188.5</ele>
      </trkpt>
      <trkpt lat="50.40896" lon="2.68856">
        <ele>188.2</ele>
      </trkpt>
      <trkpt lat="50.409" lon="2.68857">
        <ele>188.1</ele>
        <time>2017-09-03T10:03:33Z</time>
      </trkpt>
      <trkpt lat="50.409" lon="2.68857">
        <ele>188.1</ele>
        <time>2017-09-03T10:03:33Z</time>
      </trkpt>
      <trkpt lat="50.40906" lon="2.68844">
        <ele>183.36376212</ele>
        <time>2017-09-03T10:03:37Z</time>
      </trkpt>
      <trkpt lat="50.40915" lon="2.68819">
        <ele>183.3634078</ele>
        <time>2017-09-03T10:03:41Z</time>
      </trkpt>
      <trkpt lat="50.40921" lon="2.68795">
        <ele>186.36317052</ele>
        <time>2017-09-03T10:03:45Z</time>
      </trkpt>
      <trkpt lat="50.40929" lon="2.68766">
        <ele>187.36283164</ele>
        <time>2017-09-03T10:03:50Z</time>
      </trkpt>
      <trkpt lat="50.40938" lon="2.68742">
        <ele>191.36247844</ele>
        <time>2017-09-03T10:03:54Z</time>
      </trkpt>
      <trkpt lat="50.40948" lon="2.68715">
        <ele>189.3620714</ele>
        <time>2017-09-03T10:03:58Z</time>
      </trkpt>
      <trkpt lat="50.40959" lon="2.68691">
        <ele>186.36166104</ele>
        <time>2017-09-03T10:04:02Z</time>
      </trkpt>
      <trkpt lat="50.40969" lon="2.68667">
        <ele>189.36124088</ele>
        <time>2017-09-03T10:04:06Z</time>
      </trkpt>
      <trkpt lat="50.40977" lon="2.6863">
        <ele>184.36090564</ele>
        <time>2017-09-03T10:04:11Z</time>
      </trkpt>
      <trkpt lat="50.40986" lon="2.686">
        <ele>183.3605454</ele>
        <time>2017-09-03T10:04:15Z</time>
      </trkpt>
      <trkpt lat="50.41" lon="2.68566">
        <ele>178.3599838</ele>
        <time>2017-09-03T10:04:20Z</time>
      </trkpt>
      <trkpt lat="50.41012" lon="2.68543">
        <ele>178.3595352</ele>
        <time>2017-09-03T10:04:24Z</time>
      </trkpt>
      <trkpt lat="50.41021" lon="2.6851">
        <ele>183.35917572</ele>
        <time>2017-09-03T10:04:29Z</time>
      </trkpt>
      <trkpt lat="50.4103" lon="2.68483">
        <ele>185.35881228</ele>
        <time>2017-09-03T10:04:33Z</time>
      </trkpt>
      <trkpt lat="50.41045" lon="2.68452">
        <ele>185.35822044</ele>
        <time>2017-09-03T10:04:38Z</time>
      </trkpt>
      <trkpt lat="50.41054" lon="2.68433">
        <ele>185.3578582</ele>
        <time>2017-09-03T10:04:41Z</time>
      </trkpt>
      <trkpt lat="50.41061" lon="2.68407">
        <ele>190.35757296</ele>
        <time>2017-09-03T10:04:46Z</time>
      </trkpt>
      <trkpt lat="50.41071" lon="2.68384">
        <ele>191.35714716</ele>
        <time>2017-09-03T10:04:51Z</time>
      </trkpt>
      <trkpt lat="50.41079" lon="2.68349">
        <ele>183.35685236</ele>
        <time>2017-09-03T10:04:56Z</time>
      </trkpt>
      <trkpt lat="50.41089" lon="2.68326">
        <ele>182.35643468</ele>
        <time>2017-09-03T10:05:00Z</time>
      </trkpt>
      <trkpt lat="50.41097" lon="2.68308">
        <ele>182.3561328</ele>
        <time>2017-09-03T10:05:03Z</time>
      </trkpt>
      <trkpt lat="50.41109" lon="2.68282">
        <ele>182.35563804</ele>
        <time>2017-09-03T10:05:07Z</time>
      </trkpt>
      <trkpt lat="50.41121" lon="2.68263">
        <ele>182.35515788</ele>
        <time>2017-09-03T10:05:11Z</time>
      </trkpt>
      <trkpt lat="50.41135" lon="2.68232">
        <ele>180.35459668</ele>
        <time>2017-09-03T10:05:15Z</time>
      </trkpt>
      <trkpt lat="50.41147" lon="2.68212">
        <ele>184.35412452</ele>
        <time>2017-09-03T10:05:20Z</time>
      </trkpt>
      <trkpt lat="50.41159" lon="2.6819">
        <ele>184.35362808</ele>
        <time>2017-09-03T10:05:24Z</time>
      </trkpt>
      <trkpt lat="50.4117" lon="2.68162">
        <ele>184.35318484</ele>
        <time>2017-09-03T10:05:29Z</time>
      </trkpt>
      <trkpt lat="50.41182" lon="2.68145">
        <ele>183.35273896</ele>
        <time>2017-09-03T10:05:33Z</time>
      </trkpt>
      <trkpt lat="50.41199" lon="2.68119">
        <ele>183.3520436</ele>
        <time>2017-09-03T10:05:38Z</time>
      </trkpt>
      <trkpt lat="50.41212" lon="2.68104">
        <ele>189.3515094</ele>
        <time>2017-09-03T10:05:42Z</time>
      </trkpt>
      <trkpt lat="50.41228" lon="2.6808">
        <ele>193.35089724</ele>
        <time>2017-09-03T10:05:47Z</time>
      </trkpt>
      <trkpt lat="50.41245" lon="2.68051">
        <ele>189.35019848</ele>
        <time>2017-09-03T10:05:52Z</time>
      </trkpt>
      <trkpt lat="50.4126" lon="2.6803">
        <ele>188.34962068</ele>
        <time>2017-09-03T10:05:56Z</time>
      </trkpt>
      <trkpt lat="50.41271" lon="2.68009">
        <ele>186.34915652</ele>
        <time>2017-09-03T10:06:00Z</time>
      </trkpt>
      <trkpt lat="50.41286" lon="2.67977">
        <ele>184.3485786</ele>
        <time>2017-09-03T10:06:04Z</time>
      </trkpt>
      <trkpt lat="50.413" lon="2.67948">
        <ele>178.34800532</ele>
        <time>2017-09-03T10:06:08Z</time>
      </trkpt>
      <trkpt lat="50.41309" lon="2.67929">
        <ele>179.34763824</ele>
        <time>2017-09-03T10:06:12Z</time>
      </trkpt>
      <trkpt lat="50.41322" lon="2.67909">
        <ele>180.34711296</ele>
        <time>2017-09-03T10:06:16Z</time>
      </trkpt>
      <trkpt lat="50.41342" lon="2.67886">
        <ele>179.34630516</ele>
        <time>2017-09-03T10:06:21Z</time>
      </trkpt>
      <trkpt lat="50.4135" lon="2.67859">
        <ele>176.34598264</ele>
        <time>2017-09-03T10:06:25Z</time>
      </trkpt>
      <trkpt lat="50.41363" lon="2.6783">
        <ele>174.34548088</ele>
        <time>2017-09-03T10:06:29Z</time>
      </trkpt>
      <trkpt lat="50.41377" lon="2.67798">
        <ele>174.34492504</ele>
        <time>2017-09-03T10:06:34Z</time>
      </trkpt>
      <trkpt lat="50.41373" lon="2.67759">
        <ele>181.34507524</ele>
        <time>2017-09-03T10:06:39Z</time>
      </trkpt>
      <trkpt lat="50.41364" lon="2.6774">
        <ele>182.34544208</ele>
        <time>2017-09-03T10:06:42Z</time>
      </trkpt>
      <trkpt lat="50.41345" lon="2.67712">
        <ele>177.34619224</ele>
        <time>2017-09-03T10:06:47Z</time>
      </trkpt>
      <trkpt lat="50.41324" lon="2.67685">
        <ele>177.34704872</ele>
        <time>2017-09-03T10:06:52Z</time>
      </trkpt>
      <trkpt lat="50.41308" lon="2.67655">
        <ele>179.34769992</ele>
        <time>2017-09-03T10:06:57Z</time>
      </trkpt>
      <trkpt lat="50.41285" lon="2.67626">
        <ele>182.34860212</ele>
        <time>2017-09-03T10:07:01Z</time>
      </trkpt>
      <trkpt lat="50.41264" lon="2.67609">
        <ele>181.34943612</ele>
        <time>2017-09-03T10:07:05Z</time>
      </trkpt>
      <trkpt lat="50.41243" lon="2.67582">
        <ele>179.3502958</ele>
        <time>2017-09-03T10:07:10Z</time>
      </trkpt>
      <trkpt lat="50.4124" lon="2.67557">
        <ele>176.35038312</ele>
        <time>2017-09-03T10:07:14Z</time>
      </trkpt>
      <trkpt lat="50.41255" lon="2.67534">
        <ele>175.34981704</ele>
        <time>2017-09-03T10:07:19Z</time>
      </trkpt>
      <trkpt lat="50.41272" lon="2.67502">
        <ele>174.34912988</ele>
        <time>2017-09-03T10:07:24Z</time>
      </trkpt>
      <trkpt lat="50.41286" lon="2.67478">
        <ele>171.34855052</ele>
        <time>2017-09-03T10:07:28Z</time>
      </trkpt>
      <trkpt lat="50.41307" lon="2.67452">
        <ele>169.34772304</ele>
        <time>2017-09-03T10:07:33Z</time>
      </trkpt>
      <trkpt lat="50.41323" lon="2.6743">
        <ele>168.34710144</ele>
        <time>2017-09-03T10:07:37Z</time>
      </trkpt>
      <trkpt lat="50.41343" lon="2.67406">
        <ele>169.34629344</ele>
        <time>2017-09-03T10:07:42Z</time>
      </trkpt>
      <trkpt lat="50.4136" lon="2.67393">
        <ele>172.34559808</ele>
        <time>2017-09-03T10:07:46Z</time>
      </trkpt>
      <trkpt lat="50.4138" lon="2.67383">
        <ele>171.34478312</ele>
        <time>2017-09-03T10:07:50Z</time>
      </trkpt>
      <trkpt lat="50.41396" lon="2.6735">
        <ele>170.34416032</ele>
        <time>2017-09-03T10:07:55Z</time>
      </trkpt>
      <trkpt lat="50.41405" lon="2.67321">
        <ele>173.34381732</ele>
        <time>2017-09-03T10:07:59Z</time>
      </trkpt>
      <trkpt lat="50.41415" lon="2.67297">
        <ele>173.34340624</ele>
        <time>2017-09-03T10:08:02Z</time>
      </trkpt>
      <trkpt lat="50.41428" lon="2.67278">
        <ele>174.34287596</ele>
        <time>2017-09-03T10:08:07Z</time>
      </trkpt>
      <trkpt lat="50.41442" lon="2.67259">
        <ele>175.34230832</ele>
        <time>2017-09-03T10:08:11Z</time>
      </trkpt>
      <trkpt lat="50.4146" lon="2.67238">
        <ele>176.3415832</ele>
        <time>2017-09-03T10:08:16Z</time>
      </trkpt>
      <trkpt lat="50.41473" lon="2.67216">
        <ele>179.34108128</ele>
        <time>2017-09-03T10:08:20Z</time>
      </trkpt>
      <trkpt lat="50.41486" lon="2.67194">
        <ele>178.34055792</ele>
        <time>2017-09-03T10:08:24Z</time>
      </trkpt>
      <trkpt lat="50.41498" lon="2.67172">
        <ele>178.34006508</ele>
        <time>2017-09-03T10:08:28Z</time>
      </trkpt>
      <trkpt lat="50.41511" lon="2.67148">
        <ele>179.33955672</ele>
        <time>2017-09-03T10:08:32Z</time>
      </trkpt>
      <trkpt lat="50.41524" lon="2.67117">
        <ele>179.33902296</ele>
        <time>2017-09-03T10:08:36Z</time>
      </trkpt>
      <trkpt lat="50.41534" lon="2.6709">
        <ele>181.33864496</ele>
        <time>2017-09-03T10:08:40Z</time>
      </trkpt>
      <trkpt lat="50.41543" lon="2.6706">
        <ele>181.3382638</ele>
        <time>2017-09-03T10:08:45Z</time>
      </trkpt>
      <trkpt lat="50.41555" lon="2.67025">
        <ele>182.33781148</ele>
        <time>2017-09-03T10:08:50Z</time>
      </trkpt>
      <trkpt lat="50.41565" lon="2.6699">
        <ele>182.33739308</ele>
        <time>2017-09-03T10:08:55Z</time>
      </trkpt>
      <trkpt lat="50.41575" lon="2.66961">
        <ele>182.33699524</ele>
        <time>2017-09-03T10:08:59Z</time>
      </trkpt>
      <trkpt lat="50.41589" lon="2.66925">
        <ele>183.33644384</ele>
        <time>2017-09-03T10:09:04Z</time>
      </trkpt>
      <trkpt lat="50.41601" lon="2.66898">
        <ele>183.33595752</ele>
        <time>2017-09-03T10:09:08Z</time>
      </trkpt>
      <trkpt lat="50.41612" lon="2.66869">
        <ele>184.33552096</ele>
        <time>2017-09-03T10:09:12Z</time>
      </trkpt>
      <trkpt lat="50.41627" lon="2.66834">
        <ele>184.33492496</ele>
        <time>2017-09-03T10:09:16Z</time>
      </trkpt>
      <trkpt lat="50.4164" lon="2.66807">
        <ele>185.33441408</ele>
        <time>2017-09-03T10:09:21Z</time>
      </trkpt>
      <trkpt lat="50.41653" lon="2.6678">
        <ele>184.33389748</ele>
        <time>2017-09-03T10:09:25Z</time>
      </trkpt>
      <trkpt lat="50.41665" lon="2.66751">
        <ele>184.33341004</ele>
        <time>2017-09-03T10:09:29Z</time>
      </trkpt>
      <trkpt lat="50.41678" lon="2.66714">
        <ele>185.33286596</ele>
        <time>2017-09-03T10:09:34Z</time>
      </trkpt>
      <trkpt lat="50.41685" lon="2.66682">
        <ele>186.33259264</ele>
        <time>2017-09-03T10:09:38Z</time>
      </trkpt>
      <trkpt lat="50.41693" lon="2.6664">
        <ele>187.33228328</ele>
        <time>2017-09-03T10:09:43Z</time>
      </trkpt>
      <trkpt lat="50.417" lon="2.66606">
        <ele>187.33200792</ele>
        <time>2017-09-03T10:09:46Z</time>
      </trkpt>
      <trkpt lat="50.41707" lon="2.66572">
        <ele>186.33172608</ele>
        <time>2017-09-03T10:09:51Z</time>
      </trkpt>
      <trkpt lat="50.41714" lon="2.6653">
        <ele>186.33145872</ele>
        <time>2017-09-03T10:09:56Z</time>
      </trkpt>
      <trkpt lat="50.41719" lon="2.66497">
        <ele>187.33123176</ele>
        <time>2017-09-03T10:10:00Z</time>
      </trkpt>
      <trkpt lat="50.41725" lon="2.66464">
        <ele>187.33102196</ele>
        <time>2017-09-03T10:10:04Z</time>
      </trkpt>
      <trkpt lat="50.41733" lon="2.66423">
        <ele>186.33069648</ele>
        <time>2017-09-03T10:10:09Z</time>
      </trkpt>
      <trkpt lat="50.41742" lon="2.66383">
        <ele>186.33033328</ele>
        <time>2017-09-03T10:10:14Z</time>
      </trkpt>
      <trkpt lat="50.41754" lon="2.66345">
        <ele>187.32986104</ele>
        <time>2017-09-03T10:10:19Z</time>
      </trkpt>
      <trkpt lat="50.41767" lon="2.66306">
        <ele>187.32932692</ele>
        <time>2017-09-03T10:10:24Z</time>
      </trkpt>
      <trkpt lat="50.41777" lon="2.66276">
        <ele>187.32891732</ele>
        <time>2017-09-03T10:10:28Z</time>
      </trkpt>
      <trkpt lat="50.41793" lon="2.6624">
        <ele>185.32827344</ele>
        <time>2017-09-03T10:10:33Z</time>
      </trkpt>
      <trkpt lat="50.41805" lon="2.66212">
        <ele>185.3277868</ele>
        <time>2017-09-03T10:10:37Z</time>
      </trkpt>
      <trkpt lat="50.41807" lon="2.66187">
        <ele>186.32770464</ele>
        <time>2017-09-03T10:10:42Z</time>
      </trkpt>
      <trkpt lat="50.41788" lon="2.66178">
        <ele>188.32846472</ele>
        <time>2017-09-03T10:10:47Z</time>
      </trkpt>
      <trkpt lat="50.41766" lon="2.66168">
        <ele>186.32937108</ele>
        <time>2017-09-03T10:10:52Z</time>
      </trkpt>
      <trkpt lat="50.41741" lon="2.66156">
        <ele>185.33036688</ele>
        <time>2017-09-03T10:10:57Z</time>
      </trkpt>
      <trkpt lat="50.4172" lon="2.66146">
        <ele>184.3311894</ele>
        <time>2017-09-03T10:11:01Z</time>
      </trkpt>
      <trkpt lat="50.41695" lon="2.66135">
        <ele>182.33221504</ele>
        <time>2017-09-03T10:11:06Z</time>
      </trkpt>
      <trkpt lat="50.41669" lon="2.66123">
        <ele>181.33325668</ele>
        <time>2017-09-03T10:11:11Z</time>
      </trkpt>
      <trkpt lat="50.41641" lon="2.6611">
        <ele>181.33434492</ele>
        <time>2017-09-03T10:11:15Z</time>
      </trkpt>
      <trkpt lat="50.41618" lon="2.661">
        <ele>179.3352798</ele>
        <time>2017-09-03T10:11:20Z</time>
      </trkpt>
      <trkpt lat="50.41589" lon="2.66088">
        <ele>176.3364526</ele>
        <time>2017-09-03T10:11:25Z</time>
      </trkpt>
      <trkpt lat="50.41566" lon="2.66075">
        <ele>175.33736244</ele>
        <time>2017-09-03T10:11:29Z</time>
      </trkpt>
      <trkpt lat="50.41538" lon="2.66056">
        <ele>172.33846336</ele>
        <time>2017-09-03T10:11:34Z</time>
      </trkpt>
      <trkpt lat="50.41516" lon="2.66039">
        <ele>171.33936844</ele>
        <time>2017-09-03T10:11:38Z</time>
      </trkpt>
      <trkpt lat="50.41497" lon="2.66022">
        <ele>169.34012188</ele>
        <time>2017-09-03T10:11:42Z</time>
      </trkpt>
      <trkpt lat="50.41478" lon="2.66001">
        <ele>169.34089348</ele>
        <time>2017-09-03T10:11:46Z</time>
      </trkpt>
      <trkpt lat="50.41457" lon="2.65981">
        <ele>168.3417116</ele>
        <time>2017-09-03T10:11:50Z</time>
      </trkpt>
      <trkpt lat="50.41433" lon="2.65956">
        <ele>166.3426672</ele>
        <time>2017-09-03T10:11:55Z</time>
      </trkpt>
      <trkpt lat="50.41414" lon="2.65936">
        <ele>165.34342644</ele>
        <time>2017-09-03T10:11:59Z</time>
      </trkpt>
      <trkpt lat="50.41394" lon="2.65915">
        <ele>163.3442318</ele>
        <time>2017-09-03T10:12:03Z</time>
      </trkpt>
      <trkpt lat="50.41375" lon="2.65895">
        <ele>163.34501572</ele>
        <time>2017-09-03T10:12:07Z</time>
      </trkpt>
      <trkpt lat="50.41351" lon="2.65866">
        <ele>161.34595036</ele>
        <time>2017-09-03T10:12:12Z</time>
      </trkpt>
      <trkpt lat="50.41328" lon="2.65834">
        <ele>159.34687248</ele>
        <time>2017-09-03T10:12:17Z</time>
      </trkpt>
      <trkpt lat="50.41312" lon="2.65807">
        <ele>159.34750588</ele>
        <time>2017-09-03T10:12:21Z</time>
      </trkpt>
      <trkpt lat="50.41292" lon="2.6577">
        <ele>160.34831236</ele>
        <time>2017-09-03T10:12:26Z</time>
      </trkpt>
      <trkpt lat="50.41274" lon="2.65747">
        <ele>159.3490276</ele>
        <time>2017-09-03T10:12:30Z</time>
      </trkpt>
      <trkpt lat="50.41253" lon="2.65725">
        <ele>158.34986444</ele>
        <time>2017-09-03T10:12:34Z</time>
      </trkpt>
      <trkpt lat="50.41229" lon="2.65701">
        <ele>157.35085596</ele>
        <time>2017-09-03T10:12:39Z</time>
      </trkpt>
      <trkpt lat="50.41211" lon="2.65685">
        <ele>155.3515624</ele>
        <time>2017-09-03T10:12:44Z</time>
      </trkpt>
      <trkpt lat="50.412" lon="2.65676">
        <ele>154.35200072</ele>
        <time>2017-09-03T10:12:48Z</time>
      </trkpt>
      <trkpt lat="50.41188" lon="2.65665">
        <ele>153.35246264</ele>
        <time>2017-09-03T10:12:52Z</time>
      </trkpt>
      <trkpt lat="50.41179" lon="2.65654">
        <ele>153.35284936</ele>
        <time>2017-09-03T10:12:55Z</time>
      </trkpt>
      <trkpt lat="50.41162" lon="2.65635">
        <ele>152.35352204</ele>
        <time>2017-09-03T10:13:00Z</time>
      </trkpt>
      <trkpt lat="50.4114" lon="2.65615">
        <ele>151.3544148</ele>
        <time>2017-09-03T10:13:05Z</time>
      </trkpt>
      <trkpt lat="50.41122" lon="2.65599">
        <ele>152.35510292</ele>
        <time>2017-09-03T10:13:09Z</time>
      </trkpt>
      <trkpt lat="50.41105" lon="2.65584">
        <ele>150.3558064</ele>
        <time>2017-09-03T10:13:13Z</time>
      </trkpt>
      <trkpt lat="50.41084" lon="2.65565">
        <ele>148.35663868</ele>
        <time>2017-09-03T10:13:17Z</time>
      </trkpt>
      <trkpt lat="50.41069" lon="2.65549">
        <ele>148.3572534</ele>
        <time>2017-09-03T10:13:22Z</time>
      </trkpt>
      <trkpt lat="50.41049" lon="2.6552">
        <ele>147.35803672</ele>
        <time>2017-09-03T10:13:26Z</time>
      </trkpt>
      <trkpt lat="50.41035" lon="2.65496">
        <ele>147.35861628</ele>
        <time>2017-09-03T10:13:31Z</time>
      </trkpt>
      <trkpt lat="50.41022" lon="2.65474">
        <ele>147.35914056</ele>
        <time>2017-09-03T10:13:35Z</time>
      </trkpt>
      <trkpt lat="50.41006" lon="2.65444">
        <ele>146.35977152</ele>
        <time>2017-09-03T10:13:40Z</time>
      </trkpt>
      <trkpt lat="50.40992" lon="2.65412">
        <ele>146.36033164</ele>
        <time>2017-09-03T10:13:45Z</time>
      </trkpt>
      <trkpt lat="50.40981" lon="2.65387">
        <ele>146.360775</ele>
        <time>2017-09-03T10:13:49Z</time>
      </trkpt>
      <trkpt lat="50.40968" lon="2.65375">
        <ele>146.36129332</ele>
        <time>2017-09-03T10:13:53Z</time>
      </trkpt>
      <trkpt lat="50.40956" lon="2.65361">
        <ele>146.36177332</ele>
        <time>2017-09-03T10:13:57Z</time>
      </trkpt>
      <trkpt lat="50.40944" lon="2.65345">
        <ele>146.36223028</ele>
        <time>2017-09-03T10:14:01Z</time>
      </trkpt>
      <trkpt lat="50.40934" lon="2.65326">
        <ele>146.3626312</ele>
        <time>2017-09-03T10:14:05Z</time>
      </trkpt>
      <trkpt lat="50.40921" lon="2.65308">
        <ele>146.36315632</ele>
        <time>2017-09-03T10:14:10Z</time>
      </trkpt>
      <trkpt lat="50.40909" lon="2.65295">
        <ele>147.36362972</ele>
        <time>2017-09-03T10:14:14Z</time>
      </trkpt>
      <trkpt lat="50.40885" lon="2.65274">
        <ele>146.36461136</ele>
        <time>2017-09-03T10:14:18Z</time>
      </trkpt>
      <trkpt lat="50.40866" lon="2.65258">
        <ele>145.36535864</ele>
        <time>2017-09-03T10:14:23Z</time>
      </trkpt>
      <trkpt lat="50.40849" lon="2.65233">
        <ele>145.36604732</ele>
        <time>2017-09-03T10:14:27Z</time>
      </trkpt>
      <trkpt lat="50.40835" lon="2.65215">
        <ele>146.36659648</ele>
        <time>2017-09-03T10:14:32Z</time>
      </trkpt>
      <trkpt lat="50.40817" lon="2.65193">
        <ele>147.36732996</ele>
        <time>2017-09-03T10:14:37Z</time>
      </trkpt>
      <trkpt lat="50.40797" lon="2.65171">
        <ele>148.36813832</ele>
        <time>2017-09-03T10:14:41Z</time>
      </trkpt>
      <trkpt lat="50.40779" lon="2.65156">
        <ele>148.3688436</ele>
        <time>2017-09-03T10:14:46Z</time>
      </trkpt>
      <trkpt lat="50.40761" lon="2.65143">
        <ele>149.36954892</ele>
        <time>2017-09-03T10:14:50Z</time>
      </trkpt>
      <trkpt lat="50.40743" lon="2.65133">
        <ele>150.3702808</ele>
        <time>2017-09-03T10:14:54Z</time>
      </trkpt>
      <trkpt lat="50.40725" lon="2.65121">
        <ele>151.37099848</ele>
        <time>2017-09-03T10:14:58Z</time>
      </trkpt>
      <trkpt lat="50.40709" lon="2.65103">
        <ele>152.37164608</ele>
        <time>2017-09-03T10:15:02Z</time>
      </trkpt>
      <trkpt lat="50.40699" lon="2.65087">
        <ele>152.37204756</ele>
        <time>2017-09-03T10:15:05Z</time>
      </trkpt>
      <trkpt lat="50.40681" lon="2.6506">
        <ele>153.37274776</ele>
        <time>2017-09-03T10:15:10Z</time>
      </trkpt>
      <trkpt lat="50.40663" lon="2.65037">
        <ele>154.37347048</ele>
        <time>2017-09-03T10:15:14Z</time>
      </trkpt>
      <trkpt lat="50.40647" lon="2.65022">
        <ele>154.3741102</ele>
        <time>2017-09-03T10:15:18Z</time>
      </trkpt>
      <trkpt lat="50.40633" lon="2.65007">
        <ele>156.37470132</ele>
        <time>2017-09-03T10:15:22Z</time>
      </trkpt>
      <trkpt lat="50.40618" lon="2.64993">
        <ele>155.37526872</ele>
        <time>2017-09-03T10:15:27Z</time>
      </trkpt>
      <trkpt lat="50.40603" lon="2.6498">
        <ele>156.3758908</ele>
        <time>2017-09-03T10:15:32Z</time>
      </trkpt>
      <trkpt lat="50.40585" lon="2.64965">
        <ele>157.37661084</ele>
        <time>2017-09-03T10:15:37Z</time>
      </trkpt>
      <trkpt lat="50.4057" lon="2.64955">
        <ele>155.37720356</ele>
        <time>2017-09-03T10:15:41Z</time>
      </trkpt>
      <trkpt lat="50.40554" lon="2.64949">
        <ele>155.37784888</ele>
        <time>2017-09-03T10:15:45Z</time>
      </trkpt>
      <trkpt lat="50.40533" lon="2.64947">
        <ele>153.3786884</ele>
        <time>2017-09-03T10:15:50Z</time>
      </trkpt>
      <trkpt lat="50.40517" lon="2.64944">
        <ele>153.379335</ele>
        <time>2017-09-03T10:15:54Z</time>
      </trkpt>
      <trkpt lat="50.40495" lon="2.64944">
        <ele>153.38021524</ele>
        <time>2017-09-03T10:15:59Z</time>
      </trkpt>
      <trkpt lat="50.40479" lon="2.64942">
        <ele>154.38082916</ele>
        <time>2017-09-03T10:16:03Z</time>
      </trkpt>
      <trkpt lat="50.40481" lon="2.64911">
        <ele>154.38077048</ele>
        <time>2017-09-03T10:16:08Z</time>
      </trkpt>
      <trkpt lat="50.40483" lon="2.64881">
        <ele>156.38069448</ele>
        <time>2017-09-03T10:16:12Z</time>
      </trkpt>
      <trkpt lat="50.40484" lon="2.64852">
        <ele>157.38064324</ele>
        <time>2017-09-03T10:16:16Z</time>
      </trkpt>
      <trkpt lat="50.40487" lon="2.64822">
        <ele>158.3805354</ele>
        <time>2017-09-03T10:16:20Z</time>
      </trkpt>
      <trkpt lat="50.40495" lon="2.64796">
        <ele>158.38020012</ele>
        <time>2017-09-03T10:16:24Z</time>
      </trkpt>
      <trkpt lat="50.40507" lon="2.64766">
        <ele>158.37972448</ele>
        <time>2017-09-03T10:16:29Z</time>
      </trkpt>
      <trkpt lat="50.40517" lon="2.6474">
        <ele>157.37933996</ele>
        <time>2017-09-03T10:16:33Z</time>
      </trkpt>
      <trkpt lat="50.40527" lon="2.64713">
        <ele>158.37893824</ele>
        <time>2017-09-03T10:16:37Z</time>
      </trkpt>
      <trkpt lat="50.40536" lon="2.64684">
        <ele>158.37855292</ele>
        <time>2017-09-03T10:16:41Z</time>
      </trkpt>
      <trkpt lat="50.40548" lon="2.64654">
        <ele>159.37810096</ele>
        <time>2017-09-03T10:16:45Z</time>
      </trkpt>
      <trkpt lat="50.4056" lon="2.64623">
        <ele>159.37760868</ele>
        <time>2017-09-03T10:16:49Z</time>
      </trkpt>
      <trkpt lat="50.40574" lon="2.64585">
        <ele>158.37704616</ele>
        <time>2017-09-03T10:16:54Z</time>
      </trkpt>
      <trkpt lat="50.40589" lon="2.6455">
        <ele>160.37643508</ele>
        <time>2017-09-03T10:16:59Z</time>
      </trkpt>
      <trkpt lat="50.40601" lon="2.64522">
        <ele>160.37597764</ele>
        <time>2017-09-03T10:17:03Z</time>
      </trkpt>
      <trkpt lat="50.40618" lon="2.64501">
        <ele>159.3752974</ele>
        <time>2017-09-03T10:17:07Z</time>
      </trkpt>
      <trkpt lat="50.40638" lon="2.64484">
        <ele>157.37448684</ele>
        <time>2017-09-03T10:17:11Z</time>
      </trkpt>
      <trkpt lat="50.40659" lon="2.64467">
        <ele>158.37364148</ele>
        <time>2017-09-03T10:17:15Z</time>
      </trkpt>
      <trkpt lat="50.40685" lon="2.64445">
        <ele>159.37261828</ele>
        <time>2017-09-03T10:17:19Z</time>
      </trkpt>
      <trkpt lat="50.40712" lon="2.64424">
        <ele>158.37152348</ele>
        <time>2017-09-03T10:17:24Z</time>
      </trkpt>
      <trkpt lat="50.40735" lon="2.6441">
        <ele>157.37059928</ele>
        <time>2017-09-03T10:17:29Z</time>
      </trkpt>
      <trkpt lat="50.40763" lon="2.64392">
        <ele>157.36947728</ele>
        <time>2017-09-03T10:17:34Z</time>
      </trkpt>
      <trkpt lat="50.40785" lon="2.64376">
        <ele>157.3686144</ele>
        <time>2017-09-03T10:17:38Z</time>
      </trkpt>
      <trkpt lat="50.40808" lon="2.64362">
        <ele>157.3676918</ele>
        <time>2017-09-03T10:17:42Z</time>
      </trkpt>
      <trkpt lat="50.40836" lon="2.64343">
        <ele>156.36654396</ele>
        <time>2017-09-03T10:17:47Z</time>
      </trkpt>
      <trkpt lat="50.40867" lon="2.64333">
        <ele>155.3653174</ele>
        <time>2017-09-03T10:17:52Z</time>
      </trkpt>
      <trkpt lat="50.40894" lon="2.6434">
        <ele>155.3642524</ele>
        <time>2017-09-03T10:17:56Z</time>
      </trkpt>
      <trkpt lat="50.40927" lon="2.64346">
        <ele>154.36290956</ele>
        <time>2017-09-03T10:18:01Z</time>
      </trkpt>
      <trkpt lat="50.40957" lon="2.64354">
        <ele>156.3617102</ele>
        <time>2017-09-03T10:18:06Z</time>
      </trkpt>
      <trkpt lat="50.40973" lon="2.64322">
        <ele>156.3610868</ele>
        <time>2017-09-03T10:18:10Z</time>
      </trkpt>
      <trkpt lat="50.40984" lon="2.64279">
        <ele>157.36063196</ele>
        <time>2017-09-03T10:18:14Z</time>
      </trkpt>
      <trkpt lat="50.40995" lon="2.64248">
        <ele>158.36022196</ele>
        <time>2017-09-03T10:18:19Z</time>
      </trkpt>
      <trkpt lat="50.41015" lon="2.64238">
        <ele>160.35940592</ele>
        <time>2017-09-03T10:18:24Z</time>
      </trkpt>
      <trkpt lat="50.41046" lon="2.64238">
        <ele>158.35817512</ele>
        <time>2017-09-03T10:18:28Z</time>
      </trkpt>
      <trkpt lat="50.41073" lon="2.64244">
        <ele>156.35709776</ele>
        <time>2017-09-03T10:18:33Z</time>
      </trkpt>
      <trkpt lat="50.41106" lon="2.6426">
        <ele>154.35575908</ele>
        <time>2017-09-03T10:18:38Z</time>
      </trkpt>
      <trkpt lat="50.4113" lon="2.64276">
        <ele>154.35478456</ele>
        <time>2017-09-03T10:18:42Z</time>
      </trkpt>
      <trkpt lat="50.41154" lon="2.64294">
        <ele>156.35383644</ele>
        <time>2017-09-03T10:18:46Z</time>
      </trkpt>
      <trkpt lat="50.41184" lon="2.64316">
        <ele>156.35263956</ele>
        <time>2017-09-03T10:18:50Z</time>
      </trkpt>
      <trkpt lat="50.41216" lon="2.64335">
        <ele>156.3513688</ele>
        <time>2017-09-03T10:18:55Z</time>
      </trkpt>
      <trkpt lat="50.41241" lon="2.64349">
        <ele>156.3503524</ele>
        <time>2017-09-03T10:18:59Z</time>
      </trkpt>
      <trkpt lat="50.41275" lon="2.64361">
        <ele>153.34900016</ele>
        <time>2017-09-03T10:19:04Z</time>
      </trkpt>
      <trkpt lat="50.41304" lon="2.64357">
        <ele>154.3478476</ele>
        <time>2017-09-03T10:19:08Z</time>
      </trkpt>
      <trkpt lat="50.41339" lon="2.64339">
        <ele>154.34642984</ele>
        <time>2017-09-03T10:19:13Z</time>
      </trkpt>
      <trkpt lat="50.41377" lon="2.64317">
        <ele>154.3449354</ele>
        <time>2017-09-03T10:19:18Z</time>
      </trkpt>
      <trkpt lat="50.41407" lon="2.64301">
        <ele>154.34372924</ele>
        <time>2017-09-03T10:19:22Z</time>
      </trkpt>
      <trkpt lat="50.41437" lon="2.64288">
        <ele>154.34253992</ele>
        <time>2017-09-03T10:19:26Z</time>
      </trkpt>
      <trkpt lat="50.41467" lon="2.64279">
        <ele>154.3413082</ele>
        <time>2017-09-03T10:19:30Z</time>
      </trkpt>
      <trkpt lat="50.41505" lon="2.64276">
        <ele>155.33981892</ele>
        <time>2017-09-03T10:19:35Z</time>
      </trkpt>
      <trkpt lat="50.41533" lon="2.64282">
        <ele>156.33866792</ele>
        <time>2017-09-03T10:19:39Z</time>
      </trkpt>
      <trkpt lat="50.41567" lon="2.64291">
        <ele>156.33730508</ele>
        <time>2017-09-03T10:19:44Z</time>
      </trkpt>
      <trkpt lat="50.41596" lon="2.64298">
        <ele>157.33617512</ele>
        <time>2017-09-03T10:19:48Z</time>
      </trkpt>
      <trkpt lat="50.41602" lon="2.64299">
        <ele>157.33590576</ele>
        <time>2017-09-03T10:19:49Z</time>
      </trkpt>
      <trkpt lat="50.41616" lon="2.64301">
        <ele>158.33538004</ele>
        <time>2017-09-03T10:19:54Z</time>
      </trkpt>
      <trkpt lat="50.41659" lon="2.64305">
        <ele>159.33364216</ele>
        <time>2017-09-03T10:19:59Z</time>
      </trkpt>
      <trkpt lat="50.41682" lon="2.64305">
        <ele>160.33272848</ele>
        <time>2017-09-03T10:20:03Z</time>
      </trkpt>
      <trkpt lat="50.41693" lon="2.64305">
        <ele>161.3322748</ele>
        <time>2017-09-03T10:20:08Z</time>
      </trkpt>
      <trkpt lat="50.41701" lon="2.64306">
        <ele>160.33196608</ele>
        <time>2017-09-03T10:20:11Z</time>
      </trkpt>
      <trkpt lat="50.41723" lon="2.64312">
        <ele>165.33110108</ele>
        <time>2017-09-03T10:20:16Z</time>
      </trkpt>
      <trkpt lat="50.41743" lon="2.64316">
        <ele>162.3302842</ele>
        <time>2017-09-03T10:20:20Z</time>
      </trkpt>
      <trkpt lat="50.41764" lon="2.64323">
        <ele>165.32942516</ele>
        <time>2017-09-03T10:20:25Z</time>
      </trkpt>
      <trkpt lat="50.41786" lon="2.64332">
        <ele>162.3285818</ele>
        <time>2017-09-03T10:20:29Z</time>
      </trkpt>
      <trkpt lat="50.41805" lon="2.6434">
        <ele>164.3277842</ele>
        <time>2017-09-03T10:20:33Z</time>
      </trkpt>
      <trkpt lat="50.41825" lon="2.64351">
        <ele>164.32700768</ele>
        <time>2017-09-03T10:20:37Z</time>
      </trkpt>
      <trkpt lat="50.41843" lon="2.64362">
        <ele>164.32628344</ele>
        <time>2017-09-03T10:20:41Z</time>
      </trkpt>
      <trkpt lat="50.41866" lon="2.64374">
        <ele>162.32537144</ele>
        <time>2017-09-03T10:20:46Z</time>
      </trkpt>
      <trkpt lat="50.41883" lon="2.64387">
        <ele>161.32467352</ele>
        <time>2017-09-03T10:20:50Z</time>
      </trkpt>
      <trkpt lat="50.41903" lon="2.64407">
        <ele>164.32389996</ele>
        <time>2017-09-03T10:20:55Z</time>
      </trkpt>
      <trkpt lat="50.41919" lon="2.64421">
        <ele>164.32324132</ele>
        <time>2017-09-03T10:20:59Z</time>
      </trkpt>
      <trkpt lat="50.4194" lon="2.64435">
        <ele>165.32239728</ele>
        <time>2017-09-03T10:21:04Z</time>
      </trkpt>
      <trkpt lat="50.41957" lon="2.64444">
        <ele>166.32172184</ele>
        <time>2017-09-03T10:21:08Z</time>
      </trkpt>
      <trkpt lat="50.4198" lon="2.64453">
        <ele>166.32078408</ele>
        <time>2017-09-03T10:21:12Z</time>
      </trkpt>
      <trkpt lat="50.41999" lon="2.64461">
        <ele>166.320026</ele>
        <time>2017-09-03T10:21:17Z</time>
      </trkpt>
      <trkpt lat="50.42024" lon="2.6447">
        <ele>167.31906036</ele>
        <time>2017-09-03T10:21:21Z</time>
      </trkpt>
      <trkpt lat="50.42043" lon="2.64477">
        <ele>167.31829716</ele>
        <time>2017-09-03T10:21:26Z</time>
      </trkpt>
      <trkpt lat="50.42061" lon="2.64483">
        <ele>169.3175444</ele>
        <time>2017-09-03T10:21:30Z</time>
      </trkpt>
      <trkpt lat="50.42085" lon="2.6449">
        <ele>169.3166212</ele>
        <time>2017-09-03T10:21:35Z</time>
      </trkpt>
      <trkpt lat="50.42102" lon="2.64497">
        <ele>170.31593268</ele>
        <time>2017-09-03T10:21:39Z</time>
      </trkpt>
      <trkpt lat="50.42118" lon="2.64507">
        <ele>172.31529752</ele>
        <time>2017-09-03T10:21:43Z</time>
      </trkpt>
      <trkpt lat="50.42136" lon="2.6452">
        <ele>172.31454588</ele>
        <time>2017-09-03T10:21:48Z</time>
      </trkpt>
      <trkpt lat="50.42155" lon="2.64534">
        <ele>173.31378212</ele>
        <time>2017-09-03T10:21:53Z</time>
      </trkpt>
      <trkpt lat="50.42174" lon="2.64548">
        <ele>173.31305604</ele>
        <time>2017-09-03T10:21:58Z</time>
      </trkpt>
      <trkpt lat="50.42187" lon="2.64556">
        <ele>173.31251972</ele>
        <time>2017-09-03T10:22:02Z</time>
      </trkpt>
      <trkpt lat="50.42205" lon="2.64567">
        <ele>173.31178728</ele>
        <time>2017-09-03T10:22:07Z</time>
      </trkpt>
      <trkpt lat="50.42223" lon="2.64578">
        <ele>174.31107248</ele>
        <time>2017-09-03T10:22:12Z</time>
      </trkpt>
      <trkpt lat="50.42241" lon="2.64588">
        <ele>174.31035772</ele>
        <time>2017-09-03T10:22:17Z</time>
      </trkpt>
      <trkpt lat="50.42257" lon="2.64598">
        <ele>174.30973188</ele>
        <time>2017-09-03T10:22:21Z</time>
      </trkpt>
      <trkpt lat="50.42272" lon="2.64607">
        <ele>175.30910264</ele>
        <time>2017-09-03T10:22:25Z</time>
      </trkpt>
      <trkpt lat="50.42293" lon="2.64618">
        <ele>174.30829424</ele>
        <time>2017-09-03T10:22:30Z</time>
      </trkpt>
      <trkpt lat="50.4231" lon="2.64627">
        <ele>174.30761924</ele>
        <time>2017-09-03T10:22:34Z</time>
      </trkpt>
      <trkpt lat="50.42326" lon="2.64637">
        <ele>173.30696776</ele>
        <time>2017-09-03T10:22:38Z</time>
      </trkpt>
      <trkpt lat="50.42344" lon="2.64638">
        <ele>174.30622944</ele>
        <time>2017-09-03T10:22:43Z</time>
      </trkpt>
      <trkpt lat="50.42352" lon="2.6462">
        <ele>175.30593752</ele>
        <time>2017-09-03T10:22:47Z</time>
      </trkpt>
      <trkpt lat="50.42358" lon="2.64601">
        <ele>175.30570024</ele>
        <time>2017-09-03T10:22:51Z</time>
      </trkpt>
      <trkpt lat="50.42365" lon="2.64578">
        <ele>176.30539116</ele>
        <time>2017-09-03T10:22:55Z</time>
      </trkpt>
      <trkpt lat="50.42376" lon="2.64549">
        <ele>176.30496136</ele>
        <time>2017-09-03T10:23:00Z</time>
      </trkpt>
      <trkpt lat="50.42385" lon="2.64517">
        <ele>177.30460796</ele>
        <time>2017-09-03T10:23:05Z</time>
      </trkpt>
      <trkpt lat="50.42392" lon="2.64493">
        <ele>177.30431208</ele>
        <time>2017-09-03T10:23:09Z</time>
      </trkpt>
      <trkpt lat="50.42397" lon="2.64475">
        <ele>177.3041322</ele>
        <time>2017-09-03T10:23:14Z</time>
      </trkpt>
      <trkpt lat="50.42404" lon="2.64459">
        <ele>177.30383672</ele>
        <time>2017-09-03T10:23:18Z</time>
      </trkpt>
      <trkpt lat="50.42412" lon="2.64428">
        <ele>177.3035208</ele>
        <time>2017-09-03T10:23:22Z</time>
      </trkpt>
      <trkpt lat="50.42419" lon="2.64403">
        <ele>177.30322776</ele>
        <time>2017-09-03T10:23:27Z</time>
      </trkpt>
      <trkpt lat="50.42427" lon="2.64379">
        <ele>177.3029248</ele>
        <time>2017-09-03T10:23:31Z</time>
      </trkpt>
      <trkpt lat="50.42435" lon="2.64353">
        <ele>177.30259808</ele>
        <time>2017-09-03T10:23:35Z</time>
      </trkpt>
      <trkpt lat="50.42444" lon="2.6432">
        <ele>177.30222544</ele>
        <time>2017-09-03T10:23:39Z</time>
      </trkpt>
      <trkpt lat="50.42451" lon="2.64292">
        <ele>177.30196924</ele>
        <time>2017-09-03T10:23:44Z</time>
      </trkpt>
      <trkpt lat="50.42465" lon="2.64259">
        <ele>176.30140652</ele>
        <time>2017-09-03T10:23:49Z</time>
      </trkpt>
      <trkpt lat="50.42479" lon="2.64233">
        <ele>176.30082808</ele>
        <time>2017-09-03T10:23:54Z</time>
      </trkpt>
      <trkpt lat="50.42482" lon="2.64212">
        <ele>177.3007336</ele>
        <time>2017-09-03T10:23:58Z</time>
      </trkpt>
      <trkpt lat="50.42466" lon="2.64193">
        <ele>177.30136852</ele>
        <time>2017-09-03T10:24:03Z</time>
      </trkpt>
      <trkpt lat="50.4245" lon="2.64181">
        <ele>177.30199572</ele>
        <time>2017-09-03T10:24:07Z</time>
      </trkpt>
      <trkpt lat="50.4244" lon="2.64159">
        <ele>178.30240944</ele>
        <time>2017-09-03T10:24:11Z</time>
      </trkpt>
      <trkpt lat="50.42433" lon="2.64125">
        <ele>179.30267604</ele>
        <time>2017-09-03T10:24:16Z</time>
      </trkpt>
      <trkpt lat="50.42425" lon="2.64099">
        <ele>179.30298588</ele>
        <time>2017-09-03T10:24:20Z</time>
      </trkpt>
      <trkpt lat="50.42418" lon="2.64071">
        <ele>178.30329964</ele>
        <time>2017-09-03T10:24:24Z</time>
      </trkpt>
      <trkpt lat="50.42409" lon="2.64035">
        <ele>179.30365036</ele>
        <time>2017-09-03T10:24:29Z</time>
      </trkpt>
      <trkpt lat="50.42404" lon="2.64012">
        <ele>178.30385716</ele>
        <time>2017-09-03T10:24:33Z</time>
      </trkpt>
      <trkpt lat="50.42396" lon="2.63986">
        <ele>178.30415024</ele>
        <time>2017-09-03T10:24:37Z</time>
      </trkpt>
      <trkpt lat="50.42388" lon="2.63952">
        <ele>178.3044846</ele>
        <time>2017-09-03T10:24:41Z</time>
      </trkpt>
      <trkpt lat="50.4238" lon="2.63925">
        <ele>178.30479504</ele>
        <time>2017-09-03T10:24:45Z</time>
      </trkpt>
      <trkpt lat="50.42373" lon="2.63897">
        <ele>177.3050628</ele>
        <time>2017-09-03T10:24:50Z</time>
      </trkpt>
      <trkpt lat="50.42366" lon="2.6387">
        <ele>177.3053736</ele>
        <time>2017-09-03T10:24:54Z</time>
      </trkpt>
      <trkpt lat="50.42357" lon="2.63835">
        <ele>177.305726</ele>
        <time>2017-09-03T10:24:59Z</time>
      </trkpt>
      <trkpt lat="50.4235" lon="2.63806">
        <ele>177.30599216</ele>
        <time>2017-09-03T10:25:03Z</time>
      </trkpt>
      <trkpt lat="50.42349" lon="2.63772">
        <ele>176.3060394</ele>
        <time>2017-09-03T10:25:07Z</time>
      </trkpt>
      <trkpt lat="50.42347" lon="2.63728">
        <ele>175.30610372</ele>
        <time>2017-09-03T10:25:11Z</time>
      </trkpt>
      <trkpt lat="50.42344" lon="2.63695">
        <ele>175.30624756</ele>
        <time>2017-09-03T10:25:16Z</time>
      </trkpt>
      <trkpt lat="50.42334" lon="2.63655">
        <ele>174.30662672</ele>
        <time>2017-09-03T10:25:20Z</time>
      </trkpt>
      <trkpt lat="50.42325" lon="2.63624">
        <ele>174.306988</ele>
        <time>2017-09-03T10:25:25Z</time>
      </trkpt>
      <trkpt lat="50.42317" lon="2.63591">
        <ele>173.3073266</ele>
        <time>2017-09-03T10:25:29Z</time>
      </trkpt>
      <trkpt lat="50.4231" lon="2.6356">
        <ele>173.30758652</ele>
        <time>2017-09-03T10:25:33Z</time>
      </trkpt>
      <trkpt lat="50.42307" lon="2.63526">
        <ele>173.30771972</ele>
        <time>2017-09-03T10:25:37Z</time>
      </trkpt>
      <trkpt lat="50.42307" lon="2.63482">
        <ele>172.30772216</ele>
        <time>2017-09-03T10:25:42Z</time>
      </trkpt>
      <trkpt lat="50.42312" lon="2.6344">
        <ele>171.3075314</ele>
        <time>2017-09-03T10:25:47Z</time>
      </trkpt>
      <trkpt lat="50.42316" lon="2.63406">
        <ele>170.30734916</ele>
        <time>2017-09-03T10:25:51Z</time>
      </trkpt>
      <trkpt lat="50.4232" lon="2.63375">
        <ele>170.30722024</ele>
        <time>2017-09-03T10:25:56Z</time>
      </trkpt>
      <trkpt lat="50.4233" lon="2.63369">
        <ele>169.3068066</ele>
        <time>2017-09-03T10:26:00Z</time>
      </trkpt>
      <trkpt lat="50.4235" lon="2.63365">
        <ele>169.306</ele>
        <time>2017-09-03T10:26:04Z</time>
      </trkpt>
      <trkpt lat="50.42377" lon="2.63363">
        <ele>169.30491956</ele>
        <time>2017-09-03T10:26:08Z</time>
      </trkpt>
      <trkpt lat="50.42402" lon="2.63363">
        <ele>168.30391684</ele>
        <time>2017-09-03T10:26:12Z</time>
      </trkpt>
      <trkpt lat="50.42427" lon="2.63367">
        <ele>168.30291344</ele>
        <time>2017-09-03T10:26:16Z</time>
      </trkpt>
      <trkpt lat="50.42457" lon="2.63374">
        <ele>169.30174076</ele>
        <time>2017-09-03T10:26:20Z</time>
      </trkpt>
      <trkpt lat="50.42481" lon="2.63378">
        <ele>169.3007668</ele>
        <time>2017-09-03T10:26:25Z</time>
      </trkpt>
      <trkpt lat="50.4251" lon="2.63385">
        <ele>169.299613</ele>
        <time>2017-09-03T10:26:30Z</time>
      </trkpt>
      <trkpt lat="50.42531" lon="2.63388">
        <ele>168.29876836</ele>
        <time>2017-09-03T10:26:34Z</time>
      </trkpt>
      <trkpt lat="50.42551" lon="2.63391">
        <ele>168.2979734</ele>
        <time>2017-09-03T10:26:38Z</time>
      </trkpt>
      <trkpt lat="50.42573" lon="2.63395">
        <ele>168.29707408</ele>
        <time>2017-09-03T10:26:43Z</time>
      </trkpt>
      <trkpt lat="50.42586" lon="2.63374">
        <ele>169.2965676</ele>
        <time>2017-09-03T10:26:48Z</time>
      </trkpt>
      <trkpt lat="50.42592" lon="2.63344">
        <ele>169.29632532</ele>
        <time>2017-09-03T10:26:52Z</time>
      </trkpt>
      <trkpt lat="50.42598" lon="2.63312">
        <ele>170.29607348</ele>
        <time>2017-09-03T10:26:56Z</time>
      </trkpt>
      <trkpt lat="50.42606" lon="2.63283">
        <ele>170.29574668</ele>
        <time>2017-09-03T10:27:00Z</time>
      </trkpt>
      <trkpt lat="50.42614" lon="2.6325">
        <ele>170.29545496</ele>
        <time>2017-09-03T10:27:04Z</time>
      </trkpt>
      <trkpt lat="50.42618" lon="2.63219">
        <ele>170.29527936</ele>
        <time>2017-09-03T10:27:09Z</time>
      </trkpt>
      <trkpt lat="50.42619" lon="2.63202">
        <ele>170.29523104</ele>
        <time>2017-09-03T10:27:13Z</time>
      </trkpt>
      <trkpt lat="50.42619" lon="2.63172">
        <ele>171.29526128</ele>
        <time>2017-09-03T10:27:18Z</time>
      </trkpt>
      <trkpt lat="50.42616" lon="2.63134">
        <ele>173.29537184</ele>
        <time>2017-09-03T10:27:22Z</time>
      </trkpt>
      <trkpt lat="50.42617" lon="2.63105">
        <ele>173.29531356</ele>
        <time>2017-09-03T10:27:27Z</time>
      </trkpt>
      <trkpt lat="50.42619" lon="2.63066">
        <ele>173.29525368</ele>
        <time>2017-09-03T10:27:32Z</time>
      </trkpt>
      <trkpt lat="50.4262" lon="2.63036">
        <ele>173.29522124</ele>
        <time>2017-09-03T10:27:36Z</time>
      </trkpt>
      <trkpt lat="50.42623" lon="2.62996">
        <ele>173.29507032</ele>
        <time>2017-09-03T10:27:41Z</time>
      </trkpt>
      <trkpt lat="50.42627" lon="2.62965">
        <ele>174.29493148</ele>
        <time>2017-09-03T10:27:45Z</time>
      </trkpt>
      <trkpt lat="50.42629" lon="2.62936">
        <ele>174.2948372</ele>
        <time>2017-09-03T10:27:49Z</time>
      </trkpt>
      <trkpt lat="50.4263" lon="2.62905">
        <ele>174.29480104</ele>
        <time>2017-09-03T10:27:53Z</time>
      </trkpt>
      <trkpt lat="50.42635" lon="2.62874">
        <ele>175.29460232</ele>
        <time>2017-09-03T10:27:57Z</time>
      </trkpt>
      <trkpt lat="50.42637" lon="2.6285">
        <ele>175.29453032</ele>
        <time>2017-09-03T10:28:00Z</time>
      </trkpt>
      <trkpt lat="50.42641" lon="2.62809">
        <ele>175.29438104</ele>
        <time>2017-09-03T10:28:05Z</time>
      </trkpt>
      <trkpt lat="50.42644" lon="2.62777">
        <ele>175.29423348</ele>
        <time>2017-09-03T10:28:09Z</time>
      </trkpt>
      <trkpt lat="50.42647" lon="2.62747">
        <ele>173.2941062</ele>
        <time>2017-09-03T10:28:13Z</time>
      </trkpt>
      <trkpt lat="50.42654" lon="2.62709">
        <ele>173.29382764</ele>
        <time>2017-09-03T10:28:18Z</time>
      </trkpt>
      <trkpt lat="50.4266" lon="2.6268">
        <ele>173.29360976</ele>
        <time>2017-09-03T10:28:22Z</time>
      </trkpt>
      <trkpt lat="50.42664" lon="2.62641">
        <ele>174.29342412</ele>
        <time>2017-09-03T10:28:27Z</time>
      </trkpt>
      <trkpt lat="50.42667" lon="2.62611">
        <ele>173.29330616</ele>
        <time>2017-09-03T10:28:31Z</time>
      </trkpt>
      <trkpt lat="50.42669" lon="2.62583">
        <ele>174.29325016</ele>
        <time>2017-09-03T10:28:35Z</time>
      </trkpt>
      <trkpt lat="50.4267" lon="2.62548">
        <ele>174.2931964</ele>
        <time>2017-09-03T10:28:40Z</time>
      </trkpt>
      <trkpt lat="50.42672" lon="2.62517">
        <ele>174.29314008</ele>
        <time>2017-09-03T10:28:44Z</time>
      </trkpt>
      <trkpt lat="50.42674" lon="2.62484">
        <ele>174.29303192</ele>
        <time>2017-09-03T10:28:48Z</time>
      </trkpt>
      <trkpt lat="50.42679" lon="2.62442">
        <ele>173.29283756</ele>
        <time>2017-09-03T10:28:53Z</time>
      </trkpt>
      <trkpt lat="50.42684" lon="2.62409">
        <ele>173.29264184</ele>
        <time>2017-09-03T10:28:57Z</time>
      </trkpt>
      <trkpt lat="50.42694" lon="2.6238">
        <ele>173.29223092</ele>
        <time>2017-09-03T10:29:01Z</time>
      </trkpt>
      <trkpt lat="50.42706" lon="2.62343">
        <ele>173.2917682</ele>
        <time>2017-09-03T10:29:06Z</time>
      </trkpt>
      <trkpt lat="50.42718" lon="2.62307">
        <ele>174.29128496</ele>
        <time>2017-09-03T10:29:11Z</time>
      </trkpt>
      <trkpt lat="50.42728" lon="2.6227">
        <ele>174.29087404</ele>
        <time>2017-09-03T10:29:16Z</time>
      </trkpt>
      <trkpt lat="50.42741" lon="2.62237">
        <ele>176.29034948</ele>
        <time>2017-09-03T10:29:21Z</time>
      </trkpt>
      <trkpt lat="50.42753" lon="2.62201">
        <ele>175.2898998</ele>
        <time>2017-09-03T10:29:26Z</time>
      </trkpt>
      <trkpt lat="50.42765" lon="2.62166">
        <ele>175.28939716</ele>
        <time>2017-09-03T10:29:30Z</time>
      </trkpt>
      <trkpt lat="50.42779" lon="2.62135">
        <ele>175.28885908</ele>
        <time>2017-09-03T10:29:35Z</time>
      </trkpt>
      <trkpt lat="50.42776" lon="2.62122">
        <ele>176.288966</ele>
        <time>2017-09-03T10:29:40Z</time>
      </trkpt>
      <trkpt lat="50.42759" lon="2.62106">
        <ele>177.28962236</ele>
        <time>2017-09-03T10:29:44Z</time>
      </trkpt>
      <trkpt lat="50.42745" lon="2.62091">
        <ele>176.29019336</ele>
        <time>2017-09-03T10:29:49Z</time>
      </trkpt>
      <trkpt lat="50.42726" lon="2.62071">
        <ele>174.29096488</ele>
        <time>2017-09-03T10:29:54Z</time>
      </trkpt>
      <trkpt lat="50.42711" lon="2.62056">
        <ele>174.2915794</ele>
        <time>2017-09-03T10:29:58Z</time>
      </trkpt>
      <trkpt lat="50.42696" lon="2.6204">
        <ele>173.29216656</ele>
        <time>2017-09-03T10:30:02Z</time>
      </trkpt>
      <trkpt lat="50.42682" lon="2.62024">
        <ele>172.29272504</ele>
        <time>2017-09-03T10:30:06Z</time>
      </trkpt>
      <trkpt lat="50.4267" lon="2.61998">
        <ele>173.2932146</ele>
        <time>2017-09-03T10:30:11Z</time>
      </trkpt>
      <trkpt lat="50.42664" lon="2.61973">
        <ele>173.29342968</ele>
        <time>2017-09-03T10:30:15Z</time>
      </trkpt>
      <trkpt lat="50.42658" lon="2.61944">
        <ele>174.29367816</ele>
        <time>2017-09-03T10:30:19Z</time>
      </trkpt>
      <trkpt lat="50.4265" lon="2.61913">
        <ele>172.29399496</ele>
        <time>2017-09-03T10:30:23Z</time>
      </trkpt>
      <trkpt lat="50.42647" lon="2.61881">
        <ele>173.29412884</ele>
        <time>2017-09-03T10:30:28Z</time>
      </trkpt>
      <trkpt lat="50.42641" lon="2.61849">
        <ele>173.29436548</ele>
        <time>2017-09-03T10:30:32Z</time>
      </trkpt>
      <trkpt lat="50.42634" lon="2.61805">
        <ele>172.29465328</ele>
        <time>2017-09-03T10:30:37Z</time>
      </trkpt>
      <trkpt lat="50.4263" lon="2.61777">
        <ele>173.29480612</ele>
        <time>2017-09-03T10:30:41Z</time>
      </trkpt>
      <trkpt lat="50.42627" lon="2.61753">
        <ele>174.29490716</ele>
        <time>2017-09-03T10:30:45Z</time>
      </trkpt>
      <trkpt lat="50.42622" lon="2.61737">
        <ele>171.29510304</ele>
        <time>2017-09-03T10:30:50Z</time>
      </trkpt>
      <trkpt lat="50.4261" lon="2.61729">
        <ele>170.295616</ele>
        <time>2017-09-03T10:30:54Z</time>
      </trkpt>
      <trkpt lat="50.42589" lon="2.61725">
        <ele>170.2964498</ele>
        <time>2017-09-03T10:30:58Z</time>
      </trkpt>
      <trkpt lat="50.42568" lon="2.61713">
        <ele>171.29727504</ele>
        <time>2017-09-03T10:31:02Z</time>
      </trkpt>
      <trkpt lat="50.4255" lon="2.61699">
        <ele>170.29801304</ele>
        <time>2017-09-03T10:31:06Z</time>
      </trkpt>
      <trkpt lat="50.42533" lon="2.61682">
        <ele>170.29867108</ele>
        <time>2017-09-03T10:31:10Z</time>
      </trkpt>
      <trkpt lat="50.42517" lon="2.61662">
        <ele>171.29931036</ele>
        <time>2017-09-03T10:31:14Z</time>
      </trkpt>
      <trkpt lat="50.42498" lon="2.61631">
        <ele>172.30008216</ele>
        <time>2017-09-03T10:31:19Z</time>
      </trkpt>
    </trkseg>
  </trk>
</gpx>